<?xml version="1.0" encoding="UTF-8" standalone="no" ?><gpx xmlns="http://www.topografix.com/GPX/1/1" xmlns:gpxx="http://www.garmin.com/xmlschemas/GpxExtensions/v3" xmlns:wptx1="http://www.garmin.com/xmlschemas/WaypointExtension/v1" xmlns:gpxtpx="http://www.garmin.com/xmlschemas/TrackPointExtension/v1" creator="Dakota 20" version="1.1" xmlns:xsi="http://www.w3.org/2001/XMLSchema-instance" xsi:schemaLocation="http://www.topografix.com/GPX/1/1 http://www.topografix.com/GPX/1/1/gpx.xsd http://www.garmin.com/xmlschemas/GpxExtensions/v3 http://www8.garmin.com/xmlschemas/GpxExtensionsv3.xsd http://www.garmin.com/xmlschemas/WaypointExtension/v1 http://www8.garmin.com/xmlschemas/WaypointExtensionv1.xsd http://www.garmin.com/xmlschemas/TrackPointExtension/v1 http://www.garmin.com/xmlschemas/TrackPointExtensionv1.xsd"><metadata><link href="http://www.garmin.com"><text>Garmin International</text></link><time>2011-10-12T16:32:31Z</time></metadata><trk><name>Current Track: 12 OCT 2011 10:03</name><extensions><gpxx:TrackExtension><gpxx:DisplayColor>Black</gpxx:DisplayColor></gpxx:TrackExtension></extensions><trkseg><trkpt lat="51.6903997399" lon="-1.6781457793"><ele>80.89</ele><time>2011-10-12T09:03:39Z</time></trkpt><trkpt lat="51.6903997399" lon="-1.6781457793"><ele>79.93</ele><time>2011-10-12T09:03:58Z</time></trkpt><trkpt lat="51.6903973930" lon="-1.6781482100"><ele>79.45</ele><time>2011-10-12T09:04:02Z</time></trkpt><trkpt lat="51.6903973930" lon="-1.6781482100"><ele>79.45</ele><time>2011-10-12T09:04:15Z</time></trkpt><trkpt lat="51.6903973930" lon="-1.6781482100"><ele>79.45</ele><time>2011-10-12T09:04:33Z</time></trkpt><trkpt lat="51.6903962195" lon="-1.6781454440"><ele>79.45</ele><time>2011-10-12T09:04:54Z</time></trkpt><trkpt lat="51.6903962195" lon="-1.6781454440"><ele>79.45</ele><time>2011-10-12T09:05:13Z</time></trkpt><trkpt lat="51.6903966386" lon="-1.6781463660"><ele>78.97</ele><time>2011-10-12T09:05:24Z</time></trkpt><trkpt lat="51.6903966386" lon="-1.6781463660"><ele>78.97</ele><time>2011-10-12T09:05:35Z</time></trkpt><trkpt lat="51.6903966386" lon="-1.6781463660"><ele>78.97</ele><time>2011-10-12T09:05:50Z</time></trkpt><trkpt lat="51.6903995723" lon="-1.6781426780"><ele>78.97</ele><time>2011-10-12T09:06:06Z</time></trkpt><trkpt lat="51.6903995723" lon="-1.6781426780"><ele>78.48</ele><time>2011-10-12T09:06:20Z</time></trkpt><trkpt lat="51.6903995723" lon="-1.6781426780"><ele>78.97</ele><time>2011-10-12T09:06:35Z</time></trkpt><trkpt lat="51.6903974768" lon="-1.6781398281"><ele>78.48</ele><time>2011-10-12T09:06:49Z</time></trkpt><trkpt lat="51.6903974768" lon="-1.6781398281"><ele>79.45</ele><time>2011-10-12T09:07:04Z</time></trkpt><trkpt lat="51.6903979797" lon="-1.6781379003"><ele>78.48</ele><time>2011-10-12T09:07:22Z</time></trkpt><trkpt lat="51.6903979797" lon="-1.6781379003"><ele>78.97</ele><time>2011-10-12T09:07:39Z</time></trkpt><trkpt lat="51.6903979797" lon="-1.6781379003"><ele>78.48</ele><time>2011-10-12T09:07:51Z</time></trkpt><trkpt lat="51.6903916094" lon="-1.6781415045"><ele>78.48</ele><time>2011-10-12T09:08:09Z</time></trkpt><trkpt lat="51.6903781146" lon="-1.6781478748"><ele>78.48</ele><time>2011-10-12T09:08:14Z</time></trkpt><trkpt lat="51.6903721634" lon="-1.6781522334"><ele>78.48</ele><time>2011-10-12T09:08:23Z</time></trkpt><trkpt lat="51.6903721634" lon="-1.6781522334"><ele>78.48</ele><time>2011-10-12T09:08:36Z</time></trkpt><trkpt lat="51.6903583333" lon="-1.6781375650"><ele>78.48</ele><time>2011-10-12T09:08:46Z</time></trkpt><trkpt lat="51.6903599259" lon="-1.6781410854"><ele>78.97</ele><time>2011-10-12T09:08:59Z</time></trkpt><trkpt lat="51.6903599259" lon="-1.6781410854"><ele>78.48</ele><time>2011-10-12T09:09:14Z</time></trkpt><trkpt lat="51.6903599259" lon="-1.6781410854"><ele>78.97</ele><time>2011-10-12T09:09:25Z</time></trkpt><trkpt lat="51.6903551482" lon="-1.6781464498"><ele>78.48</ele><time>2011-10-12T09:09:43Z</time></trkpt><trkpt lat="51.6903551482" lon="-1.6781464498"><ele>78.00</ele><time>2011-10-12T09:09:59Z</time></trkpt><trkpt lat="51.6903485265" lon="-1.6781334579"><ele>78.48</ele><time>2011-10-12T09:10:13Z</time></trkpt><trkpt lat="51.6903485265" lon="-1.6781334579"><ele>78.48</ele><time>2011-10-12T09:10:29Z</time></trkpt><trkpt lat="51.6903485265" lon="-1.6781334579"><ele>78.48</ele><time>2011-10-12T09:10:44Z</time></trkpt><trkpt lat="51.6903470177" lon="-1.6781292669"><ele>78.48</ele><time>2011-10-12T09:11:02Z</time></trkpt><trkpt lat="51.6903470177" lon="-1.6781292669"><ele>78.00</ele><time>2011-10-12T09:11:19Z</time></trkpt><trkpt lat="51.6903480235" lon="-1.6781311110"><ele>78.00</ele><time>2011-10-12T09:11:34Z</time></trkpt><trkpt lat="51.6903476883" lon="-1.6781308595"><ele>78.00</ele><time>2011-10-12T09:11:49Z</time></trkpt><trkpt lat="51.6903433297" lon="-1.6781281773"><ele>78.00</ele><time>2011-10-12T09:11:58Z</time></trkpt><trkpt lat="51.6903433297" lon="-1.6781281773"><ele>77.52</ele><time>2011-10-12T09:12:15Z</time></trkpt><trkpt lat="51.6903433297" lon="-1.6781281773"><ele>77.52</ele><time>2011-10-12T09:12:33Z</time></trkpt><trkpt lat="51.6903436650" lon="-1.6781273391"><ele>78.00</ele><time>2011-10-12T09:12:44Z</time></trkpt><trkpt lat="51.6903436650" lon="-1.6781273391"><ele>78.00</ele><time>2011-10-12T09:13:02Z</time></trkpt><trkpt lat="51.6903470177" lon="-1.6781280097"><ele>78.00</ele><time>2011-10-12T09:13:17Z</time></trkpt><trkpt lat="51.6903491132" lon="-1.6781283449"><ele>78.00</ele><time>2011-10-12T09:13:30Z</time></trkpt><trkpt lat="51.6903491132" lon="-1.6781283449"><ele>77.52</ele><time>2011-10-12T09:13:44Z</time></trkpt><trkpt lat="51.6903019231" lon="-1.6780739464"><ele>77.52</ele><time>2011-10-12T09:13:51Z</time></trkpt><trkpt lat="51.6902608518" lon="-1.6780882794"><ele>77.52</ele><time>2011-10-12T09:13:57Z</time></trkpt><trkpt lat="51.6902516317" lon="-1.6781021934"><ele>77.52</ele><time>2011-10-12T09:14:03Z</time></trkpt><trkpt lat="51.6902276594" lon="-1.6782061290"><ele>78.00</ele><time>2011-10-12T09:14:09Z</time></trkpt><trkpt lat="51.6902211215" lon="-1.6782848351"><ele>77.04</ele><time>2011-10-12T09:14:15Z</time></trkpt><trkpt lat="51.6902077105" lon="-1.6783819813"><ele>78.00</ele><time>2011-10-12T09:14:21Z</time></trkpt><trkpt lat="51.6902047768" lon="-1.6783984937"><ele>77.52</ele><time>2011-10-12T09:14:23Z</time></trkpt><trkpt lat="51.6901794635" lon="-1.6784717515"><ele>77.52</ele><time>2011-10-12T09:14:28Z</time></trkpt><trkpt lat="51.6901933774" lon="-1.6785492003"><ele>77.52</ele><time>2011-10-12T09:14:33Z</time></trkpt><trkpt lat="51.6901860014" lon="-1.6785982344"><ele>77.04</ele><time>2011-10-12T09:14:40Z</time></trkpt><trkpt lat="51.6901453491" lon="-1.6786150821"><ele>78.00</ele><time>2011-10-12T09:14:44Z</time></trkpt><trkpt lat="51.6900622007" lon="-1.6786602605"><ele>79.45</ele><time>2011-10-12T09:14:51Z</time></trkpt><trkpt lat="51.6899708379" lon="-1.6786841489"><ele>79.45</ele><time>2011-10-12T09:14:58Z</time></trkpt><trkpt lat="51.6898892820" lon="-1.6787096299"><ele>80.41</ele><time>2011-10-12T09:15:05Z</time></trkpt><trkpt lat="51.6898041219" lon="-1.6787342727"><ele>80.89</ele><time>2011-10-12T09:15:13Z</time></trkpt><trkpt lat="51.6897322889" lon="-1.6787801217"><ele>80.89</ele><time>2011-10-12T09:15:20Z</time></trkpt><trkpt lat="51.6896686703" lon="-1.6788394656"><ele>80.41</ele><time>2011-10-12T09:15:26Z</time></trkpt><trkpt lat="51.6896039620" lon="-1.6788810398"><ele>80.41</ele><time>2011-10-12T09:15:32Z</time></trkpt><trkpt lat="51.6895961668" lon="-1.6788812913"><ele>80.89</ele><time>2011-10-12T09:15:35Z</time></trkpt><trkpt lat="51.6895269323" lon="-1.6789087839"><ele>80.41</ele><time>2011-10-12T09:15:39Z</time></trkpt><trkpt lat="51.6894467175" lon="-1.6789483465"><ele>79.93</ele><time>2011-10-12T09:15:47Z</time></trkpt><trkpt lat="51.6893652454" lon="-1.6790124681"><ele>79.93</ele><time>2011-10-12T09:15:57Z</time></trkpt><trkpt lat="51.6893453803" lon="-1.6790286452"><ele>80.41</ele><time>2011-10-12T09:15:59Z</time></trkpt><trkpt lat="51.6893250123" lon="-1.6790548805"><ele>80.41</ele><time>2011-10-12T09:16:06Z</time></trkpt><trkpt lat="51.6893119365" lon="-1.6790593229"><ele>80.41</ele><time>2011-10-12T09:16:13Z</time></trkpt><trkpt lat="51.6893069074" lon="-1.6790620890"><ele>79.93</ele><time>2011-10-12T09:16:16Z</time></trkpt><trkpt lat="51.6892996151" lon="-1.6791078541"><ele>79.93</ele><time>2011-10-12T09:16:21Z</time></trkpt><trkpt lat="51.6892996151" lon="-1.6791078541"><ele>79.93</ele><time>2011-10-12T09:16:32Z</time></trkpt><trkpt lat="51.6892996151" lon="-1.6791078541"><ele>79.93</ele><time>2011-10-12T09:16:46Z</time></trkpt><trkpt lat="51.6893002857" lon="-1.6791073512"><ele>78.97</ele><time>2011-10-12T09:16:56Z</time></trkpt><trkpt lat="51.6893034708" lon="-1.6791443154"><ele>78.97</ele><time>2011-10-12T09:17:04Z</time></trkpt><trkpt lat="51.6893034708" lon="-1.6791443154"><ele>78.97</ele><time>2011-10-12T09:17:16Z</time></trkpt><trkpt lat="51.6893317178" lon="-1.6791793518"><ele>78.00</ele><time>2011-10-12T09:17:24Z</time></trkpt><trkpt lat="51.6893538460" lon="-1.6792367678"><ele>77.52</ele><time>2011-10-12T09:17:31Z</time></trkpt><trkpt lat="51.6893604677" lon="-1.6792545374"><ele>78.00</ele><time>2011-10-12T09:17:41Z</time></trkpt><trkpt lat="51.6893594619" lon="-1.6792529449"><ele>77.04</ele><time>2011-10-12T09:17:43Z</time></trkpt><trkpt lat="51.6894129384" lon="-1.6793812718"><ele>78.00</ele><time>2011-10-12T09:17:51Z</time></trkpt><trkpt lat="51.6894391738" lon="-1.6794996243"><ele>78.00</ele><time>2011-10-12T09:17:56Z</time></trkpt><trkpt lat="51.6894826759" lon="-1.6796536837"><ele>78.00</ele><time>2011-10-12T09:18:05Z</time></trkpt><trkpt lat="51.6895602085" lon="-1.6798171308"><ele>78.00</ele><time>2011-10-12T09:18:15Z</time></trkpt><trkpt lat="51.6895858571" lon="-1.6798606329"><ele>78.00</ele><time>2011-10-12T09:18:19Z</time></trkpt><trkpt lat="51.6896161996" lon="-1.6798889637"><ele>77.04</ele><time>2011-10-12T09:18:25Z</time></trkpt><trkpt lat="51.6896225698" lon="-1.6798867844"><ele>77.52</ele><time>2011-10-12T09:18:26Z</time></trkpt><trkpt lat="51.6896501463" lon="-1.6799286939"><ele>77.52</ele><time>2011-10-12T09:18:31Z</time></trkpt><trkpt lat="51.6896897927" lon="-1.6799930669"><ele>77.52</ele><time>2011-10-12T09:18:38Z</time></trkpt><trkpt lat="51.6896996833" lon="-1.6800150275"><ele>77.04</ele><time>2011-10-12T09:18:52Z</time></trkpt><trkpt lat="51.6897074785" lon="-1.6800510697"><ele>78.48</ele><time>2011-10-12T09:18:54Z</time></trkpt><trkpt lat="51.6897370666" lon="-1.6801518202"><ele>77.52</ele><time>2011-10-12T09:19:01Z</time></trkpt><trkpt lat="51.6897492204" lon="-1.6801735293"><ele>77.52</ele><time>2011-10-12T09:19:04Z</time></trkpt><trkpt lat="51.6898007691" lon="-1.6802744474"><ele>77.04</ele><time>2011-10-12T09:19:10Z</time></trkpt><trkpt lat="51.6898586880" lon="-1.6804193705"><ele>77.52</ele><time>2011-10-12T09:19:16Z</time></trkpt><trkpt lat="51.6898884438" lon="-1.6804632917"><ele>77.52</ele><time>2011-10-12T09:19:21Z</time></trkpt><trkpt lat="51.6898840014" lon="-1.6804697458"><ele>77.04</ele><time>2011-10-12T09:19:24Z</time></trkpt><trkpt lat="51.6898469534" lon="-1.6805199534"><ele>76.56</ele><time>2011-10-12T09:19:27Z</time></trkpt><trkpt lat="51.6898439359" lon="-1.6805160139"><ele>77.04</ele><time>2011-10-12T09:19:34Z</time></trkpt><trkpt lat="51.6898439359" lon="-1.6805160139"><ele>76.08</ele><time>2011-10-12T09:19:35Z</time></trkpt><trkpt lat="51.6898474563" lon="-1.6806163453"><ele>77.04</ele><time>2011-10-12T09:19:42Z</time></trkpt><trkpt lat="51.6898457799" lon="-1.6807528865"><ele>77.52</ele><time>2011-10-12T09:19:47Z</time></trkpt><trkpt lat="51.6898467857" lon="-1.6807670519"><ele>76.56</ele><time>2011-10-12T09:19:49Z</time></trkpt><trkpt lat="51.6898582689" lon="-1.6809037607"><ele>77.52</ele><time>2011-10-12T09:19:55Z</time></trkpt><trkpt lat="51.6898600291" lon="-1.6809838917"><ele>77.04</ele><time>2011-10-12T09:20:00Z</time></trkpt><trkpt lat="51.6898701712" lon="-1.6810858157"><ele>77.04</ele><time>2011-10-12T09:20:05Z</time></trkpt><trkpt lat="51.6898701712" lon="-1.6810858157"><ele>77.04</ele><time>2011-10-12T09:20:06Z</time></trkpt><trkpt lat="51.6898850072" lon="-1.6812546272"><ele>77.52</ele><time>2011-10-12T09:20:12Z</time></trkpt><trkpt lat="51.6898842528" lon="-1.6812717263"><ele>77.04</ele><time>2011-10-12T09:20:14Z</time></trkpt><trkpt lat="51.6898783855" lon="-1.6813025717"><ele>77.04</ele><time>2011-10-12T09:20:16Z</time></trkpt><trkpt lat="51.6898736916" lon="-1.6814357601"><ele>77.52</ele><time>2011-10-12T09:20:23Z</time></trkpt><trkpt lat="51.6898725182" lon="-1.6814555414"><ele>77.52</ele><time>2011-10-12T09:20:24Z</time></trkpt><trkpt lat="51.6898802295" lon="-1.6815985367"><ele>77.04</ele><time>2011-10-12T09:20:30Z</time></trkpt><trkpt lat="51.6898777150" lon="-1.6816075891"><ele>77.52</ele><time>2011-10-12T09:20:31Z</time></trkpt><trkpt lat="51.6898744460" lon="-1.6817427892"><ele>78.00</ele><time>2011-10-12T09:20:37Z</time></trkpt><trkpt lat="51.6898723505" lon="-1.6817647498"><ele>77.52</ele><time>2011-10-12T09:20:39Z</time></trkpt><trkpt lat="51.6898665670" lon="-1.6819071583"><ele>77.04</ele><time>2011-10-12T09:20:44Z</time></trkpt><trkpt lat="51.6898679081" lon="-1.6819340643"><ele>77.04</ele><time>2011-10-12T09:20:47Z</time></trkpt><trkpt lat="51.6898740269" lon="-1.6820881236"><ele>78.00</ele><time>2011-10-12T09:20:53Z</time></trkpt><trkpt lat="51.6898700874" lon="-1.6821276862"><ele>78.00</ele><time>2011-10-12T09:20:58Z</time></trkpt><trkpt lat="51.6898353025" lon="-1.6822292749"><ele>77.52</ele><time>2011-10-12T09:21:03Z</time></trkpt><trkpt lat="51.6898361407" lon="-1.6822456196"><ele>77.52</ele><time>2011-10-12T09:21:05Z</time></trkpt><trkpt lat="51.6898382362" lon="-1.6823561769"><ele>78.00</ele><time>2011-10-12T09:21:09Z</time></trkpt><trkpt lat="51.6898249090" lon="-1.6824311111"><ele>77.52</ele><time>2011-10-12T09:21:15Z</time></trkpt><trkpt lat="51.6898025293" lon="-1.6824914608"><ele>77.52</ele><time>2011-10-12T09:21:21Z</time></trkpt><trkpt lat="51.6898205504" lon="-1.6826104000"><ele>77.52</ele><time>2011-10-12T09:21:26Z</time></trkpt><trkpt lat="51.6898407508" lon="-1.6826906987"><ele>77.52</ele><time>2011-10-12T09:21:33Z</time></trkpt><trkpt lat="51.6898408346" lon="-1.6828375496"><ele>77.52</ele><time>2011-10-12T09:21:38Z</time></trkpt><trkpt lat="51.6898525693" lon="-1.6829042695"><ele>77.52</ele><time>2011-10-12T09:21:43Z</time></trkpt><trkpt lat="51.6898632981" lon="-1.6829403955"><ele>77.52</ele><time>2011-10-12T09:21:45Z</time></trkpt><trkpt lat="51.6898887791" lon="-1.6830724943"><ele>78.00</ele><time>2011-10-12T09:21:51Z</time></trkpt><trkpt lat="51.6898957361" lon="-1.6830890067"><ele>77.04</ele><time>2011-10-12T09:21:54Z</time></trkpt><trkpt lat="51.6899552476" lon="-1.6831849795"><ele>77.52</ele><time>2011-10-12T09:22:00Z</time></trkpt><trkpt lat="51.6899824888" lon="-1.6832176689"><ele>77.52</ele><time>2011-10-12T09:22:06Z</time></trkpt><trkpt lat="51.6900112387" lon="-1.6832497716"><ele>77.52</ele><time>2011-10-12T09:22:11Z</time></trkpt><trkpt lat="51.6900114901" lon="-1.6832640208"><ele>77.52</ele><time>2011-10-12T09:22:13Z</time></trkpt><trkpt lat="51.6900497954" lon="-1.6833300702"><ele>78.00</ele><time>2011-10-12T09:22:17Z</time></trkpt><trkpt lat="51.6900725104" lon="-1.6833615024"><ele>77.52</ele><time>2011-10-12T09:22:21Z</time></trkpt><trkpt lat="51.6901335306" lon="-1.6834974568"><ele>78.48</ele><time>2011-10-12T09:22:28Z</time></trkpt><trkpt lat="51.6901665553" lon="-1.6835956089"><ele>77.52</ele><time>2011-10-12T09:22:35Z</time></trkpt><trkpt lat="51.6902005859" lon="-1.6837088484"><ele>77.52</ele><time>2011-10-12T09:22:41Z</time></trkpt><trkpt lat="51.6902143322" lon="-1.6837515123"><ele>77.04</ele><time>2011-10-12T09:22:45Z</time></trkpt><trkpt lat="51.6902347840" lon="-1.6838585492"><ele>76.56</ele><time>2011-10-12T09:22:52Z</time></trkpt><trkpt lat="51.6903018393" lon="-1.6839504149"><ele>77.52</ele><time>2011-10-12T09:22:59Z</time></trkpt><trkpt lat="51.6903101373" lon="-1.6839615628"><ele>77.52</ele><time>2011-10-12T09:23:00Z</time></trkpt><trkpt lat="51.6903471854" lon="-1.6840597149"><ele>77.04</ele><time>2011-10-12T09:23:06Z</time></trkpt><trkpt lat="51.6904018354" lon="-1.6841915622"><ele>77.52</ele><time>2011-10-12T09:23:13Z</time></trkpt><trkpt lat="51.6904254723" lon="-1.6842315439"><ele>77.04</ele><time>2011-10-12T09:23:18Z</time></trkpt><trkpt lat="51.6904477682" lon="-1.6843341384"><ele>77.52</ele><time>2011-10-12T09:23:23Z</time></trkpt><trkpt lat="51.6904698964" lon="-1.6843918897"><ele>77.04</ele><time>2011-10-12T09:23:27Z</time></trkpt><trkpt lat="51.6904884204" lon="-1.6844864376"><ele>77.04</ele><time>2011-10-12T09:23:33Z</time></trkpt><trkpt lat="51.6905047651" lon="-1.6845539119"><ele>77.04</ele><time>2011-10-12T09:23:39Z</time></trkpt><trkpt lat="51.6905219480" lon="-1.6846852563"><ele>78.00</ele><time>2011-10-12T09:23:44Z</time></trkpt><trkpt lat="51.6905419808" lon="-1.6847437620"><ele>77.04</ele><time>2011-10-12T09:23:50Z</time></trkpt><trkpt lat="51.6905522067" lon="-1.6848564986"><ele>78.00</ele><time>2011-10-12T09:23:55Z</time></trkpt><trkpt lat="51.6905594990" lon="-1.6848847456"><ele>77.04</ele><time>2011-10-12T09:23:59Z</time></trkpt><trkpt lat="51.6905749217" lon="-1.6850010026"><ele>77.52</ele><time>2011-10-12T09:24:03Z</time></trkpt><trkpt lat="51.6905823816" lon="-1.6850498691"><ele>77.04</ele><time>2011-10-12T09:24:07Z</time></trkpt><trkpt lat="51.6906055156" lon="-1.6851687245"><ele>76.56</ele><time>2011-10-12T09:24:13Z</time></trkpt><trkpt lat="51.6906123888" lon="-1.6851957981"><ele>77.52</ele><time>2011-10-12T09:24:14Z</time></trkpt><trkpt lat="51.6906447429" lon="-1.6852619313"><ele>76.56</ele><time>2011-10-12T09:24:20Z</time></trkpt><trkpt lat="51.6906816233" lon="-1.6853757575"><ele>77.52</ele><time>2011-10-12T09:24:25Z</time></trkpt><trkpt lat="51.6906878259" lon="-1.6854257975"><ele>76.56</ele><time>2011-10-12T09:24:31Z</time></trkpt><trkpt lat="51.6907036677" lon="-1.6854927689"><ele>77.04</ele><time>2011-10-12T09:24:33Z</time></trkpt><trkpt lat="51.6907316633" lon="-1.6855581477"><ele>78.00</ele><time>2011-10-12T09:24:38Z</time></trkpt><trkpt lat="51.6907466669" lon="-1.6856365185"><ele>77.04</ele><time>2011-10-12T09:24:42Z</time></trkpt><trkpt lat="51.6907530371" lon="-1.6857201699"><ele>77.52</ele><time>2011-10-12T09:24:45Z</time></trkpt><trkpt lat="51.6907664482" lon="-1.6857935116"><ele>77.04</ele><time>2011-10-12T09:24:51Z</time></trkpt><trkpt lat="51.6907796916" lon="-1.6858727206"><ele>77.04</ele><time>2011-10-12T09:24:56Z</time></trkpt><trkpt lat="51.6907822061" lon="-1.6858857125"><ele>78.00</ele><time>2011-10-12T09:25:07Z</time></trkpt><trkpt lat="51.6907895822" lon="-1.6859005485"><ele>77.52</ele><time>2011-10-12T09:25:09Z</time></trkpt><trkpt lat="51.6908442322" lon="-1.6859937552"><ele>77.52</ele><time>2011-10-12T09:25:14Z</time></trkpt><trkpt lat="51.6909290571" lon="-1.6861482337"><ele>78.00</ele><time>2011-10-12T09:25:20Z</time></trkpt><trkpt lat="51.6909402050" lon="-1.6861761454"><ele>77.52</ele><time>2011-10-12T09:25:26Z</time></trkpt><trkpt lat="51.6909402050" lon="-1.6861761454"><ele>77.04</ele><time>2011-10-12T09:25:31Z</time></trkpt><trkpt lat="51.6909930948" lon="-1.6862398479"><ele>78.00</ele><time>2011-10-12T09:25:37Z</time></trkpt><trkpt lat="51.6909930948" lon="-1.6862398479"><ele>77.52</ele><time>2011-10-12T09:25:46Z</time></trkpt><trkpt lat="51.6909977049" lon="-1.6862357408"><ele>78.00</ele><time>2011-10-12T09:25:54Z</time></trkpt><trkpt lat="51.6909977049" lon="-1.6862357408"><ele>77.52</ele><time>2011-10-12T09:25:55Z</time></trkpt><trkpt lat="51.6909744032" lon="-1.6861836892"><ele>78.00</ele><time>2011-10-12T09:26:00Z</time></trkpt><trkpt lat="51.6909744032" lon="-1.6861836892"><ele>77.04</ele><time>2011-10-12T09:26:13Z</time></trkpt><trkpt lat="51.6909914184" lon="-1.6863141116"><ele>78.48</ele><time>2011-10-12T09:26:17Z</time></trkpt><trkpt lat="51.6910018120" lon="-1.6863820050"><ele>77.52</ele><time>2011-10-12T09:26:22Z</time></trkpt><trkpt lat="51.6910018120" lon="-1.6863820050"><ele>76.56</ele><time>2011-10-12T09:26:26Z</time></trkpt><trkpt lat="51.6909897421" lon="-1.6865092423"><ele>77.52</ele><time>2011-10-12T09:26:32Z</time></trkpt><trkpt lat="51.6910028178" lon="-1.6866314504"><ele>77.52</ele><time>2011-10-12T09:26:37Z</time></trkpt><trkpt lat="51.6910178214" lon="-1.6867726855"><ele>78.00</ele><time>2011-10-12T09:26:44Z</time></trkpt><trkpt lat="51.6910455655" lon="-1.6869907826"><ele>77.04</ele><time>2011-10-12T09:26:54Z</time></trkpt><trkpt lat="51.6910732258" lon="-1.6872088797"><ele>77.04</ele><time>2011-10-12T09:27:04Z</time></trkpt><trkpt lat="51.6910994612" lon="-1.6874301620"><ele>76.56</ele><time>2011-10-12T09:27:14Z</time></trkpt><trkpt lat="51.6911150515" lon="-1.6875862330"><ele>76.56</ele><time>2011-10-12T09:27:23Z</time></trkpt><trkpt lat="51.6911356710" lon="-1.6877343412"><ele>78.48</ele><time>2011-10-12T09:27:30Z</time></trkpt><trkpt lat="51.6911357548" lon="-1.6877410468"><ele>77.52</ele><time>2011-10-12T09:27:37Z</time></trkpt><trkpt lat="51.6911357548" lon="-1.6877410468"><ele>77.52</ele><time>2011-10-12T09:27:52Z</time></trkpt><trkpt lat="51.6911466513" lon="-1.6877553798"><ele>77.52</ele><time>2011-10-12T09:28:02Z</time></trkpt><trkpt lat="51.6911666840" lon="-1.6878822818"><ele>77.04</ele><time>2011-10-12T09:28:10Z</time></trkpt><trkpt lat="51.6911891475" lon="-1.6880367603"><ele>77.52</ele><time>2011-10-12T09:28:15Z</time></trkpt><trkpt lat="51.6912002955" lon="-1.6880797595"><ele>77.52</ele><time>2011-10-12T09:28:20Z</time></trkpt><trkpt lat="51.6912323982" lon="-1.6882245149"><ele>77.52</ele><time>2011-10-12T09:28:26Z</time></trkpt><trkpt lat="51.6912660096" lon="-1.6883374192"><ele>77.52</ele><time>2011-10-12T09:28:32Z</time></trkpt><trkpt lat="51.6912810132" lon="-1.6883897223"><ele>77.04</ele><time>2011-10-12T09:28:37Z</time></trkpt><trkpt lat="51.6913111042" lon="-1.6885844339"><ele>77.52</ele><time>2011-10-12T09:28:43Z</time></trkpt><trkpt lat="51.6913191509" lon="-1.6886384133"><ele>77.04</ele><time>2011-10-12T09:28:47Z</time></trkpt><trkpt lat="51.6913236771" lon="-1.6886542551"><ele>77.04</ele><time>2011-10-12T09:28:49Z</time></trkpt><trkpt lat="51.6913508344" lon="-1.6888606176"><ele>77.52</ele><time>2011-10-12T09:28:57Z</time></trkpt><trkpt lat="51.6913497448" lon="-1.6888762079"><ele>78.48</ele><time>2011-10-12T09:28:58Z</time></trkpt><trkpt lat="51.6913711186" lon="-1.6889324505"><ele>77.04</ele><time>2011-10-12T09:29:05Z</time></trkpt><trkpt lat="51.6914133634" lon="-1.6891541518"><ele>78.48</ele><time>2011-10-12T09:29:12Z</time></trkpt><trkpt lat="51.6914109327" lon="-1.6891739331"><ele>77.52</ele><time>2011-10-12T09:29:16Z</time></trkpt><trkpt lat="51.6914201528" lon="-1.6892284155"><ele>76.56</ele><time>2011-10-12T09:29:23Z</time></trkpt><trkpt lat="51.6914276965" lon="-1.6892486159"><ele>77.04</ele><time>2011-10-12T09:29:24Z</time></trkpt><trkpt lat="51.6914292891" lon="-1.6893230472"><ele>77.04</ele><time>2011-10-12T09:29:29Z</time></trkpt><trkpt lat="51.6914329771" lon="-1.6893558204"><ele>77.52</ele><time>2011-10-12T09:29:32Z</time></trkpt><trkpt lat="51.6914870404" lon="-1.6896218620"><ele>77.52</ele><time>2011-10-12T09:29:40Z</time></trkpt><trkpt lat="51.6914799158" lon="-1.6896905098"><ele>78.48</ele><time>2011-10-12T09:29:44Z</time></trkpt><trkpt lat="51.6914982721" lon="-1.6898110416"><ele>77.52</ele><time>2011-10-12T09:29:51Z</time></trkpt><trkpt lat="51.6915063187" lon="-1.6899630893"><ele>77.04</ele><time>2011-10-12T09:29:56Z</time></trkpt><trkpt lat="51.6915183887" lon="-1.6900247801"><ele>77.04</ele><time>2011-10-12T09:30:02Z</time></trkpt><trkpt lat="51.6915295366" lon="-1.6902078409"><ele>77.04</ele><time>2011-10-12T09:30:08Z</time></trkpt><trkpt lat="51.6915325541" lon="-1.6902643349"><ele>78.48</ele><time>2011-10-12T09:30:12Z</time></trkpt><trkpt lat="51.6915357392" lon="-1.6902808473"><ele>77.04</ele><time>2011-10-12T09:30:15Z</time></trkpt><trkpt lat="51.6915627290" lon="-1.6904725414"><ele>76.56</ele><time>2011-10-12T09:30:22Z</time></trkpt><trkpt lat="51.6915739607" lon="-1.6905264370"><ele>77.52</ele><time>2011-10-12T09:30:27Z</time></trkpt><trkpt lat="51.6915983520" lon="-1.6905739624"><ele>77.52</ele><time>2011-10-12T09:30:36Z</time></trkpt><trkpt lat="51.6916015372" lon="-1.6905914806"><ele>77.04</ele><time>2011-10-12T09:30:37Z</time></trkpt><trkpt lat="51.6916089971" lon="-1.6906475555"><ele>77.04</ele><time>2011-10-12T09:30:39Z</time></trkpt><trkpt lat="51.6916226596" lon="-1.6908444464"><ele>78.00</ele><time>2011-10-12T09:30:45Z</time></trkpt><trkpt lat="51.6916493140" lon="-1.6909279302"><ele>77.52</ele><time>2011-10-12T09:30:52Z</time></trkpt><trkpt lat="51.6916561872" lon="-1.6909574345"><ele>77.52</ele><time>2011-10-12T09:30:53Z</time></trkpt><trkpt lat="51.6916819196" lon="-1.6910529882"><ele>77.52</ele><time>2011-10-12T09:30:59Z</time></trkpt><trkpt lat="51.6916884575" lon="-1.6910883598"><ele>76.56</ele><time>2011-10-12T09:31:01Z</time></trkpt><trkpt lat="51.6917342227" lon="-1.6912525613"><ele>77.04</ele><time>2011-10-12T09:31:08Z</time></trkpt><trkpt lat="51.6917505674" lon="-1.6913095582"><ele>76.56</ele><time>2011-10-12T09:31:13Z</time></trkpt><trkpt lat="51.6918056365" lon="-1.6914947983"><ele>77.52</ele><time>2011-10-12T09:31:21Z</time></trkpt><trkpt lat="51.6918323748" lon="-1.6915850714"><ele>77.04</ele><time>2011-10-12T09:31:27Z</time></trkpt><trkpt lat="51.6918841749" lon="-1.6917224508"><ele>77.04</ele><time>2011-10-12T09:31:33Z</time></trkpt><trkpt lat="51.6919158585" lon="-1.6918508615"><ele>77.52</ele><time>2011-10-12T09:31:41Z</time></trkpt><trkpt lat="51.6919431835" lon="-1.6919205151"><ele>76.56</ele><time>2011-10-12T09:31:46Z</time></trkpt><trkpt lat="51.6919731069" lon="-1.6919822898"><ele>77.04</ele><time>2011-10-12T09:31:50Z</time></trkpt><trkpt lat="51.6919985041" lon="-1.6920599062"><ele>77.52</ele><time>2011-10-12T09:31:56Z</time></trkpt><trkpt lat="51.6920212191" lon="-1.6921454854"><ele>77.04</ele><time>2011-10-12T09:32:02Z</time></trkpt><trkpt lat="51.6920531541" lon="-1.6922355909"><ele>77.52</ele><time>2011-10-12T09:32:07Z</time></trkpt><trkpt lat="51.6920775454" lon="-1.6922726389"><ele>77.52</ele><time>2011-10-12T09:32:14Z</time></trkpt><trkpt lat="51.6920875199" lon="-1.6922907438"><ele>77.04</ele><time>2011-10-12T09:32:18Z</time></trkpt><trkpt lat="51.6921124980" lon="-1.6923183203"><ele>77.52</ele><time>2011-10-12T09:32:26Z</time></trkpt><trkpt lat="51.6921171080" lon="-1.6923256125"><ele>77.04</ele><time>2011-10-12T09:32:35Z</time></trkpt><trkpt lat="51.6921170242" lon="-1.6923587210"><ele>76.56</ele><time>2011-10-12T09:32:45Z</time></trkpt><trkpt lat="51.6921720095" lon="-1.6924792528"><ele>77.52</ele><time>2011-10-12T09:32:51Z</time></trkpt><trkpt lat="51.6921903659" lon="-1.6926019639"><ele>77.52</ele><time>2011-10-12T09:32:59Z</time></trkpt><trkpt lat="51.6922000051" lon="-1.6926606372"><ele>78.00</ele><time>2011-10-12T09:33:06Z</time></trkpt><trkpt lat="51.6921860911" lon="-1.6926893033"><ele>77.52</ele><time>2011-10-12T09:33:12Z</time></trkpt><trkpt lat="51.6922079679" lon="-1.6927419417"><ele>78.97</ele><time>2011-10-12T09:33:16Z</time></trkpt><trkpt lat="51.6922014300" lon="-1.6929048020"><ele>78.48</ele><time>2011-10-12T09:33:24Z</time></trkpt><trkpt lat="51.6922010109" lon="-1.6929347254"><ele>78.48</ele><time>2011-10-12T09:33:32Z</time></trkpt><trkpt lat="51.6922152601" lon="-1.6929327976"><ele>77.04</ele><time>2011-10-12T09:33:34Z</time></trkpt><trkpt lat="51.6922419984" lon="-1.6929868609"><ele>77.52</ele><time>2011-10-12T09:33:40Z</time></trkpt><trkpt lat="51.6922941338" lon="-1.6930270102"><ele>77.04</ele><time>2011-10-12T09:33:46Z</time></trkpt><trkpt lat="51.6923407372" lon="-1.6930854321"><ele>77.04</ele><time>2011-10-12T09:33:53Z</time></trkpt><trkpt lat="51.6923664697" lon="-1.6931309458"><ele>78.48</ele><time>2011-10-12T09:33:56Z</time></trkpt><trkpt lat="51.6923683137" lon="-1.6931337956"><ele>78.00</ele><time>2011-10-12T09:34:04Z</time></trkpt><trkpt lat="51.6923846584" lon="-1.6931721848"><ele>77.52</ele><time>2011-10-12T09:34:14Z</time></trkpt><trkpt lat="51.6923916154" lon="-1.6932783835"><ele>77.52</ele><time>2011-10-12T09:34:18Z</time></trkpt><trkpt lat="51.6924383026" lon="-1.6933992505"><ele>78.00</ele><time>2011-10-12T09:34:26Z</time></trkpt><trkpt lat="51.6924894322" lon="-1.6935225483"><ele>78.00</ele><time>2011-10-12T09:34:34Z</time></trkpt><trkpt lat="51.6924869176" lon="-1.6936496180"><ele>78.00</ele><time>2011-10-12T09:34:41Z</time></trkpt><trkpt lat="51.6924797930" lon="-1.6937771905"><ele>78.00</ele><time>2011-10-12T09:34:48Z</time></trkpt><trkpt lat="51.6924812179" lon="-1.6938462574"><ele>78.48</ele><time>2011-10-12T09:34:51Z</time></trkpt><trkpt lat="51.6924705729" lon="-1.6940436512"><ele>77.52</ele><time>2011-10-12T09:35:01Z</time></trkpt><trkpt lat="51.6924326029" lon="-1.6942158993"><ele>78.00</ele><time>2011-10-12T09:35:09Z</time></trkpt><trkpt lat="51.6924133245" lon="-1.6942672804"><ele>76.56</ele><time>2011-10-12T09:35:12Z</time></trkpt><trkpt lat="51.6924171802" lon="-1.6943026520"><ele>78.00</ele><time>2011-10-12T09:35:14Z</time></trkpt><trkpt lat="51.6924113128" lon="-1.6943337489"><ele>80.41</ele><time>2011-10-12T09:35:16Z</time></trkpt><trkpt lat="51.6924067866" lon="-1.6943699587"><ele>77.04</ele><time>2011-10-12T09:35:19Z</time></trkpt><trkpt lat="51.6924075410" lon="-1.6943803523"><ele>77.04</ele><time>2011-10-12T09:35:20Z</time></trkpt><trkpt lat="51.6923815571" lon="-1.6944905743"><ele>78.00</ele><time>2011-10-12T09:35:27Z</time></trkpt><trkpt lat="51.6923760250" lon="-1.6945107747"><ele>77.04</ele><time>2011-10-12T09:35:29Z</time></trkpt><trkpt lat="51.6923454311" lon="-1.6946271993"><ele>77.52</ele><time>2011-10-12T09:35:36Z</time></trkpt><trkpt lat="51.6923241410" lon="-1.6947672609"><ele>77.04</ele><time>2011-10-12T09:35:44Z</time></trkpt><trkpt lat="51.6922950558" lon="-1.6948978510"><ele>78.48</ele><time>2011-10-12T09:35:51Z</time></trkpt><trkpt lat="51.6922769509" lon="-1.6949572787"><ele>77.52</ele><time>2011-10-12T09:35:56Z</time></trkpt><trkpt lat="51.6922552418" lon="-1.6950976755"><ele>77.04</ele><time>2011-10-12T09:36:03Z</time></trkpt><trkpt lat="51.6922499612" lon="-1.6951125953"><ele>77.04</ele><time>2011-10-12T09:36:04Z</time></trkpt><trkpt lat="51.6922248155" lon="-1.6952354740"><ele>78.00</ele><time>2011-10-12T09:36:11Z</time></trkpt><trkpt lat="51.6922051180" lon="-1.6953652259"><ele>78.00</ele><time>2011-10-12T09:36:17Z</time></trkpt><trkpt lat="51.6921813134" lon="-1.6954530682"><ele>76.56</ele><time>2011-10-12T09:36:24Z</time></trkpt><trkpt lat="51.6921628732" lon="-1.6955496278"><ele>76.56</ele><time>2011-10-12T09:36:30Z</time></trkpt><trkpt lat="51.6921482049" lon="-1.6957120690"><ele>77.52</ele><time>2011-10-12T09:36:37Z</time></trkpt><trkpt lat="51.6921389010" lon="-1.6957427468"><ele>77.04</ele><time>2011-10-12T09:36:40Z</time></trkpt><trkpt lat="51.6921173595" lon="-1.6959142406"><ele>76.56</ele><time>2011-10-12T09:36:48Z</time></trkpt><trkpt lat="51.6921166051" lon="-1.6959256399"><ele>78.00</ele><time>2011-10-12T09:36:49Z</time></trkpt><trkpt lat="51.6920730192" lon="-1.6960545536"><ele>77.52</ele><time>2011-10-12T09:36:56Z</time></trkpt><trkpt lat="51.6920582671" lon="-1.6961071920"><ele>77.04</ele><time>2011-10-12T09:37:00Z</time></trkpt><trkpt lat="51.6920151003" lon="-1.6962237004"><ele>77.04</ele><time>2011-10-12T09:37:08Z</time></trkpt><trkpt lat="51.6919639707" lon="-1.6963414662"><ele>78.00</ele><time>2011-10-12T09:37:14Z</time></trkpt><trkpt lat="51.6919052135" lon="-1.6964540351"><ele>78.48</ele><time>2011-10-12T09:37:21Z</time></trkpt><trkpt lat="51.6918540001" lon="-1.6965121217"><ele>76.56</ele><time>2011-10-12T09:37:27Z</time></trkpt><trkpt lat="51.6918171197" lon="-1.6966024786"><ele>76.56</ele><time>2011-10-12T09:37:33Z</time></trkpt><trkpt lat="51.6917492263" lon="-1.6966779158"><ele>78.00</ele><time>2011-10-12T09:37:40Z</time></trkpt><trkpt lat="51.6916740406" lon="-1.6967714578"><ele>77.52</ele><time>2011-10-12T09:37:47Z</time></trkpt><trkpt lat="51.6916223243" lon="-1.6968623176"><ele>77.04</ele><time>2011-10-12T09:37:53Z</time></trkpt><trkpt lat="51.6916071530" lon="-1.6969007067"><ele>77.04</ele><time>2011-10-12T09:37:55Z</time></trkpt><trkpt lat="51.6915668361" lon="-1.6969706956"><ele>77.04</ele><time>2011-10-12T09:38:01Z</time></trkpt><trkpt lat="51.6915513296" lon="-1.6970334761"><ele>78.00</ele><time>2011-10-12T09:38:05Z</time></trkpt><trkpt lat="51.6915220767" lon="-1.6970599629"><ele>79.45</ele><time>2011-10-12T09:38:08Z</time></trkpt><trkpt lat="51.6914815921" lon="-1.6971363220"><ele>78.00</ele><time>2011-10-12T09:38:15Z</time></trkpt><trkpt lat="51.6914687678" lon="-1.6971555166"><ele>79.45</ele><time>2011-10-12T09:38:24Z</time></trkpt><trkpt lat="51.6914556082" lon="-1.6971730348"><ele>77.52</ele><time>2011-10-12T09:38:27Z</time></trkpt><trkpt lat="51.6914416105" lon="-1.6971887089"><ele>77.52</ele><time>2011-10-12T09:38:28Z</time></trkpt><trkpt lat="51.6913577076" lon="-1.6972787306"><ele>77.04</ele><time>2011-10-12T09:38:34Z</time></trkpt><trkpt lat="51.6913515888" lon="-1.6972928122"><ele>76.08</ele><time>2011-10-12T09:38:37Z</time></trkpt><trkpt lat="51.6913138703" lon="-1.6973602865"><ele>77.52</ele><time>2011-10-12T09:38:42Z</time></trkpt><trkpt lat="51.6913047340" lon="-1.6973766312"><ele>76.56</ele><time>2011-10-12T09:38:51Z</time></trkpt><trkpt lat="51.6913047340" lon="-1.6973766312"><ele>77.52</ele><time>2011-10-12T09:38:57Z</time></trkpt><trkpt lat="51.6912841145" lon="-1.6973951552"><ele>76.56</ele><time>2011-10-12T09:38:59Z</time></trkpt><trkpt lat="51.6912232619" lon="-1.6974860989"><ele>76.56</ele><time>2011-10-12T09:39:04Z</time></trkpt><trkpt lat="51.6911714617" lon="-1.6975920461"><ele>77.04</ele><time>2011-10-12T09:39:10Z</time></trkpt><trkpt lat="51.6911417060" lon="-1.6976993345"><ele>77.04</ele><time>2011-10-12T09:39:15Z</time></trkpt><trkpt lat="51.6910422128" lon="-1.6978219617"><ele>78.00</ele><time>2011-10-12T09:39:22Z</time></trkpt><trkpt lat="51.6909973696" lon="-1.6978518013"><ele>76.56</ele><time>2011-10-12T09:39:25Z</time></trkpt><trkpt lat="51.6909573041" lon="-1.6978816409"><ele>77.04</ele><time>2011-10-12T09:39:31Z</time></trkpt><trkpt lat="51.6909506824" lon="-1.6978906933"><ele>77.04</ele><time>2011-10-12T09:39:32Z</time></trkpt><trkpt lat="51.6909125447" lon="-1.6979749314"><ele>77.04</ele><time>2011-10-12T09:39:38Z</time></trkpt><trkpt lat="51.6908584815" lon="-1.6980798729"><ele>76.56</ele><time>2011-10-12T09:39:45Z</time></trkpt><trkpt lat="51.6908337548" lon="-1.6981374566"><ele>76.56</ele><time>2011-10-12T09:39:49Z</time></trkpt><trkpt lat="51.6908081062" lon="-1.6981996503"><ele>76.08</ele><time>2011-10-12T09:39:53Z</time></trkpt><trkpt lat="51.6907448228" lon="-1.6983518656"><ele>77.04</ele><time>2011-10-12T09:40:02Z</time></trkpt><trkpt lat="51.6907282267" lon="-1.6984098684"><ele>76.56</ele><time>2011-10-12T09:40:05Z</time></trkpt><trkpt lat="51.6907025781" lon="-1.6985715553"><ele>78.00</ele><time>2011-10-12T09:40:14Z</time></trkpt><trkpt lat="51.6907050088" lon="-1.6986246966"><ele>77.04</ele><time>2011-10-12T09:40:19Z</time></trkpt><trkpt lat="51.6907186713" lon="-1.6986609902"><ele>76.56</ele><time>2011-10-12T09:40:25Z</time></trkpt><trkpt lat="51.6907273885" lon="-1.6987241898"><ele>76.08</ele><time>2011-10-12T09:40:30Z</time></trkpt><trkpt lat="51.6907356028" lon="-1.6987889819"><ele>76.56</ele><time>2011-10-12T09:40:35Z</time></trkpt><trkpt lat="51.6907238681" lon="-1.6988349985"><ele>77.04</ele><time>2011-10-12T09:40:42Z</time></trkpt><trkpt lat="51.6907155700" lon="-1.6988814343"><ele>76.56</ele><time>2011-10-12T09:40:47Z</time></trkpt><trkpt lat="51.6906937771" lon="-1.6989812627"><ele>76.08</ele><time>2011-10-12T09:40:54Z</time></trkpt><trkpt lat="51.6906472575" lon="-1.6991181392"><ele>77.04</ele><time>2011-10-12T09:41:00Z</time></trkpt><trkpt lat="51.6906284820" lon="-1.6991987731"><ele>76.08</ele><time>2011-10-12T09:41:05Z</time></trkpt><trkpt lat="51.6905863211" lon="-1.6992822569"><ele>76.56</ele><time>2011-10-12T09:41:09Z</time></trkpt><trkpt lat="51.6905409750" lon="-1.6994188819"><ele>76.56</ele><time>2011-10-12T09:41:17Z</time></trkpt><trkpt lat="51.6905019991" lon="-1.6995295230"><ele>77.04</ele><time>2011-10-12T09:41:23Z</time></trkpt><trkpt lat="51.6904610116" lon="-1.6996838339"><ele>77.52</ele><time>2011-10-12T09:41:30Z</time></trkpt><trkpt lat="51.6904270649" lon="-1.6997781303"><ele>77.04</ele><time>2011-10-12T09:41:36Z</time></trkpt><trkpt lat="51.6903761029" lon="-1.6998741869"><ele>76.08</ele><time>2011-10-12T09:41:42Z</time></trkpt><trkpt lat="51.6903330199" lon="-1.7000140809"><ele>77.04</ele><time>2011-10-12T09:41:49Z</time></trkpt><trkpt lat="51.6903093830" lon="-1.7000823095"><ele>76.56</ele><time>2011-10-12T09:41:54Z</time></trkpt><trkpt lat="51.6902519669" lon="-1.7002092116"><ele>77.52</ele><time>2011-10-12T09:42:00Z</time></trkpt><trkpt lat="51.6902245581" lon="-1.7002973892"><ele>77.04</ele><time>2011-10-12T09:42:06Z</time></trkpt><trkpt lat="51.6901997477" lon="-1.7003476806"><ele>76.56</ele><time>2011-10-12T09:42:11Z</time></trkpt><trkpt lat="51.6901696566" lon="-1.7004213575"><ele>77.52</ele><time>2011-10-12T09:42:16Z</time></trkpt><trkpt lat="51.6901316028" lon="-1.7005202640"><ele>77.04</ele><time>2011-10-12T09:42:23Z</time></trkpt><trkpt lat="51.6900872625" lon="-1.7006235290"><ele>77.52</ele><time>2011-10-12T09:42:30Z</time></trkpt><trkpt lat="51.6900814790" lon="-1.7006435618"><ele>76.56</ele><time>2011-10-12T09:42:32Z</time></trkpt><trkpt lat="51.6900569201" lon="-1.7007400375"><ele>77.04</ele><time>2011-10-12T09:42:38Z</time></trkpt><trkpt lat="51.6900159325" lon="-1.7008295562"><ele>77.52</ele><time>2011-10-12T09:42:44Z</time></trkpt><trkpt lat="51.6899681557" lon="-1.7009350006"><ele>76.56</ele><time>2011-10-12T09:42:51Z</time></trkpt><trkpt lat="51.6899335384" lon="-1.7010158021"><ele>77.04</ele><time>2011-10-12T09:42:57Z</time></trkpt><trkpt lat="51.6899066325" lon="-1.7010639142"><ele>77.04</ele><time>2011-10-12T09:43:02Z</time></trkpt><trkpt lat="51.6898602806" lon="-1.7011436261"><ele>77.04</ele><time>2011-10-12T09:43:08Z</time></trkpt><trkpt lat="51.6897895373" lon="-1.7012445442"><ele>76.56</ele><time>2011-10-12T09:43:15Z</time></trkpt><trkpt lat="51.6897396650" lon="-1.7013378348"><ele>76.56</ele><time>2011-10-12T09:43:21Z</time></trkpt><trkpt lat="51.6897291038" lon="-1.7013590410"><ele>75.60</ele><time>2011-10-12T09:43:24Z</time></trkpt><trkpt lat="51.6896739509" lon="-1.7014584504"><ele>77.04</ele><time>2011-10-12T09:43:31Z</time></trkpt><trkpt lat="51.6896167025" lon="-1.7015436105"><ele>76.56</ele><time>2011-10-12T09:43:37Z</time></trkpt><trkpt lat="51.6896089911" lon="-1.7015920579"><ele>76.08</ele><time>2011-10-12T09:43:41Z</time></trkpt><trkpt lat="51.6895712726" lon="-1.7016397510"><ele>76.08</ele><time>2011-10-12T09:43:47Z</time></trkpt><trkpt lat="51.6895419359" lon="-1.7016660701"><ele>77.04</ele><time>2011-10-12T09:43:49Z</time></trkpt><trkpt lat="51.6895050555" lon="-1.7017145175"><ele>76.56</ele><time>2011-10-12T09:43:54Z</time></trkpt><trkpt lat="51.6894474719" lon="-1.7018140107"><ele>77.04</ele><time>2011-10-12T09:44:00Z</time></trkpt><trkpt lat="51.6894222423" lon="-1.7018622905"><ele>77.04</ele><time>2011-10-12T09:44:05Z</time></trkpt><trkpt lat="51.6893838532" lon="-1.7019136716"><ele>76.08</ele><time>2011-10-12T09:44:10Z</time></trkpt><trkpt lat="51.6893422790" lon="-1.7019642983"><ele>76.56</ele><time>2011-10-12T09:44:15Z</time></trkpt><trkpt lat="51.6893375851" lon="-1.7019736022"><ele>76.08</ele><time>2011-10-12T09:44:16Z</time></trkpt><trkpt lat="51.6892722901" lon="-1.7020694911"><ele>77.04</ele><time>2011-10-12T09:44:24Z</time></trkpt><trkpt lat="51.6892251838" lon="-1.7021327745"><ele>77.04</ele><time>2011-10-12T09:44:30Z</time></trkpt><trkpt lat="51.6891942546" lon="-1.7021502927"><ele>77.04</ele><time>2011-10-12T09:44:35Z</time></trkpt><trkpt lat="51.6891406104" lon="-1.7022412363"><ele>77.52</ele><time>2011-10-12T09:44:41Z</time></trkpt><trkpt lat="51.6891245171" lon="-1.7022983171"><ele>76.08</ele><time>2011-10-12T09:44:47Z</time></trkpt><trkpt lat="51.6891059931" lon="-1.7023669649"><ele>76.56</ele><time>2011-10-12T09:44:51Z</time></trkpt><trkpt lat="51.6890980303" lon="-1.7024082877"><ele>76.56</ele><time>2011-10-12T09:44:54Z</time></trkpt><trkpt lat="51.6890629102" lon="-1.7024788633"><ele>76.56</ele><time>2011-10-12T09:44:59Z</time></trkpt><trkpt lat="51.6890261136" lon="-1.7025881633"><ele>76.56</ele><time>2011-10-12T09:45:05Z</time></trkpt><trkpt lat="51.6889992915" lon="-1.7026892491"><ele>77.52</ele><time>2011-10-12T09:45:11Z</time></trkpt><trkpt lat="51.6889750678" lon="-1.7027833778"><ele>76.56</ele><time>2011-10-12T09:45:17Z</time></trkpt><trkpt lat="51.6889738943" lon="-1.7027942743"><ele>76.56</ele><time>2011-10-12T09:45:24Z</time></trkpt><trkpt lat="51.6889663506" lon="-1.7028296459"><ele>76.56</ele><time>2011-10-12T09:45:35Z</time></trkpt><trkpt lat="51.6888824478" lon="-1.7029550392"><ele>77.04</ele><time>2011-10-12T09:45:41Z</time></trkpt><trkpt lat="51.6888603196" lon="-1.7030139640"><ele>77.04</ele><time>2011-10-12T09:45:48Z</time></trkpt><trkpt lat="51.6887469124" lon="-1.7032210808"><ele>77.04</ele><time>2011-10-12T09:45:57Z</time></trkpt><trkpt lat="51.6887025721" lon="-1.7032801732"><ele>77.04</ele><time>2011-10-12T09:46:00Z</time></trkpt><trkpt lat="51.6886851378" lon="-1.7033731285"><ele>77.04</ele><time>2011-10-12T09:46:08Z</time></trkpt><trkpt lat="51.6886118799" lon="-1.7035246734"><ele>77.04</ele><time>2011-10-12T09:46:15Z</time></trkpt><trkpt lat="51.6885951161" lon="-1.7035541777"><ele>77.04</ele><time>2011-10-12T09:46:19Z</time></trkpt><trkpt lat="51.6885549668" lon="-1.7036348954"><ele>77.52</ele><time>2011-10-12T09:46:23Z</time></trkpt><trkpt lat="51.6885212716" lon="-1.7037036270"><ele>77.04</ele><time>2011-10-12T09:46:29Z</time></trkpt><trkpt lat="51.6884827148" lon="-1.7037791479"><ele>76.56</ele><time>2011-10-12T09:46:34Z</time></trkpt><trkpt lat="51.6884456668" lon="-1.7038496397"><ele>76.56</ele><time>2011-10-12T09:46:39Z</time></trkpt><trkpt lat="51.6884419788" lon="-1.7038639728"><ele>76.56</ele><time>2011-10-12T09:46:40Z</time></trkpt><trkpt lat="51.6884064395" lon="-1.7039684951"><ele>77.52</ele><time>2011-10-12T09:46:47Z</time></trkpt><trkpt lat="51.6883754265" lon="-1.7040833272"><ele>77.04</ele><time>2011-10-12T09:46:54Z</time></trkpt><trkpt lat="51.6883410607" lon="-1.7041697446"><ele>76.56</ele><time>2011-10-12T09:47:00Z</time></trkpt><trkpt lat="51.6883143224" lon="-1.7042285856"><ele>76.08</ele><time>2011-10-12T09:47:05Z</time></trkpt><trkpt lat="51.6882776935" lon="-1.7043174338"><ele>77.52</ele><time>2011-10-12T09:47:11Z</time></trkpt><trkpt lat="51.6882531345" lon="-1.7044209503"><ele>76.56</ele><time>2011-10-12T09:47:17Z</time></trkpt><trkpt lat="51.6882328503" lon="-1.7044919450"><ele>76.08</ele><time>2011-10-12T09:47:22Z</time></trkpt><trkpt lat="51.6881855763" lon="-1.7045617662"><ele>77.52</ele><time>2011-10-12T09:47:27Z</time></trkpt><trkpt lat="51.6881447565" lon="-1.7046271451"><ele>77.04</ele><time>2011-10-12T09:47:32Z</time></trkpt><trkpt lat="51.6881050263" lon="-1.7047199327"><ele>76.56</ele><time>2011-10-12T09:47:38Z</time></trkpt><trkpt lat="51.6880569980" lon="-1.7047902569"><ele>77.04</ele><time>2011-10-12T09:47:45Z</time></trkpt><trkpt lat="51.6880372167" lon="-1.7048133910"><ele>77.04</ele><time>2011-10-12T09:47:51Z</time></trkpt><trkpt lat="51.6880145855" lon="-1.7048287299"><ele>76.08</ele><time>2011-10-12T09:47:55Z</time></trkpt><trkpt lat="51.6879751906" lon="-1.7048654426"><ele>77.04</ele><time>2011-10-12T09:48:00Z</time></trkpt><trkpt lat="51.6879346222" lon="-1.7049299832"><ele>77.52</ele><time>2011-10-12T09:48:05Z</time></trkpt><trkpt lat="51.6878992505" lon="-1.7049904168"><ele>78.48</ele><time>2011-10-12T09:48:11Z</time></trkpt><trkpt lat="51.6878849175" lon="-1.7049895786"><ele>77.52</ele><time>2011-10-12T09:48:14Z</time></trkpt><trkpt lat="51.6878223047" lon="-1.7049692944"><ele>76.56</ele><time>2011-10-12T09:48:22Z</time></trkpt><trkpt lat="51.6877477057" lon="-1.7049718928"><ele>77.04</ele><time>2011-10-12T09:48:28Z</time></trkpt><trkpt lat="51.6876881104" lon="-1.7049252056"><ele>77.04</ele><time>2011-10-12T09:48:35Z</time></trkpt><trkpt lat="51.6876331251" lon="-1.7049164046"><ele>77.52</ele><time>2011-10-12T09:48:43Z</time></trkpt><trkpt lat="51.6876026988" lon="-1.7049035802"><ele>77.04</ele><time>2011-10-12T09:48:50Z</time></trkpt><trkpt lat="51.6875653993" lon="-1.7048553843"><ele>76.56</ele><time>2011-10-12T09:48:59Z</time></trkpt><trkpt lat="51.6875061393" lon="-1.7048040032"><ele>77.04</ele><time>2011-10-12T09:49:06Z</time></trkpt><trkpt lat="51.6874990985" lon="-1.7047941126"><ele>77.52</ele><time>2011-10-12T09:49:17Z</time></trkpt><trkpt lat="51.6874893755" lon="-1.7047611717"><ele>77.04</ele><time>2011-10-12T09:49:26Z</time></trkpt><trkpt lat="51.6874893755" lon="-1.7047611717"><ele>76.56</ele><time>2011-10-12T09:49:33Z</time></trkpt><trkpt lat="51.6874485556" lon="-1.7046532128"><ele>76.56</ele><time>2011-10-12T09:49:37Z</time></trkpt><trkpt lat="51.6874084901" lon="-1.7044931185"><ele>76.56</ele><time>2011-10-12T09:49:43Z</time></trkpt><trkpt lat="51.6873830929" lon="-1.7043920327"><ele>77.04</ele><time>2011-10-12T09:49:49Z</time></trkpt><trkpt lat="51.6873822547" lon="-1.7043351196"><ele>77.52</ele><time>2011-10-12T09:49:56Z</time></trkpt><trkpt lat="51.6873589531" lon="-1.7042863369"><ele>76.56</ele><time>2011-10-12T09:50:02Z</time></trkpt><trkpt lat="51.6873212345" lon="-1.7042259872"><ele>76.56</ele><time>2011-10-12T09:50:07Z</time></trkpt><trkpt lat="51.6873179656" lon="-1.7042160127"><ele>76.56</ele><time>2011-10-12T09:50:08Z</time></trkpt><trkpt lat="51.6873051412" lon="-1.7041400727"><ele>78.00</ele><time>2011-10-12T09:50:13Z</time></trkpt><trkpt lat="51.6872565262" lon="-1.7040443514"><ele>78.00</ele><time>2011-10-12T09:50:21Z</time></trkpt><trkpt lat="51.6871820949" lon="-1.7039838340"><ele>77.52</ele><time>2011-10-12T09:50:30Z</time></trkpt><trkpt lat="51.6871046461" lon="-1.7039560061"><ele>77.52</ele><time>2011-10-12T09:50:38Z</time></trkpt><trkpt lat="51.6870704480" lon="-1.7039412539"><ele>78.00</ele><time>2011-10-12T09:50:45Z</time></trkpt><trkpt lat="51.6870137025" lon="-1.7039449420"><ele>78.00</ele><time>2011-10-12T09:50:50Z</time></trkpt><trkpt lat="51.6869945079" lon="-1.7039576825"><ele>77.04</ele><time>2011-10-12T09:50:53Z</time></trkpt><trkpt lat="51.6869602259" lon="-1.7039919645"><ele>77.04</ele><time>2011-10-12T09:50:59Z</time></trkpt><trkpt lat="51.6869347449" lon="-1.7039967421"><ele>76.56</ele><time>2011-10-12T09:51:03Z</time></trkpt><trkpt lat="51.6868727189" lon="-1.7040234804"><ele>78.00</ele><time>2011-10-12T09:51:09Z</time></trkpt><trkpt lat="51.6868167277" lon="-1.7040275875"><ele>76.56</ele><time>2011-10-12T09:51:15Z</time></trkpt><trkpt lat="51.6867805179" lon="-1.7039143480"><ele>76.56</ele><time>2011-10-12T09:51:21Z</time></trkpt><trkpt lat="51.6867529415" lon="-1.7037681676"><ele>77.04</ele><time>2011-10-12T09:51:27Z</time></trkpt><trkpt lat="51.6867406201" lon="-1.7036794871"><ele>77.04</ele><time>2011-10-12T09:51:31Z</time></trkpt><trkpt lat="51.6867318191" lon="-1.7035353184"><ele>76.56</ele><time>2011-10-12T09:51:38Z</time></trkpt><trkpt lat="51.6867241915" lon="-1.7033820972"><ele>77.04</ele><time>2011-10-12T09:51:44Z</time></trkpt><trkpt lat="51.6867070086" lon="-1.7032715399"><ele>77.04</ele><time>2011-10-12T09:51:51Z</time></trkpt><trkpt lat="51.6867007222" lon="-1.7032669298"><ele>77.04</ele><time>2011-10-12T09:51:52Z</time></trkpt><trkpt lat="51.6866186634" lon="-1.7032942548"><ele>76.56</ele><time>2011-10-12T09:52:00Z</time></trkpt><trkpt lat="51.6865301505" lon="-1.7033188138"><ele>76.08</ele><time>2011-10-12T09:52:07Z</time></trkpt><trkpt lat="51.6864774283" lon="-1.7033430375"><ele>76.56</ele><time>2011-10-12T09:52:13Z</time></trkpt><trkpt lat="51.6864484269" lon="-1.7033362482"><ele>76.56</ele><time>2011-10-12T09:52:19Z</time></trkpt><trkpt lat="51.6864348482" lon="-1.7033209931"><ele>76.56</ele><time>2011-10-12T09:52:26Z</time></trkpt><trkpt lat="51.6864332557" lon="-1.7033241782"><ele>78.00</ele><time>2011-10-12T09:52:28Z</time></trkpt><trkpt lat="51.6864068527" lon="-1.7033260223"><ele>76.56</ele><time>2011-10-12T09:52:32Z</time></trkpt><trkpt lat="51.6863745824" lon="-1.7033186462"><ele>77.04</ele><time>2011-10-12T09:52:39Z</time></trkpt><trkpt lat="51.6863691341" lon="-1.7033129465"><ele>77.04</ele><time>2011-10-12T09:52:43Z</time></trkpt><trkpt lat="51.6863112990" lon="-1.7033370864"><ele>77.04</ele><time>2011-10-12T09:52:49Z</time></trkpt><trkpt lat="51.6862188466" lon="-1.7033073306"><ele>77.52</ele><time>2011-10-12T09:52:57Z</time></trkpt><trkpt lat="51.6861704830" lon="-1.7032885551"><ele>77.52</ele><time>2011-10-12T09:53:03Z</time></trkpt><trkpt lat="51.6860997397" lon="-1.7032665107"><ele>77.52</ele><time>2011-10-12T09:53:10Z</time></trkpt><trkpt lat="51.6860828921" lon="-1.7032593023"><ele>73.68</ele><time>2011-10-12T09:53:12Z</time></trkpt><trkpt lat="51.6860743426" lon="-1.7032579612"><ele>77.04</ele><time>2011-10-12T09:53:13Z</time></trkpt><trkpt lat="51.6859944630" lon="-1.7032715399"><ele>78.00</ele><time>2011-10-12T09:53:22Z</time></trkpt><trkpt lat="51.6858931258" lon="-1.7032664269"><ele>76.56</ele><time>2011-10-12T09:53:32Z</time></trkpt><trkpt lat="51.6858004220" lon="-1.7032773234"><ele>76.56</ele><time>2011-10-12T09:53:41Z</time></trkpt><trkpt lat="51.6856946424" lon="-1.7032640800"><ele>77.52</ele><time>2011-10-12T09:53:51Z</time></trkpt><trkpt lat="51.6856647190" lon="-1.7032634094"><ele>78.00</ele><time>2011-10-12T09:53:54Z</time></trkpt><trkpt lat="51.6855582688" lon="-1.7032260261"><ele>77.52</ele><time>2011-10-12T09:54:05Z</time></trkpt><trkpt lat="51.6855103243" lon="-1.7032183986"><ele>77.52</ele><time>2011-10-12T09:54:10Z</time></trkpt><trkpt lat="51.6854904592" lon="-1.7032158002"><ele>74.16</ele><time>2011-10-12T09:54:12Z</time></trkpt><trkpt lat="51.6854805686" lon="-1.7032135371"><ele>77.04</ele><time>2011-10-12T09:54:13Z</time></trkpt><trkpt lat="51.6853877809" lon="-1.7031971924"><ele>77.04</ele><time>2011-10-12T09:54:22Z</time></trkpt><trkpt lat="51.6853101645" lon="-1.7031869665"><ele>77.52</ele><time>2011-10-12T09:54:30Z</time></trkpt><trkpt lat="51.6852495633" lon="-1.7031713761"><ele>77.04</ele><time>2011-10-12T09:54:36Z</time></trkpt><trkpt lat="51.6851814184" lon="-1.7031642515"><ele>80.89</ele><time>2011-10-12T09:54:43Z</time></trkpt><trkpt lat="51.6851714440" lon="-1.7031607311"><ele>77.04</ele><time>2011-10-12T09:54:44Z</time></trkpt><trkpt lat="51.6851176322" lon="-1.7031492479"><ele>71.27</ele><time>2011-10-12T09:54:49Z</time></trkpt><trkpt lat="51.6851067357" lon="-1.7031495832"><ele>79.45</ele><time>2011-10-12T09:54:50Z</time></trkpt><trkpt lat="51.6850907262" lon="-1.7031513434"><ele>76.56</ele><time>2011-10-12T09:54:52Z</time></trkpt><trkpt lat="51.6850381717" lon="-1.7031483259"><ele>76.08</ele><time>2011-10-12T09:54:56Z</time></trkpt><trkpt lat="51.6849501617" lon="-1.7031458952"><ele>76.56</ele><time>2011-10-12T09:55:03Z</time></trkpt><trkpt lat="51.6848863754" lon="-1.7031384353"><ele>77.04</ele><time>2011-10-12T09:55:09Z</time></trkpt><trkpt lat="51.6848732997" lon="-1.7031413689"><ele>77.04</ele><time>2011-10-12T09:55:10Z</time></trkpt><trkpt lat="51.6848410293" lon="-1.7031311430"><ele>76.56</ele><time>2011-10-12T09:55:14Z</time></trkpt><trkpt lat="51.6847588029" lon="-1.7031214200"><ele>77.04</ele><time>2011-10-12T09:55:21Z</time></trkpt><trkpt lat="51.6847374290" lon="-1.7031296343"><ele>77.04</ele><time>2011-10-12T09:55:23Z</time></trkpt><trkpt lat="51.6847013868" lon="-1.7031029798"><ele>76.56</ele><time>2011-10-12T09:55:27Z</time></trkpt><trkpt lat="51.6846533585" lon="-1.7030997109"><ele>77.04</ele><time>2011-10-12T09:55:32Z</time></trkpt><trkpt lat="51.6846232675" lon="-1.7031009682"><ele>77.04</ele><time>2011-10-12T09:55:35Z</time></trkpt><trkpt lat="51.6845343355" lon="-1.7030971125"><ele>77.04</ele><time>2011-10-12T09:55:43Z</time></trkpt><trkpt lat="51.6844992992" lon="-1.7030968610"><ele>76.56</ele><time>2011-10-12T09:55:47Z</time></trkpt><trkpt lat="51.6844399553" lon="-1.7030810192"><ele>77.04</ele><time>2011-10-12T09:55:54Z</time></trkpt><trkpt lat="51.6844303999" lon="-1.7030771635"><ele>77.52</ele><time>2011-10-12T09:55:55Z</time></trkpt><trkpt lat="51.6843846347" lon="-1.7030755710"><ele>77.52</ele><time>2011-10-12T09:56:00Z</time></trkpt><trkpt lat="51.6843254585" lon="-1.7030626629"><ele>78.00</ele><time>2011-10-12T09:56:04Z</time></trkpt><trkpt lat="51.6842738260" lon="-1.7030549515"><ele>78.00</ele><time>2011-10-12T09:56:11Z</time></trkpt><trkpt lat="51.6842270549" lon="-1.7030800134"><ele>77.52</ele><time>2011-10-12T09:56:17Z</time></trkpt><trkpt lat="51.6841781884" lon="-1.7031105235"><ele>77.52</ele><time>2011-10-12T09:56:23Z</time></trkpt><trkpt lat="51.6841638554" lon="-1.7031294666"><ele>78.00</ele><time>2011-10-12T09:56:25Z</time></trkpt><trkpt lat="51.6841154080" lon="-1.7031772435"><ele>77.04</ele><time>2011-10-12T09:56:31Z</time></trkpt><trkpt lat="51.6840773541" lon="-1.7032231763"><ele>77.04</ele><time>2011-10-12T09:56:36Z</time></trkpt><trkpt lat="51.6840509512" lon="-1.7032547761"><ele>78.48</ele><time>2011-10-12T09:56:40Z</time></trkpt><trkpt lat="51.6840263922" lon="-1.7033105157"><ele>78.48</ele><time>2011-10-12T09:56:45Z</time></trkpt><trkpt lat="51.6839583311" lon="-1.7033447139"><ele>78.97</ele><time>2011-10-12T09:56:51Z</time></trkpt><trkpt lat="51.6839035973" lon="-1.7033810075"><ele>77.52</ele><time>2011-10-12T09:56:57Z</time></trkpt><trkpt lat="51.6838954668" lon="-1.7033829354"><ele>78.48</ele><time>2011-10-12T09:56:58Z</time></trkpt><trkpt lat="51.6838372126" lon="-1.7033903114"><ele>78.48</ele><time>2011-10-12T09:57:05Z</time></trkpt><trkpt lat="51.6838372126" lon="-1.7033903114"><ele>78.00</ele><time>2011-10-12T09:57:13Z</time></trkpt><trkpt lat="51.6838342790" lon="-1.7033999506"><ele>78.00</ele><time>2011-10-12T09:57:21Z</time></trkpt><trkpt lat="51.6838342790" lon="-1.7033999506"><ele>78.97</ele><time>2011-10-12T09:57:32Z</time></trkpt><trkpt lat="51.6838342790" lon="-1.7033999506"><ele>78.48</ele><time>2011-10-12T09:57:45Z</time></trkpt><trkpt lat="51.6838342790" lon="-1.7033999506"><ele>78.00</ele><time>2011-10-12T09:57:46Z</time></trkpt><trkpt lat="51.6838070378" lon="-1.7033745535"><ele>78.97</ele><time>2011-10-12T09:57:48Z</time></trkpt><trkpt lat="51.6836963966" lon="-1.7032608110"><ele>79.45</ele><time>2011-10-12T09:57:54Z</time></trkpt><trkpt lat="51.6835912038" lon="-1.7031509243"><ele>79.45</ele><time>2011-10-12T09:58:03Z</time></trkpt><trkpt lat="51.6835112404" lon="-1.7030352540"><ele>78.48</ele><time>2011-10-12T09:58:13Z</time></trkpt><trkpt lat="51.6834556684" lon="-1.7029487528"><ele>79.45</ele><time>2011-10-12T09:58:20Z</time></trkpt><trkpt lat="51.6834264994" lon="-1.7029178236"><ele>78.48</ele><time>2011-10-12T09:58:26Z</time></trkpt><trkpt lat="51.6833814885" lon="-1.7027982976"><ele>79.93</ele><time>2011-10-12T09:58:34Z</time></trkpt><trkpt lat="51.6833691671" lon="-1.7027760018"><ele>78.97</ele><time>2011-10-12T09:58:36Z</time></trkpt><trkpt lat="51.6833208874" lon="-1.7026765924"><ele>79.45</ele><time>2011-10-12T09:58:43Z</time></trkpt><trkpt lat="51.6832827497" lon="-1.7025964614"><ele>78.48</ele><time>2011-10-12T09:58:49Z</time></trkpt><trkpt lat="51.6832614597" lon="-1.7025503609"><ele>79.93</ele><time>2011-10-12T09:58:52Z</time></trkpt><trkpt lat="51.6832114197" lon="-1.7024460901"><ele>78.97</ele><time>2011-10-12T09:58:59Z</time></trkpt><trkpt lat="51.6831741203" lon="-1.7023680545"><ele>79.45</ele><time>2011-10-12T09:59:05Z</time></trkpt><trkpt lat="51.6831400059" lon="-1.7022885103"><ele>79.45</ele><time>2011-10-12T09:59:11Z</time></trkpt><trkpt lat="51.6830867808" lon="-1.7021802999"><ele>78.97</ele><time>2011-10-12T09:59:19Z</time></trkpt><trkpt lat="51.6830357350" lon="-1.7020860035"><ele>79.45</ele><time>2011-10-12T09:59:27Z</time></trkpt><trkpt lat="51.6829965916" lon="-1.7019673996"><ele>79.45</ele><time>2011-10-12T09:59:34Z</time></trkpt><trkpt lat="51.6829468869" lon="-1.7018425930"><ele>79.45</ele><time>2011-10-12T09:59:42Z</time></trkpt><trkpt lat="51.6829136107" lon="-1.7017390765"><ele>79.45</ele><time>2011-10-12T09:59:49Z</time></trkpt><trkpt lat="51.6828746349" lon="-1.7016354762"><ele>79.45</ele><time>2011-10-12T09:59:56Z</time></trkpt><trkpt lat="51.6828338988" lon="-1.7015286908"><ele>79.45</ele><time>2011-10-12T10:00:04Z</time></trkpt><trkpt lat="51.6827892233" lon="-1.7014172953"><ele>79.93</ele><time>2011-10-12T10:00:11Z</time></trkpt><trkpt lat="51.6827460565" lon="-1.7013245914"><ele>79.45</ele><time>2011-10-12T10:00:18Z</time></trkpt><trkpt lat="51.6827123612" lon="-1.7012414429"><ele>79.45</ele><time>2011-10-12T10:00:24Z</time></trkpt><trkpt lat="51.6826867126" lon="-1.7012032215"><ele>80.41</ele><time>2011-10-12T10:00:31Z</time></trkpt><trkpt lat="51.6826551966" lon="-1.7012099270"><ele>79.93</ele><time>2011-10-12T10:00:39Z</time></trkpt><trkpt lat="51.6825906560" lon="-1.7012178060"><ele>80.89</ele><time>2011-10-12T10:00:45Z</time></trkpt><trkpt lat="51.6825503390" lon="-1.7012420297"><ele>80.41</ele><time>2011-10-12T10:00:49Z</time></trkpt><trkpt lat="51.6824829485" lon="-1.7012664210"><ele>80.89</ele><time>2011-10-12T10:00:56Z</time></trkpt><trkpt lat="51.6824339144" lon="-1.7012836039"><ele>80.41</ele><time>2011-10-12T10:01:02Z</time></trkpt><trkpt lat="51.6824339144" lon="-1.7012836039"><ele>79.93</ele><time>2011-10-12T10:01:03Z</time></trkpt><trkpt lat="51.6823689546" lon="-1.7012065742"><ele>79.93</ele><time>2011-10-12T10:01:09Z</time></trkpt><trkpt lat="51.6823533643" lon="-1.7012126092"><ele>79.93</ele><time>2011-10-12T10:01:15Z</time></trkpt><trkpt lat="51.6823533643" lon="-1.7012126092"><ele>79.45</ele><time>2011-10-12T10:01:27Z</time></trkpt><trkpt lat="51.6822917573" lon="-1.7012352403"><ele>80.41</ele><time>2011-10-12T10:01:34Z</time></trkpt><trkpt lat="51.6822343413" lon="-1.7012551054"><ele>81.37</ele><time>2011-10-12T10:01:39Z</time></trkpt><trkpt lat="51.6822293121" lon="-1.7012612242"><ele>80.89</ele><time>2011-10-12T10:01:40Z</time></trkpt><trkpt lat="51.6821135581" lon="-1.7012909800"><ele>81.37</ele><time>2011-10-12T10:01:49Z</time></trkpt><trkpt lat="51.6820885800" lon="-1.7013034690"><ele>80.41</ele><time>2011-10-12T10:01:51Z</time></trkpt><trkpt lat="51.6819599178" lon="-1.7013504077"><ele>80.89</ele><time>2011-10-12T10:02:02Z</time></trkpt><trkpt lat="51.6818229575" lon="-1.7013924848"><ele>80.41</ele><time>2011-10-12T10:02:12Z</time></trkpt><trkpt lat="51.6817325167" lon="-1.7014259286"><ele>79.45</ele><time>2011-10-12T10:02:19Z</time></trkpt><trkpt lat="51.6816343646" lon="-1.7014635634"><ele>79.93</ele><time>2011-10-12T10:02:27Z</time></trkpt><trkpt lat="51.6815151740" lon="-1.7015005276"><ele>79.45</ele><time>2011-10-12T10:02:37Z</time></trkpt><trkpt lat="51.6814465262" lon="-1.7015323788"><ele>79.93</ele><time>2011-10-12T10:02:44Z</time></trkpt><trkpt lat="51.6813908704" lon="-1.7015562672"><ele>78.97</ele><time>2011-10-12T10:02:49Z</time></trkpt><trkpt lat="51.6813665628" lon="-1.7015581112"><ele>80.89</ele><time>2011-10-12T10:02:51Z</time></trkpt><trkpt lat="51.6813310236" lon="-1.7015633080"><ele>78.97</ele><time>2011-10-12T10:02:56Z</time></trkpt><trkpt lat="51.6813180316" lon="-1.7015656549"><ele>78.97</ele><time>2011-10-12T10:03:02Z</time></trkpt><trkpt lat="51.6812561732" lon="-1.7015835922"><ele>79.45</ele><time>2011-10-12T10:03:08Z</time></trkpt><trkpt lat="51.6812148504" lon="-1.7015938181"><ele>79.93</ele><time>2011-10-12T10:03:14Z</time></trkpt><trkpt lat="51.6811901238" lon="-1.7016040441"><ele>78.97</ele><time>2011-10-12T10:03:17Z</time></trkpt><trkpt lat="51.6811287683" lon="-1.7016120907"><ele>78.00</ele><time>2011-10-12T10:03:23Z</time></trkpt><trkpt lat="51.6810842603" lon="-1.7016268428"><ele>79.45</ele><time>2011-10-12T10:03:29Z</time></trkpt><trkpt lat="51.6810615454" lon="-1.7016419303"><ele>78.48</ele><time>2011-10-12T10:03:33Z</time></trkpt><trkpt lat="51.6810168698" lon="-1.7016430199"><ele>78.00</ele><time>2011-10-12T10:03:39Z</time></trkpt><trkpt lat="51.6809288599" lon="-1.7016835045"><ele>79.45</ele><time>2011-10-12T10:03:44Z</time></trkpt><trkpt lat="51.6808580328" lon="-1.7017011903"><ele>79.45</ele><time>2011-10-12T10:03:51Z</time></trkpt><trkpt lat="51.6808286961" lon="-1.7016763799"><ele>78.00</ele><time>2011-10-12T10:03:54Z</time></trkpt><trkpt lat="51.6807680950" lon="-1.7015426047"><ele>78.48</ele><time>2011-10-12T10:04:02Z</time></trkpt><trkpt lat="51.6806966811" lon="-1.7014245037"><ele>78.97</ele><time>2011-10-12T10:04:09Z</time></trkpt><trkpt lat="51.6806724574" lon="-1.7013442889"><ele>77.52</ele><time>2011-10-12T10:04:14Z</time></trkpt><trkpt lat="51.6806541849" lon="-1.7012654990"><ele>78.00</ele><time>2011-10-12T10:04:19Z</time></trkpt><trkpt lat="51.6806429531" lon="-1.7011426203"><ele>78.97</ele><time>2011-10-12T10:04:27Z</time></trkpt><trkpt lat="51.6806297936" lon="-1.7010719609"><ele>79.45</ele><time>2011-10-12T10:04:33Z</time></trkpt><trkpt lat="51.6806160472" lon="-1.7009645887"><ele>78.48</ele><time>2011-10-12T10:04:39Z</time></trkpt><trkpt lat="51.6806061566" lon="-1.7009272892"><ele>81.37</ele><time>2011-10-12T10:04:41Z</time></trkpt><trkpt lat="51.6806028038" lon="-1.7008896545"><ele>78.48</ele><time>2011-10-12T10:04:44Z</time></trkpt><trkpt lat="51.6806002893" lon="-1.7008751538"><ele>78.97</ele><time>2011-10-12T10:04:45Z</time></trkpt><trkpt lat="51.6805815138" lon="-1.7007889040"><ele>78.48</ele><time>2011-10-12T10:04:50Z</time></trkpt><trkpt lat="51.6805774905" lon="-1.7007612437"><ele>78.48</ele><time>2011-10-12T10:04:52Z</time></trkpt><trkpt lat="51.6805622354" lon="-1.7006667797"><ele>78.48</ele><time>2011-10-12T10:04:59Z</time></trkpt><trkpt lat="51.6805622354" lon="-1.7006667797"><ele>78.48</ele><time>2011-10-12T10:05:11Z</time></trkpt><trkpt lat="51.6805622354" lon="-1.7006667797"><ele>78.00</ele><time>2011-10-12T10:05:12Z</time></trkpt><trkpt lat="51.6805416998" lon="-1.7005544621"><ele>77.52</ele><time>2011-10-12T10:05:18Z</time></trkpt><trkpt lat="51.6805251036" lon="-1.7004818749"><ele>78.00</ele><time>2011-10-12T10:05:22Z</time></trkpt><trkpt lat="51.6805022210" lon="-1.7003387958"><ele>78.97</ele><time>2011-10-12T10:05:28Z</time></trkpt><trkpt lat="51.6804781649" lon="-1.7001605127"><ele>78.00</ele><time>2011-10-12T10:05:36Z</time></trkpt><trkpt lat="51.6804804280" lon="-1.7001167592"><ele>78.48</ele><time>2011-10-12T10:05:40Z</time></trkpt><trkpt lat="51.6805029754" lon="-1.6999229696"><ele>78.48</ele><time>2011-10-12T10:05:48Z</time></trkpt><trkpt lat="51.6805146262" lon="-1.6998855863"><ele>78.00</ele><time>2011-10-12T10:05:52Z</time></trkpt><trkpt lat="51.6805675998" lon="-1.6997586843"><ele>78.00</ele><time>2011-10-12T10:05:59Z</time></trkpt><trkpt lat="51.6805721261" lon="-1.6997497994"><ele>78.97</ele><time>2011-10-12T10:06:01Z</time></trkpt><trkpt lat="51.6806451324" lon="-1.6996533237"><ele>78.97</ele><time>2011-10-12T10:06:07Z</time></trkpt><trkpt lat="51.6806602199" lon="-1.6996430140"><ele>78.48</ele><time>2011-10-12T10:06:10Z</time></trkpt><trkpt lat="51.6807602160" lon="-1.6995594464"><ele>78.97</ele><time>2011-10-12T10:06:18Z</time></trkpt><trkpt lat="51.6807680111" lon="-1.6995422635"><ele>78.00</ele><time>2011-10-12T10:06:20Z</time></trkpt><trkpt lat="51.6808697674" lon="-1.6994957440"><ele>78.48</ele><time>2011-10-12T10:06:27Z</time></trkpt><trkpt lat="51.6808790714" lon="-1.6994827520"><ele>78.48</ele><time>2011-10-12T10:06:29Z</time></trkpt><trkpt lat="51.6809776425" lon="-1.6994249169"><ele>78.97</ele><time>2011-10-12T10:06:37Z</time></trkpt><trkpt lat="51.6809837613" lon="-1.6994124278"><ele>78.48</ele><time>2011-10-12T10:06:39Z</time></trkpt><trkpt lat="51.6810643952" lon="-1.6993522458"><ele>78.00</ele><time>2011-10-12T10:06:47Z</time></trkpt><trkpt lat="51.6811720189" lon="-1.6992615536"><ele>78.00</ele><time>2011-10-12T10:06:56Z</time></trkpt><trkpt lat="51.6811824124" lon="-1.6992505733"><ele>78.00</ele><time>2011-10-12T10:06:58Z</time></trkpt><trkpt lat="51.6812226456" lon="-1.6991192289"><ele>78.48</ele><time>2011-10-12T10:07:06Z</time></trkpt><trkpt lat="51.6812202986" lon="-1.6991047282"><ele>78.00</ele><time>2011-10-12T10:07:07Z</time></trkpt><trkpt lat="51.6812154371" lon="-1.6990701947"><ele>77.52</ele><time>2011-10-12T10:07:09Z</time></trkpt><trkpt lat="51.6812226456" lon="-1.6989442147"><ele>78.00</ele><time>2011-10-12T10:07:15Z</time></trkpt><trkpt lat="51.6812210530" lon="-1.6988650057"><ele>78.00</ele><time>2011-10-12T10:07:19Z</time></trkpt><trkpt lat="51.6812201310" lon="-1.6988191567"><ele>78.00</ele><time>2011-10-12T10:07:22Z</time></trkpt><trkpt lat="51.6812126711" lon="-1.6986733116"><ele>78.00</ele><time>2011-10-12T10:07:30Z</time></trkpt><trkpt lat="51.6812127549" lon="-1.6985552944"><ele>78.00</ele><time>2011-10-12T10:07:37Z</time></trkpt><trkpt lat="51.6812097374" lon="-1.6985191684"><ele>77.52</ele><time>2011-10-12T10:07:40Z</time></trkpt><trkpt lat="51.6812040377" lon="-1.6983749159"><ele>76.56</ele><time>2011-10-12T10:07:49Z</time></trkpt><trkpt lat="51.6811906267" lon="-1.6982922703"><ele>76.56</ele><time>2011-10-12T10:07:56Z</time></trkpt><trkpt lat="51.6811690014" lon="-1.6981583275"><ele>76.08</ele><time>2011-10-12T10:08:05Z</time></trkpt><trkpt lat="51.6811656486" lon="-1.6981458385"><ele>76.08</ele><time>2011-10-12T10:08:06Z</time></trkpt><trkpt lat="51.6811518185" lon="-1.6980304196"><ele>76.08</ele><time>2011-10-12T10:08:14Z</time></trkpt><trkpt lat="51.6811599489" lon="-1.6979605146"><ele>75.60</ele><time>2011-10-12T10:08:18Z</time></trkpt><trkpt lat="51.6811573505" lon="-1.6977560800"><ele>76.08</ele><time>2011-10-12T10:08:27Z</time></trkpt><trkpt lat="51.6811620444" lon="-1.6976122465"><ele>76.08</ele><time>2011-10-12T10:08:35Z</time></trkpt><trkpt lat="51.6811746173" lon="-1.6975014377"><ele>76.08</ele><time>2011-10-12T10:08:41Z</time></trkpt><trkpt lat="51.6811923869" lon="-1.6973912157"><ele>76.56</ele><time>2011-10-12T10:08:49Z</time></trkpt><trkpt lat="51.6812134255" lon="-1.6972530819"><ele>75.60</ele><time>2011-10-12T10:08:57Z</time></trkpt><trkpt lat="51.6812174488" lon="-1.6971233301"><ele>75.60</ele><time>2011-10-12T10:09:05Z</time></trkpt><trkpt lat="51.6812242381" lon="-1.6970429476"><ele>76.08</ele><time>2011-10-12T10:09:10Z</time></trkpt><trkpt lat="51.6812420078" lon="-1.6969648283"><ele>75.60</ele><time>2011-10-12T10:09:15Z</time></trkpt><trkpt lat="51.6812639683" lon="-1.6968148760"><ele>75.60</ele><time>2011-10-12T10:09:24Z</time></trkpt><trkpt lat="51.6812667344" lon="-1.6967951786"><ele>76.08</ele><time>2011-10-12T10:09:25Z</time></trkpt><trkpt lat="51.6812698357" lon="-1.6966262832"><ele>76.56</ele><time>2011-10-12T10:09:35Z</time></trkpt><trkpt lat="51.6812677402" lon="-1.6965899058"><ele>77.04</ele><time>2011-10-12T10:09:37Z</time></trkpt><trkpt lat="51.6812393256" lon="-1.6964306496"><ele>76.56</ele><time>2011-10-12T10:09:46Z</time></trkpt><trkpt lat="51.6812427621" lon="-1.6963998880"><ele>76.08</ele><time>2011-10-12T10:09:48Z</time></trkpt><trkpt lat="51.6812321171" lon="-1.6963205114"><ele>76.08</ele><time>2011-10-12T10:09:54Z</time></trkpt><trkpt lat="51.6812253278" lon="-1.6962515283"><ele>76.56</ele><time>2011-10-12T10:10:01Z</time></trkpt><trkpt lat="51.6812151857" lon="-1.6962205153"><ele>75.60</ele><time>2011-10-12T10:10:04Z</time></trkpt><trkpt lat="51.6811735276" lon="-1.6961150710"><ele>77.04</ele><time>2011-10-12T10:10:11Z</time></trkpt><trkpt lat="51.6811415926" lon="-1.6959872469"><ele>76.56</ele><time>2011-10-12T10:10:17Z</time></trkpt><trkpt lat="51.6811158601" lon="-1.6959262267"><ele>81.85</ele><time>2011-10-12T10:10:23Z</time></trkpt><trkpt lat="51.6811158601" lon="-1.6959262267"><ele>77.04</ele><time>2011-10-12T10:10:24Z</time></trkpt><trkpt lat="51.6811158601" lon="-1.6959262267"><ele>76.08</ele><time>2011-10-12T10:10:26Z</time></trkpt><trkpt lat="51.6811158601" lon="-1.6959262267"><ele>76.08</ele><time>2011-10-12T10:10:40Z</time></trkpt><trkpt lat="51.6811158601" lon="-1.6959262267"><ele>76.08</ele><time>2011-10-12T10:10:48Z</time></trkpt><trkpt lat="51.6810800694" lon="-1.6958582494"><ele>76.56</ele><time>2011-10-12T10:10:54Z</time></trkpt><trkpt lat="51.6810781416" lon="-1.6958422400"><ele>76.08</ele><time>2011-10-12T10:10:56Z</time></trkpt><trkpt lat="51.6810454521" lon="-1.6957402322"><ele>76.56</ele><time>2011-10-12T10:11:04Z</time></trkpt><trkpt lat="51.6810208932" lon="-1.6956559103"><ele>76.08</ele><time>2011-10-12T10:11:10Z</time></trkpt><trkpt lat="51.6809842642" lon="-1.6955567524"><ele>76.56</ele><time>2011-10-12T10:11:17Z</time></trkpt><trkpt lat="51.6809518263" lon="-1.6955042817"><ele>76.08</ele><time>2011-10-12T10:11:22Z</time></trkpt><trkpt lat="51.6809157841" lon="-1.6954209656"><ele>77.04</ele><time>2011-10-12T10:11:28Z</time></trkpt><trkpt lat="51.6809099168" lon="-1.6953906231"><ele>77.04</ele><time>2011-10-12T10:11:30Z</time></trkpt><trkpt lat="51.6808747966" lon="-1.6953004338"><ele>76.08</ele><time>2011-10-12T10:11:36Z</time></trkpt><trkpt lat="51.6808514111" lon="-1.6952286847"><ele>75.60</ele><time>2011-10-12T10:11:41Z</time></trkpt><trkpt lat="51.6808468010" lon="-1.6952109151"><ele>76.56</ele><time>2011-10-12T10:11:49Z</time></trkpt><trkpt lat="51.6808468010" lon="-1.6952109151"><ele>76.08</ele><time>2011-10-12T10:11:56Z</time></trkpt><trkpt lat="51.6808564402" lon="-1.6951603722"><ele>76.56</ele><time>2011-10-12T10:12:03Z</time></trkpt><trkpt lat="51.6808564402" lon="-1.6951603722"><ele>76.56</ele><time>2011-10-12T10:12:07Z</time></trkpt><trkpt lat="51.6808629781" lon="-1.6951474641"><ele>76.56</ele><time>2011-10-12T10:12:13Z</time></trkpt><trkpt lat="51.6808629781" lon="-1.6951474641"><ele>73.68</ele><time>2011-10-12T10:12:30Z</time></trkpt><trkpt lat="51.6808629781" lon="-1.6951474641"><ele>73.68</ele><time>2011-10-12T10:12:31Z</time></trkpt><trkpt lat="51.6808629781" lon="-1.6951474641"><ele>78.48</ele><time>2011-10-12T10:12:32Z</time></trkpt><trkpt lat="51.6808629781" lon="-1.6951474641"><ele>77.52</ele><time>2011-10-12T10:12:33Z</time></trkpt><trkpt lat="51.6808629781" lon="-1.6951474641"><ele>76.08</ele><time>2011-10-12T10:12:36Z</time></trkpt><trkpt lat="51.6808620561" lon="-1.6951468773"><ele>75.60</ele><time>2011-10-12T10:12:56Z</time></trkpt><trkpt lat="51.6808620561" lon="-1.6951468773"><ele>75.60</ele><time>2011-10-12T10:13:13Z</time></trkpt><trkpt lat="51.6808619723" lon="-1.6951460391"><ele>74.64</ele><time>2011-10-12T10:13:31Z</time></trkpt><trkpt lat="51.6808619723" lon="-1.6951460391"><ele>75.12</ele><time>2011-10-12T10:13:46Z</time></trkpt><trkpt lat="51.6808619723" lon="-1.6951460391"><ele>76.08</ele><time>2011-10-12T10:14:00Z</time></trkpt><trkpt lat="51.6808618046" lon="-1.6951451171"><ele>76.08</ele><time>2011-10-12T10:14:15Z</time></trkpt><trkpt lat="51.6808618046" lon="-1.6951451171"><ele>76.08</ele><time>2011-10-12T10:14:34Z</time></trkpt><trkpt lat="51.6808618046" lon="-1.6951451171"><ele>76.56</ele><time>2011-10-12T10:14:47Z</time></trkpt><trkpt lat="51.6808623914" lon="-1.6951426025"><ele>76.56</ele><time>2011-10-12T10:15:03Z</time></trkpt><trkpt lat="51.6808623914" lon="-1.6951426025"><ele>76.08</ele><time>2011-10-12T10:15:19Z</time></trkpt><trkpt lat="51.6808616370" lon="-1.6951413453"><ele>76.56</ele><time>2011-10-12T10:15:36Z</time></trkpt><trkpt lat="51.6808602959" lon="-1.6951420158"><ele>77.04</ele><time>2011-10-12T10:15:54Z</time></trkpt><trkpt lat="51.6808602959" lon="-1.6951420158"><ele>76.08</ele><time>2011-10-12T10:16:12Z</time></trkpt><trkpt lat="51.6808602959" lon="-1.6951420158"><ele>76.08</ele><time>2011-10-12T10:16:29Z</time></trkpt><trkpt lat="51.6808598768" lon="-1.6951419320"><ele>76.56</ele><time>2011-10-12T10:16:44Z</time></trkpt><trkpt lat="51.6808598768" lon="-1.6951419320"><ele>76.56</ele><time>2011-10-12T10:17:01Z</time></trkpt><trkpt lat="51.6808600444" lon="-1.6951418482"><ele>76.08</ele><time>2011-10-12T10:17:18Z</time></trkpt><trkpt lat="51.6808600444" lon="-1.6951418482"><ele>76.08</ele><time>2011-10-12T10:17:38Z</time></trkpt><trkpt lat="51.6808600444" lon="-1.6951416805"><ele>76.08</ele><time>2011-10-12T10:17:56Z</time></trkpt><trkpt lat="51.6808594577" lon="-1.6951148584"><ele>76.08</ele><time>2011-10-12T10:18:09Z</time></trkpt><trkpt lat="51.6808540933" lon="-1.6950850189"><ele>76.08</ele><time>2011-10-12T10:18:24Z</time></trkpt><trkpt lat="51.6808540933" lon="-1.6950850189"><ele>75.60</ele><time>2011-10-12T10:18:41Z</time></trkpt><trkpt lat="51.6808509082" lon="-1.6950845998"><ele>76.08</ele><time>2011-10-12T10:19:01Z</time></trkpt><trkpt lat="51.6808509082" lon="-1.6950845998"><ele>76.08</ele><time>2011-10-12T10:19:21Z</time></trkpt><trkpt lat="51.6808477230" lon="-1.6950859409"><ele>75.60</ele><time>2011-10-12T10:19:42Z</time></trkpt><trkpt lat="51.6808477230" lon="-1.6950859409"><ele>75.60</ele><time>2011-10-12T10:20:04Z</time></trkpt><trkpt lat="51.6808439512" lon="-1.6950856056"><ele>75.60</ele><time>2011-10-12T10:20:24Z</time></trkpt><trkpt lat="51.6808439512" lon="-1.6950856056"><ele>76.08</ele><time>2011-10-12T10:20:42Z</time></trkpt><trkpt lat="51.6808411852" lon="-1.6950855218"><ele>76.08</ele><time>2011-10-12T10:20:57Z</time></trkpt><trkpt lat="51.6808411852" lon="-1.6950855218"><ele>76.08</ele><time>2011-10-12T10:21:16Z</time></trkpt><trkpt lat="51.6808371618" lon="-1.6950860247"><ele>76.08</ele><time>2011-10-12T10:21:35Z</time></trkpt><trkpt lat="51.6808371618" lon="-1.6950860247"><ele>76.08</ele><time>2011-10-12T10:21:50Z</time></trkpt><trkpt lat="51.6808371618" lon="-1.6950860247"><ele>76.56</ele><time>2011-10-12T10:22:10Z</time></trkpt><trkpt lat="51.6808361560" lon="-1.6950867791"><ele>76.08</ele><time>2011-10-12T10:22:31Z</time></trkpt><trkpt lat="51.6808361560" lon="-1.6950867791"><ele>76.08</ele><time>2011-10-12T10:22:49Z</time></trkpt><trkpt lat="51.6808345634" lon="-1.6950871982"><ele>76.08</ele><time>2011-10-12T10:23:07Z</time></trkpt><trkpt lat="51.6808345634" lon="-1.6950871982"><ele>78.48</ele><time>2011-10-12T10:23:23Z</time></trkpt><trkpt lat="51.6808345634" lon="-1.6950871982"><ele>75.60</ele><time>2011-10-12T10:23:25Z</time></trkpt><trkpt lat="51.6808328871" lon="-1.6950891260"><ele>76.08</ele><time>2011-10-12T10:23:45Z</time></trkpt><trkpt lat="51.6808328871" lon="-1.6950891260"><ele>76.56</ele><time>2011-10-12T10:24:06Z</time></trkpt><trkpt lat="51.6808347311" lon="-1.6950802412"><ele>77.04</ele><time>2011-10-12T10:24:24Z</time></trkpt><trkpt lat="51.6808347311" lon="-1.6950802412"><ele>73.20</ele><time>2011-10-12T10:24:35Z</time></trkpt><trkpt lat="51.6808347311" lon="-1.6950802412"><ele>77.04</ele><time>2011-10-12T10:24:36Z</time></trkpt><trkpt lat="51.6808341444" lon="-1.6950859409"><ele>77.04</ele><time>2011-10-12T10:24:52Z</time></trkpt><trkpt lat="51.6808339767" lon="-1.6950856894"><ele>76.08</ele><time>2011-10-12T10:25:04Z</time></trkpt><trkpt lat="51.6808412690" lon="-1.6949886270"><ele>76.56</ele><time>2011-10-12T10:25:14Z</time></trkpt><trkpt lat="51.6808072384" lon="-1.6948764771"><ele>76.56</ele><time>2011-10-12T10:25:29Z</time></trkpt><trkpt lat="51.6808022093" lon="-1.6948893014"><ele>76.56</ele><time>2011-10-12T10:25:38Z</time></trkpt><trkpt lat="51.6808328032" lon="-1.6950892936"><ele>75.60</ele><time>2011-10-12T10:25:53Z</time></trkpt><trkpt lat="51.6808640677" lon="-1.6951497272"><ele>76.56</ele><time>2011-10-12T10:26:06Z</time></trkpt><trkpt lat="51.6808640677" lon="-1.6951497272"><ele>76.56</ele><time>2011-10-12T10:26:19Z</time></trkpt><trkpt lat="51.6808428615" lon="-1.6951265931"><ele>77.52</ele><time>2011-10-12T10:26:33Z</time></trkpt><trkpt lat="51.6808428615" lon="-1.6951265931"><ele>74.16</ele><time>2011-10-12T10:26:36Z</time></trkpt><trkpt lat="51.6808428615" lon="-1.6951265931"><ele>78.00</ele><time>2011-10-12T10:26:37Z</time></trkpt><trkpt lat="51.6808428615" lon="-1.6951265931"><ele>74.64</ele><time>2011-10-12T10:26:39Z</time></trkpt><trkpt lat="51.6808022093" lon="-1.6952671576"><ele>74.64</ele><time>2011-10-12T10:26:49Z</time></trkpt><trkpt lat="51.6808224097" lon="-1.6952642240"><ele>80.41</ele><time>2011-10-12T10:26:56Z</time></trkpt><trkpt lat="51.6808328032" lon="-1.6952422634"><ele>77.04</ele><time>2011-10-12T10:26:57Z</time></trkpt><trkpt lat="51.6808505729" lon="-1.6951518226"><ele>77.04</ele><time>2011-10-12T10:27:03Z</time></trkpt><trkpt lat="51.6808505729" lon="-1.6951518226"><ele>76.56</ele><time>2011-10-12T10:27:16Z</time></trkpt><trkpt lat="51.6808463819" lon="-1.6951441951"><ele>77.04</ele><time>2011-10-12T10:27:18Z</time></trkpt><trkpt lat="51.6808076575" lon="-1.6950948257"><ele>77.04</ele><time>2011-10-12T10:27:25Z</time></trkpt><trkpt lat="51.6807990242" lon="-1.6950659920"><ele>76.56</ele><time>2011-10-12T10:27:28Z</time></trkpt><trkpt lat="51.6807734594" lon="-1.6949773114"><ele>76.56</ele><time>2011-10-12T10:27:34Z</time></trkpt><trkpt lat="51.6807214916" lon="-1.6948602162"><ele>76.56</ele><time>2011-10-12T10:27:42Z</time></trkpt><trkpt lat="51.6807092540" lon="-1.6948290356"><ele>76.56</ele><time>2011-10-12T10:27:45Z</time></trkpt><trkpt lat="51.6806768999" lon="-1.6947364155"><ele>76.56</ele><time>2011-10-12T10:27:51Z</time></trkpt><trkpt lat="51.6806708649" lon="-1.6947271116"><ele>76.08</ele><time>2011-10-12T10:27:52Z</time></trkpt><trkpt lat="51.6806299612" lon="-1.6946359165"><ele>77.04</ele><time>2011-10-12T10:27:59Z</time></trkpt><trkpt lat="51.6806081682" lon="-1.6945676040"><ele>76.56</ele><time>2011-10-12T10:28:04Z</time></trkpt><trkpt lat="51.6805845313" lon="-1.6945045721"><ele>77.04</ele><time>2011-10-12T10:28:09Z</time></trkpt><trkpt lat="51.6805729643" lon="-1.6944717988"><ele>76.08</ele><time>2011-10-12T10:28:12Z</time></trkpt><trkpt lat="51.6805405263" lon="-1.6943859681"><ele>76.56</ele><time>2011-10-12T10:28:18Z</time></trkpt><trkpt lat="51.6805127822" lon="-1.6943072621"><ele>75.12</ele><time>2011-10-12T10:28:24Z</time></trkpt><trkpt lat="51.6805070825" lon="-1.6942951083"><ele>77.04</ele><time>2011-10-12T10:28:25Z</time></trkpt><trkpt lat="51.6804770753" lon="-1.6942228563"><ele>76.56</ele><time>2011-10-12T10:28:31Z</time></trkpt><trkpt lat="51.6804451402" lon="-1.6941584833"><ele>76.56</ele><time>2011-10-12T10:28:37Z</time></trkpt><trkpt lat="51.6804387700" lon="-1.6941441502"><ele>76.56</ele><time>2011-10-12T10:28:38Z</time></trkpt><trkpt lat="51.6804063320" lon="-1.6940250434"><ele>76.56</ele><time>2011-10-12T10:28:45Z</time></trkpt><trkpt lat="51.6804143786" lon="-1.6939520370"><ele>76.08</ele><time>2011-10-12T10:28:51Z</time></trkpt><trkpt lat="51.6803973634" lon="-1.6939076968"><ele>76.56</ele><time>2011-10-12T10:28:56Z</time></trkpt><trkpt lat="51.6803973634" lon="-1.6939076968"><ele>77.04</ele><time>2011-10-12T10:28:57Z</time></trkpt><trkpt lat="51.6803657636" lon="-1.6938662063"><ele>76.08</ele><time>2011-10-12T10:29:01Z</time></trkpt><trkpt lat="51.6803447250" lon="-1.6938218661"><ele>77.04</ele><time>2011-10-12T10:29:04Z</time></trkpt><trkpt lat="51.6803142149" lon="-1.6937273182"><ele>76.56</ele><time>2011-10-12T10:29:10Z</time></trkpt><trkpt lat="51.6802791785" lon="-1.6936421581"><ele>76.08</ele><time>2011-10-12T10:29:16Z</time></trkpt><trkpt lat="51.6802669410" lon="-1.6936167609"><ele>76.56</ele><time>2011-10-12T10:29:18Z</time></trkpt><trkpt lat="51.6802345030" lon="-1.6935096402"><ele>76.56</ele><time>2011-10-12T10:29:25Z</time></trkpt><trkpt lat="51.6802016459" lon="-1.6934170201"><ele>76.56</ele><time>2011-10-12T10:29:31Z</time></trkpt><trkpt lat="51.6801644303" lon="-1.6933398228"><ele>77.04</ele><time>2011-10-12T10:29:37Z</time></trkpt><trkpt lat="51.6801566351" lon="-1.6933160182"><ele>77.04</ele><time>2011-10-12T10:29:39Z</time></trkpt><trkpt lat="51.6801393684" lon="-1.6932398267"><ele>76.56</ele><time>2011-10-12T10:29:44Z</time></trkpt><trkpt lat="51.6801212635" lon="-1.6931866016"><ele>76.56</ele><time>2011-10-12T10:29:48Z</time></trkpt><trkpt lat="51.6801025718" lon="-1.6931451112"><ele>76.56</ele><time>2011-10-12T10:29:51Z</time></trkpt><trkpt lat="51.6800778452" lon="-1.6930748709"><ele>76.08</ele><time>2011-10-12T10:29:56Z</time></trkpt><trkpt lat="51.6800418869" lon="-1.6929590330"><ele>76.56</ele><time>2011-10-12T10:30:04Z</time></trkpt><trkpt lat="51.6800205968" lon="-1.6928918939"><ele>77.04</ele><time>2011-10-12T10:30:09Z</time></trkpt><trkpt lat="51.6799811181" lon="-1.6928125173"><ele>77.04</ele><time>2011-10-12T10:30:15Z</time></trkpt><trkpt lat="51.6799510270" lon="-1.6927333921"><ele>77.52</ele><time>2011-10-12T10:30:21Z</time></trkpt><trkpt lat="51.6799264681" lon="-1.6926479805"><ele>76.08</ele><time>2011-10-12T10:30:27Z</time></trkpt><trkpt lat="51.6798950359" lon="-1.6925591324"><ele>77.52</ele><time>2011-10-12T10:30:33Z</time></trkpt><trkpt lat="51.6798713151" lon="-1.6924662609"><ele>77.04</ele><time>2011-10-12T10:30:39Z</time></trkpt><trkpt lat="51.6798636876" lon="-1.6924295481"><ele>77.04</ele><time>2011-10-12T10:30:42Z</time></trkpt><trkpt lat="51.6798364464" lon="-1.6923291329"><ele>76.56</ele><time>2011-10-12T10:30:49Z</time></trkpt><trkpt lat="51.6797902621" lon="-1.6922086012"><ele>77.04</ele><time>2011-10-12T10:30:57Z</time></trkpt><trkpt lat="51.6797654517" lon="-1.6921261232"><ele>78.00</ele><time>2011-10-12T10:31:02Z</time></trkpt><trkpt lat="51.6797558125" lon="-1.6921017319"><ele>77.04</ele><time>2011-10-12T10:31:04Z</time></trkpt><trkpt lat="51.6797280684" lon="-1.6919884924"><ele>77.52</ele><time>2011-10-12T10:31:10Z</time></trkpt><trkpt lat="51.6796935350" lon="-1.6918817069"><ele>77.04</ele><time>2011-10-12T10:31:17Z</time></trkpt><trkpt lat="51.6796769388" lon="-1.6918292362"><ele>77.04</ele><time>2011-10-12T10:31:21Z</time></trkpt><trkpt lat="51.6796510387" lon="-1.6917431541"><ele>77.04</ele><time>2011-10-12T10:31:27Z</time></trkpt><trkpt lat="51.6796216182" lon="-1.6916353628"><ele>77.04</ele><time>2011-10-12T10:31:34Z</time></trkpt><trkpt lat="51.6796163376" lon="-1.6916014999"><ele>77.04</ele><time>2011-10-12T10:31:36Z</time></trkpt><trkpt lat="51.6795828938" lon="-1.6914765257"><ele>77.52</ele><time>2011-10-12T10:31:44Z</time></trkpt><trkpt lat="51.6795693152" lon="-1.6913834866"><ele>77.04</ele><time>2011-10-12T10:31:50Z</time></trkpt><trkpt lat="51.6795377992" lon="-1.6912776232"><ele>77.52</ele><time>2011-10-12T10:31:57Z</time></trkpt><trkpt lat="51.6795011703" lon="-1.6911746096"><ele>76.56</ele><time>2011-10-12T10:32:04Z</time></trkpt><trkpt lat="51.6794953868" lon="-1.6911615338"><ele>77.52</ele><time>2011-10-12T10:32:05Z</time></trkpt><trkpt lat="51.6794653796" lon="-1.6910379007"><ele>77.04</ele><time>2011-10-12T10:32:13Z</time></trkpt><trkpt lat="51.6794508789" lon="-1.6909916326"><ele>77.04</ele><time>2011-10-12T10:32:17Z</time></trkpt><trkpt lat="51.6794209555" lon="-1.6908760462"><ele>77.04</ele><time>2011-10-12T10:32:24Z</time></trkpt><trkpt lat="51.6793936305" lon="-1.6907664109"><ele>77.04</ele><time>2011-10-12T10:32:32Z</time></trkpt><trkpt lat="51.6793751903" lon="-1.6907048039"><ele>77.04</ele><time>2011-10-12T10:32:37Z</time></trkpt><trkpt lat="51.6793543193" lon="-1.6905784886"><ele>77.04</ele><time>2011-10-12T10:32:44Z</time></trkpt><trkpt lat="51.6793398187" lon="-1.6905087512"><ele>77.04</ele><time>2011-10-12T10:32:48Z</time></trkpt><trkpt lat="51.6793283354" lon="-1.6904658359"><ele>77.04</ele><time>2011-10-12T10:32:51Z</time></trkpt><trkpt lat="51.6793093923" lon="-1.6903909016"><ele>77.04</ele><time>2011-10-12T10:32:56Z</time></trkpt><trkpt lat="51.6792773735" lon="-1.6902792547"><ele>76.56</ele><time>2011-10-12T10:33:03Z</time></trkpt><trkpt lat="51.6792538203" lon="-1.6901836172"><ele>77.52</ele><time>2011-10-12T10:33:09Z</time></trkpt><trkpt lat="51.6792236455" lon="-1.6900877282"><ele>77.04</ele><time>2011-10-12T10:33:15Z</time></trkpt><trkpt lat="51.6792067979" lon="-1.6899917554"><ele>77.04</ele><time>2011-10-12T10:33:21Z</time></trkpt><trkpt lat="51.6792016849" lon="-1.6899788473"><ele>77.52</ele><time>2011-10-12T10:33:22Z</time></trkpt><trkpt lat="51.6791800596" lon="-1.6898868978"><ele>77.04</ele><time>2011-10-12T10:33:28Z</time></trkpt><trkpt lat="51.6791622061" lon="-1.6897993907"><ele>77.04</ele><time>2011-10-12T10:33:33Z</time></trkpt><trkpt lat="51.6791521478" lon="-1.6897714790"><ele>77.04</ele><time>2011-10-12T10:33:35Z</time></trkpt><trkpt lat="51.6791323666" lon="-1.6896809544"><ele>76.56</ele><time>2011-10-12T10:33:41Z</time></trkpt><trkpt lat="51.6791089810" lon="-1.6895899270"><ele>77.52</ele><time>2011-10-12T10:33:47Z</time></trkpt><trkpt lat="51.6790825780" lon="-1.6894808784"><ele>77.04</ele><time>2011-10-12T10:33:53Z</time></trkpt><trkpt lat="51.6790813208" lon="-1.6894696467"><ele>77.04</ele><time>2011-10-12T10:33:54Z</time></trkpt><trkpt lat="51.6790767107" lon="-1.6894377116"><ele>76.56</ele><time>2011-10-12T10:33:56Z</time></trkpt><trkpt lat="51.6790509783" lon="-1.6893428285"><ele>76.56</ele><time>2011-10-12T10:34:02Z</time></trkpt><trkpt lat="51.6790247429" lon="-1.6892372165"><ele>76.56</ele><time>2011-10-12T10:34:09Z</time></trkpt><trkpt lat="51.6789947357" lon="-1.6891425010"><ele>77.04</ele><time>2011-10-12T10:34:15Z</time></trkpt><trkpt lat="51.6789849289" lon="-1.6891143378"><ele>76.56</ele><time>2011-10-12T10:34:17Z</time></trkpt><trkpt lat="51.6789503954" lon="-1.6890036967"><ele>77.04</ele><time>2011-10-12T10:34:24Z</time></trkpt><trkpt lat="51.6789264232" lon="-1.6889272537"><ele>76.56</ele><time>2011-10-12T10:34:29Z</time></trkpt><trkpt lat="51.6789071448" lon="-1.6888441890"><ele>77.04</ele><time>2011-10-12T10:34:34Z</time></trkpt><trkpt lat="51.6788963322" lon="-1.6888193786"><ele>77.04</ele><time>2011-10-12T10:34:36Z</time></trkpt><trkpt lat="51.6788892075" lon="-1.6887483839"><ele>77.04</ele><time>2011-10-12T10:34:42Z</time></trkpt><trkpt lat="51.6788630560" lon="-1.6886307858"><ele>76.56</ele><time>2011-10-12T10:34:48Z</time></trkpt><trkpt lat="51.6788535845" lon="-1.6886006109"><ele>77.04</ele><time>2011-10-12T10:34:50Z</time></trkpt><trkpt lat="51.6788253374" lon="-1.6884975135"><ele>77.04</ele><time>2011-10-12T10:34:56Z</time></trkpt><trkpt lat="51.6788204759" lon="-1.6884837672"><ele>77.04</ele><time>2011-10-12T10:34:57Z</time></trkpt><trkpt lat="51.6788034607" lon="-1.6883729585"><ele>76.56</ele><time>2011-10-12T10:35:03Z</time></trkpt><trkpt lat="51.6788001917" lon="-1.6883589607"><ele>77.04</ele><time>2011-10-12T10:35:04Z</time></trkpt><trkpt lat="51.6787768900" lon="-1.6882278677"><ele>77.04</ele><time>2011-10-12T10:35:12Z</time></trkpt><trkpt lat="51.6787511576" lon="-1.6881342418"><ele>77.04</ele><time>2011-10-12T10:35:18Z</time></trkpt><trkpt lat="51.6787463799" lon="-1.6881246027"><ele>76.56</ele><time>2011-10-12T10:35:19Z</time></trkpt><trkpt lat="51.6787105892" lon="-1.6880278755"><ele>77.04</ele><time>2011-10-12T10:35:26Z</time></trkpt><trkpt lat="51.6786883771" lon="-1.6879539471"><ele>77.04</ele><time>2011-10-12T10:35:31Z</time></trkpt><trkpt lat="51.6786685959" lon="-1.6878433898"><ele>76.56</ele><time>2011-10-12T10:35:37Z</time></trkpt><trkpt lat="51.6786576156" lon="-1.6878090240"><ele>75.60</ele><time>2011-10-12T10:35:40Z</time></trkpt><trkpt lat="51.6786170471" lon="-1.6876636818"><ele>76.56</ele><time>2011-10-12T10:35:49Z</time></trkpt><trkpt lat="51.6785888001" lon="-1.6875565611"><ele>76.56</ele><time>2011-10-12T10:35:56Z</time></trkpt><trkpt lat="51.6785675939" lon="-1.6874829680"><ele>76.08</ele><time>2011-10-12T10:36:01Z</time></trkpt><trkpt lat="51.6785463039" lon="-1.6873816308"><ele>76.08</ele><time>2011-10-12T10:36:07Z</time></trkpt><trkpt lat="51.6785424482" lon="-1.6873679683"><ele>76.08</ele><time>2011-10-12T10:36:08Z</time></trkpt><trkpt lat="51.6785352398" lon="-1.6872265656"><ele>76.08</ele><time>2011-10-12T10:36:15Z</time></trkpt><trkpt lat="51.6785785742" lon="-1.6871206183"><ele>76.08</ele><time>2011-10-12T10:36:20Z</time></trkpt><trkpt lat="51.6785849445" lon="-1.6871096380"><ele>76.56</ele><time>2011-10-12T10:36:21Z</time></trkpt><trkpt lat="51.6786071565" lon="-1.6870629508"><ele>75.60</ele><time>2011-10-12T10:36:24Z</time></trkpt><trkpt lat="51.6786655784" lon="-1.6869744379"><ele>75.60</ele><time>2011-10-12T10:36:31Z</time></trkpt><trkpt lat="51.6787125170" lon="-1.6869171895"><ele>76.08</ele><time>2011-10-12T10:36:36Z</time></trkpt><trkpt lat="51.6787267663" lon="-1.6868952289"><ele>76.56</ele><time>2011-10-12T10:36:38Z</time></trkpt><trkpt lat="51.6787901334" lon="-1.6868158523"><ele>76.08</ele><time>2011-10-12T10:36:45Z</time></trkpt><trkpt lat="51.6788441129" lon="-1.6867471207"><ele>76.56</ele><time>2011-10-12T10:36:52Z</time></trkpt><trkpt lat="51.6788829211" lon="-1.6866791435"><ele>76.56</ele><time>2011-10-12T10:36:57Z</time></trkpt><trkpt lat="51.6788934823" lon="-1.6866596974"><ele>76.08</ele><time>2011-10-12T10:36:59Z</time></trkpt><trkpt lat="51.6789301950" lon="-1.6866028681"><ele>76.08</ele><time>2011-10-12T10:37:04Z</time></trkpt><trkpt lat="51.6789451148" lon="-1.6865755431"><ele>75.60</ele><time>2011-10-12T10:37:06Z</time></trkpt><trkpt lat="51.6789928079" lon="-1.6864998545"><ele>76.08</ele><time>2011-10-12T10:37:12Z</time></trkpt><trkpt lat="51.6790447757" lon="-1.6864194721"><ele>76.08</ele><time>2011-10-12T10:37:18Z</time></trkpt><trkpt lat="51.6790574323" lon="-1.6863948293"><ele>76.08</ele><time>2011-10-12T10:37:20Z</time></trkpt><trkpt lat="51.6791132558" lon="-1.6862884630"><ele>76.08</ele><time>2011-10-12T10:37:27Z</time></trkpt><trkpt lat="51.6791514773" lon="-1.6862270236"><ele>76.08</ele><time>2011-10-12T10:37:32Z</time></trkpt><trkpt lat="51.6791580990" lon="-1.6862144507"><ele>76.08</ele><time>2011-10-12T10:37:33Z</time></trkpt><trkpt lat="51.6791934706" lon="-1.6861494910"><ele>76.08</ele><time>2011-10-12T10:37:38Z</time></trkpt><trkpt lat="51.6792046186" lon="-1.6861251835"><ele>76.08</ele><time>2011-10-12T10:37:40Z</time></trkpt><trkpt lat="51.6792468634" lon="-1.6860559490"><ele>76.08</ele><time>2011-10-12T10:37:46Z</time></trkpt><trkpt lat="51.6792801395" lon="-1.6859902348"><ele>76.56</ele><time>2011-10-12T10:37:51Z</time></trkpt><trkpt lat="51.6793368850" lon="-1.6858960222"><ele>76.56</ele><time>2011-10-12T10:37:57Z</time></trkpt><trkpt lat="51.6793573368" lon="-1.6858673561"><ele>76.56</ele><time>2011-10-12T10:38:00Z</time></trkpt><trkpt lat="51.6793946363" lon="-1.6858103592"><ele>76.56</ele><time>2011-10-12T10:38:06Z</time></trkpt><trkpt lat="51.6793963965" lon="-1.6858017258"><ele>76.08</ele><time>2011-10-12T10:38:07Z</time></trkpt><trkpt lat="51.6794055328" lon="-1.6857449804"><ele>76.56</ele><time>2011-10-12T10:38:12Z</time></trkpt><trkpt lat="51.6794243082" lon="-1.6856519412"><ele>77.04</ele><time>2011-10-12T10:38:17Z</time></trkpt><trkpt lat="51.6794207878" lon="-1.6856267117"><ele>76.56</ele><time>2011-10-12T10:38:19Z</time></trkpt><trkpt lat="51.6794081312" lon="-1.6855376959"><ele>77.04</ele><time>2011-10-12T10:38:25Z</time></trkpt><trkpt lat="51.6794057842" lon="-1.6855232790"><ele>77.04</ele><time>2011-10-12T10:38:26Z</time></trkpt><trkpt lat="51.6793931276" lon="-1.6854139790"><ele>77.04</ele><time>2011-10-12T10:38:32Z</time></trkpt><trkpt lat="51.6793922056" lon="-1.6853877436"><ele>76.56</ele><time>2011-10-12T10:38:34Z</time></trkpt><trkpt lat="51.6793926246" lon="-1.6852902621"><ele>77.04</ele><time>2011-10-12T10:38:40Z</time></trkpt><trkpt lat="51.6793967318" lon="-1.6851632763"><ele>77.04</ele><time>2011-10-12T10:38:47Z</time></trkpt><trkpt lat="51.6793990787" lon="-1.6850873362"><ele>76.56</ele><time>2011-10-12T10:38:52Z</time></trkpt><trkpt lat="51.6794034373" lon="-1.6850028466"><ele>76.56</ele><time>2011-10-12T10:38:57Z</time></trkpt><trkpt lat="51.6794032697" lon="-1.6849908605"><ele>77.04</ele><time>2011-10-12T10:38:58Z</time></trkpt><trkpt lat="51.6794028506" lon="-1.6849124897"><ele>76.56</ele><time>2011-10-12T10:39:03Z</time></trkpt><trkpt lat="51.6793987434" lon="-1.6849033535"><ele>76.08</ele><time>2011-10-12T10:39:04Z</time></trkpt><trkpt lat="51.6794038564" lon="-1.6848052852"><ele>76.08</ele><time>2011-10-12T10:39:10Z</time></trkpt><trkpt lat="51.6794006713" lon="-1.6847295128"><ele>76.56</ele><time>2011-10-12T10:39:15Z</time></trkpt><trkpt lat="51.6794006713" lon="-1.6847295128"><ele>77.04</ele><time>2011-10-12T10:39:21Z</time></trkpt><trkpt lat="51.6794006713" lon="-1.6847295128"><ele>77.04</ele><time>2011-10-12T10:39:27Z</time></trkpt><trkpt lat="51.6793683171" lon="-1.6846502200"><ele>76.56</ele><time>2011-10-12T10:39:32Z</time></trkpt><trkpt lat="51.6793409083" lon="-1.6845469549"><ele>76.56</ele><time>2011-10-12T10:39:38Z</time></trkpt><trkpt lat="51.6793284193" lon="-1.6844652314"><ele>77.52</ele><time>2011-10-12T10:39:43Z</time></trkpt><trkpt lat="51.6793150082" lon="-1.6843795683"><ele>76.56</ele><time>2011-10-12T10:39:48Z</time></trkpt><trkpt lat="51.6793169361" lon="-1.6842826735"><ele>77.52</ele><time>2011-10-12T10:39:53Z</time></trkpt><trkpt lat="51.6793050338" lon="-1.6842127685"><ele>77.04</ele><time>2011-10-12T10:39:59Z</time></trkpt><trkpt lat="51.6793039441" lon="-1.6841895506"><ele>77.52</ele><time>2011-10-12T10:40:04Z</time></trkpt><trkpt lat="51.6793167684" lon="-1.6841685958"><ele>77.52</ele><time>2011-10-12T10:40:15Z</time></trkpt><trkpt lat="51.6793352924" lon="-1.6841404326"><ele>77.52</ele><time>2011-10-12T10:40:22Z</time></trkpt><trkpt lat="51.6793425009" lon="-1.6841236688"><ele>77.52</ele><time>2011-10-12T10:40:24Z</time></trkpt><trkpt lat="51.6793806385" lon="-1.6840574518"><ele>78.00</ele><time>2011-10-12T10:40:30Z</time></trkpt><trkpt lat="51.6794047784" lon="-1.6839988623"><ele>78.00</ele><time>2011-10-12T10:40:35Z</time></trkpt><trkpt lat="51.6794418264" lon="-1.6839150432"><ele>77.52</ele><time>2011-10-12T10:40:41Z</time></trkpt><trkpt lat="51.6794445086" lon="-1.6839024704"><ele>78.00</ele><time>2011-10-12T10:40:42Z</time></trkpt><trkpt lat="51.6794865858" lon="-1.6838297155"><ele>78.00</ele><time>2011-10-12T10:40:48Z</time></trkpt><trkpt lat="51.6795169283" lon="-1.6837582178"><ele>78.00</ele><time>2011-10-12T10:40:53Z</time></trkpt><trkpt lat="51.6795395594" lon="-1.6837232653"><ele>78.00</ele><time>2011-10-12T10:40:57Z</time></trkpt><trkpt lat="51.6795848217" lon="-1.6836217605"><ele>78.00</ele><time>2011-10-12T10:41:04Z</time></trkpt><trkpt lat="51.6796012502" lon="-1.6836020630"><ele>78.00</ele><time>2011-10-12T10:41:07Z</time></trkpt><trkpt lat="51.6796403099" lon="-1.6834961157"><ele>78.00</ele><time>2011-10-12T10:41:14Z</time></trkpt><trkpt lat="51.6796781123" lon="-1.6834342573"><ele>78.00</ele><time>2011-10-12T10:41:19Z</time></trkpt><trkpt lat="51.6796995699" lon="-1.6833925992"><ele>78.48</ele><time>2011-10-12T10:41:22Z</time></trkpt><trkpt lat="51.6797481012" lon="-1.6833279748"><ele>78.97</ele><time>2011-10-12T10:41:28Z</time></trkpt><trkpt lat="51.6797481012" lon="-1.6833279748"><ele>77.52</ele><time>2011-10-12T10:41:29Z</time></trkpt><trkpt lat="51.6797850654" lon="-1.6832672898"><ele>78.00</ele><time>2011-10-12T10:41:35Z</time></trkpt><trkpt lat="51.6798138991" lon="-1.6832309123"><ele>78.00</ele><time>2011-10-12T10:41:38Z</time></trkpt><trkpt lat="51.6798396315" lon="-1.6831998993"><ele>78.00</ele><time>2011-10-12T10:41:41Z</time></trkpt><trkpt lat="51.6798701417" lon="-1.6831413098"><ele>78.00</ele><time>2011-10-12T10:41:45Z</time></trkpt><trkpt lat="51.6799081117" lon="-1.6830935329"><ele>78.00</ele><time>2011-10-12T10:41:49Z</time></trkpt><trkpt lat="51.6799598280" lon="-1.6830180120"><ele>77.52</ele><time>2011-10-12T10:41:56Z</time></trkpt><trkpt lat="51.6799877398" lon="-1.6829816345"><ele>78.00</ele><time>2011-10-12T10:42:01Z</time></trkpt><trkpt lat="51.6799877398" lon="-1.6829816345"><ele>77.52</ele><time>2011-10-12T10:42:10Z</time></trkpt><trkpt lat="51.6799877398" lon="-1.6829816345"><ele>78.00</ele><time>2011-10-12T10:42:11Z</time></trkpt><trkpt lat="51.6800236143" lon="-1.6829530522"><ele>78.48</ele><time>2011-10-12T10:42:14Z</time></trkpt><trkpt lat="51.6800499335" lon="-1.6829354502"><ele>78.48</ele><time>2011-10-12T10:42:21Z</time></trkpt><trkpt lat="51.6800499335" lon="-1.6829354502"><ele>78.48</ele><time>2011-10-12T10:42:23Z</time></trkpt><trkpt lat="51.6801267955" lon="-1.6829139087"><ele>78.00</ele><time>2011-10-12T10:42:30Z</time></trkpt><trkpt lat="51.6801904980" lon="-1.6829068679"><ele>78.00</ele><time>2011-10-12T10:42:35Z</time></trkpt><trkpt lat="51.6802421305" lon="-1.6828616057"><ele>78.48</ele><time>2011-10-12T10:42:41Z</time></trkpt><trkpt lat="51.6802480817" lon="-1.6828536429"><ele>78.00</ele><time>2011-10-12T10:42:42Z</time></trkpt><trkpt lat="51.6802944336" lon="-1.6827766970"><ele>78.48</ele><time>2011-10-12T10:42:48Z</time></trkpt><trkpt lat="51.6803289670" lon="-1.6827197000"><ele>78.48</ele><time>2011-10-12T10:42:53Z</time></trkpt><trkpt lat="51.6803601477" lon="-1.6826799698"><ele>78.48</ele><time>2011-10-12T10:42:58Z</time></trkpt><trkpt lat="51.6803950164" lon="-1.6826059576"><ele>78.00</ele><time>2011-10-12T10:43:04Z</time></trkpt><trkpt lat="51.6804164741" lon="-1.6825764533"><ele>78.00</ele><time>2011-10-12T10:43:07Z</time></trkpt><trkpt lat="51.6804349981" lon="-1.6825539898"><ele>78.48</ele><time>2011-10-12T10:43:09Z</time></trkpt><trkpt lat="51.6804536059" lon="-1.6825246532"><ele>78.00</ele><time>2011-10-12T10:43:12Z</time></trkpt><trkpt lat="51.6804774106" lon="-1.6824933887"><ele>78.48</ele><time>2011-10-12T10:43:15Z</time></trkpt><trkpt lat="51.6805230081" lon="-1.6824233998"><ele>78.00</ele><time>2011-10-12T10:43:21Z</time></trkpt><trkpt lat="51.6805432923" lon="-1.6823941469"><ele>78.00</ele><time>2011-10-12T10:43:24Z</time></trkpt><trkpt lat="51.6805711202" lon="-1.6823437717"><ele>78.00</ele><time>2011-10-12T10:43:28Z</time></trkpt><trkpt lat="51.6806183103" lon="-1.6822733637"><ele>78.00</ele><time>2011-10-12T10:43:34Z</time></trkpt><trkpt lat="51.6806247644" lon="-1.6822608747"><ele>78.00</ele><time>2011-10-12T10:43:35Z</time></trkpt><trkpt lat="51.6806722060" lon="-1.6822000220"><ele>78.48</ele><time>2011-10-12T10:43:40Z</time></trkpt><trkpt lat="51.6806962620" lon="-1.6821739543"><ele>78.00</ele><time>2011-10-12T10:43:43Z</time></trkpt><trkpt lat="51.6807191446" lon="-1.6821319610"><ele>78.00</ele><time>2011-10-12T10:43:47Z</time></trkpt><trkpt lat="51.6807545163" lon="-1.6820748802"><ele>78.00</ele><time>2011-10-12T10:43:52Z</time></trkpt><trkpt lat="51.6807588749" lon="-1.6820694320"><ele>78.00</ele><time>2011-10-12T10:44:02Z</time></trkpt><trkpt lat="51.6807676759" lon="-1.6820625588"><ele>78.00</ele><time>2011-10-12T10:44:09Z</time></trkpt><trkpt lat="51.6807607189" lon="-1.6820361558"><ele>78.00</ele><time>2011-10-12T10:44:14Z</time></trkpt><trkpt lat="51.6807595454" lon="-1.6820020415"><ele>77.52</ele><time>2011-10-12T10:44:19Z</time></trkpt><trkpt lat="51.6807547677" lon="-1.6819935758"><ele>77.04</ele><time>2011-10-12T10:44:20Z</time></trkpt><trkpt lat="51.6807447094" lon="-1.6819509119"><ele>78.00</ele><time>2011-10-12T10:44:27Z</time></trkpt><trkpt lat="51.6807447094" lon="-1.6819509119"><ele>78.00</ele><time>2011-10-12T10:44:35Z</time></trkpt><trkpt lat="51.6807375010" lon="-1.6819090862"><ele>77.04</ele><time>2011-10-12T10:44:40Z</time></trkpt><trkpt lat="51.6807344835" lon="-1.6818157956"><ele>77.04</ele><time>2011-10-12T10:44:45Z</time></trkpt><trkpt lat="51.6807215754" lon="-1.6816979460"><ele>77.04</ele><time>2011-10-12T10:44:52Z</time></trkpt><trkpt lat="51.6807156242" lon="-1.6816550307"><ele>77.04</ele><time>2011-10-12T10:44:55Z</time></trkpt><trkpt lat="51.6806919035" lon="-1.6815727204"><ele>77.52</ele><time>2011-10-12T10:45:00Z</time></trkpt><trkpt lat="51.6806847788" lon="-1.6815386899"><ele>77.04</ele><time>2011-10-12T10:45:02Z</time></trkpt><trkpt lat="51.6806633212" lon="-1.6814448126"><ele>77.52</ele><time>2011-10-12T10:45:07Z</time></trkpt><trkpt lat="51.6806582920" lon="-1.6814136319"><ele>77.52</ele><time>2011-10-12T10:45:09Z</time></trkpt><trkpt lat="51.6806473117" lon="-1.6813033260"><ele>78.00</ele><time>2011-10-12T10:45:15Z</time></trkpt><trkpt lat="51.6806473117" lon="-1.6813033260"><ele>77.52</ele><time>2011-10-12T10:45:16Z</time></trkpt><trkpt lat="51.6806168016" lon="-1.6811972111"><ele>77.52</ele><time>2011-10-12T10:45:21Z</time></trkpt><trkpt lat="51.6806066595" lon="-1.6811185889"><ele>77.52</ele><time>2011-10-12T10:45:27Z</time></trkpt><trkpt lat="51.6806038097" lon="-1.6810791101"><ele>77.52</ele><time>2011-10-12T10:45:30Z</time></trkpt><trkpt lat="51.6806058213" lon="-1.6810591612"><ele>77.52</ele><time>2011-10-12T10:45:32Z</time></trkpt><trkpt lat="51.6805820167" lon="-1.6809615958"><ele>78.00</ele><time>2011-10-12T10:45:38Z</time></trkpt><trkpt lat="51.6805777419" lon="-1.6809436586"><ele>78.48</ele><time>2011-10-12T10:45:42Z</time></trkpt><trkpt lat="51.6805803403" lon="-1.6809135675"><ele>77.52</ele><time>2011-10-12T10:45:51Z</time></trkpt><trkpt lat="51.6805827711" lon="-1.6808968876"><ele>78.48</ele><time>2011-10-12T10:45:52Z</time></trkpt><trkpt lat="51.6805956792" lon="-1.6808499489"><ele>77.52</ele><time>2011-10-12T10:45:58Z</time></trkpt><trkpt lat="51.6805956792" lon="-1.6808499489"><ele>78.00</ele><time>2011-10-12T10:46:05Z</time></trkpt><trkpt lat="51.6806305479" lon="-1.6807491984"><ele>77.04</ele><time>2011-10-12T10:46:12Z</time></trkpt><trkpt lat="51.6806305479" lon="-1.6807491984"><ele>78.00</ele><time>2011-10-12T10:46:17Z</time></trkpt><trkpt lat="51.6806428693" lon="-1.6807129048"><ele>77.52</ele><time>2011-10-12T10:46:19Z</time></trkpt><trkpt lat="51.6806645785" lon="-1.6805848293"><ele>77.04</ele><time>2011-10-12T10:46:25Z</time></trkpt><trkpt lat="51.6806729604" lon="-1.6805444285"><ele>77.04</ele><time>2011-10-12T10:46:27Z</time></trkpt><trkpt lat="51.6807038058" lon="-1.6803952307"><ele>77.52</ele><time>2011-10-12T10:46:33Z</time></trkpt><trkpt lat="51.6807036381" lon="-1.6803828254"><ele>76.56</ele><time>2011-10-12T10:46:34Z</time></trkpt><trkpt lat="51.6807093378" lon="-1.6803416703"><ele>77.52</ele><time>2011-10-12T10:46:36Z</time></trkpt><trkpt lat="51.6807212401" lon="-1.6803158540"><ele>76.56</ele><time>2011-10-12T10:46:41Z</time></trkpt><trkpt lat="51.6807322204" lon="-1.6802492179"><ele>77.52</ele><time>2011-10-12T10:46:45Z</time></trkpt><trkpt lat="51.6807597131" lon="-1.6801245790"><ele>77.52</ele><time>2011-10-12T10:46:52Z</time></trkpt><trkpt lat="51.6808004491" lon="-1.6799684241"><ele>78.00</ele><time>2011-10-12T10:46:59Z</time></trkpt><trkpt lat="51.6808154527" lon="-1.6799090803"><ele>77.04</ele><time>2011-10-12T10:47:03Z</time></trkpt><trkpt lat="51.6808552667" lon="-1.6798092518"><ele>77.04</ele><time>2011-10-12T10:47:10Z</time></trkpt><trkpt lat="51.6808587871" lon="-1.6797638219"><ele>77.52</ele><time>2011-10-12T10:47:15Z</time></trkpt><trkpt lat="51.6808587871" lon="-1.6797638219"><ele>77.52</ele><time>2011-10-12T10:47:16Z</time></trkpt><trkpt lat="51.6808746289" lon="-1.6797063220"><ele>78.00</ele><time>2011-10-12T10:47:21Z</time></trkpt><trkpt lat="51.6808746289" lon="-1.6797063220"><ele>77.04</ele><time>2011-10-12T10:47:34Z</time></trkpt><trkpt lat="51.6808746289" lon="-1.6797063220"><ele>76.56</ele><time>2011-10-12T10:47:41Z</time></trkpt><trkpt lat="51.6809245013" lon="-1.6795475688"><ele>77.52</ele><time>2011-10-12T10:47:48Z</time></trkpt><trkpt lat="51.6809414327" lon="-1.6795287933"><ele>77.04</ele><time>2011-10-12T10:47:52Z</time></trkpt><trkpt lat="51.6809566040" lon="-1.6794961039"><ele>77.04</ele><time>2011-10-12T10:47:54Z</time></trkpt><trkpt lat="51.6810266767" lon="-1.6793528572"><ele>77.04</ele><time>2011-10-12T10:48:00Z</time></trkpt><trkpt lat="51.6810438596" lon="-1.6793236881"><ele>77.52</ele><time>2011-10-12T10:48:04Z</time></trkpt><trkpt lat="51.6810796503" lon="-1.6792358458"><ele>77.04</ele><time>2011-10-12T10:48:09Z</time></trkpt><trkpt lat="51.6811165307" lon="-1.6791199241"><ele>77.04</ele><time>2011-10-12T10:48:16Z</time></trkpt><trkpt lat="51.6811398324" lon="-1.6790615860"><ele>77.52</ele><time>2011-10-12T10:48:19Z</time></trkpt><trkpt lat="51.6811583564" lon="-1.6790061817"><ele>77.04</ele><time>2011-10-12T10:48:25Z</time></trkpt><trkpt lat="51.6811799817" lon="-1.6789311636"><ele>77.52</ele><time>2011-10-12T10:48:29Z</time></trkpt><trkpt lat="51.6812186223" lon="-1.6788061894"><ele>77.52</ele><time>2011-10-12T10:48:35Z</time></trkpt><trkpt lat="51.6812761221" lon="-1.6786921956"><ele>78.00</ele><time>2011-10-12T10:48:41Z</time></trkpt><trkpt lat="51.6812906228" lon="-1.6786516272"><ele>78.48</ele><time>2011-10-12T10:48:47Z</time></trkpt><trkpt lat="51.6813075542" lon="-1.6786478553"><ele>78.48</ele><time>2011-10-12T10:48:48Z</time></trkpt><trkpt lat="51.6813831590" lon="-1.6785248928"><ele>78.00</ele><time>2011-10-12T10:48:58Z</time></trkpt><trkpt lat="51.6814083047" lon="-1.6784885153"><ele>78.48</ele><time>2011-10-12T10:49:06Z</time></trkpt><trkpt lat="51.6814083047" lon="-1.6784885153"><ele>77.52</ele><time>2011-10-12T10:49:08Z</time></trkpt><trkpt lat="51.6814270802" lon="-1.6784777865"><ele>78.48</ele><time>2011-10-12T10:49:10Z</time></trkpt><trkpt lat="51.6814319417" lon="-1.6784290038"><ele>77.52</ele><time>2011-10-12T10:49:16Z</time></trkpt><trkpt lat="51.6814245656" lon="-1.6783894412"><ele>77.52</ele><time>2011-10-12T10:49:19Z</time></trkpt><trkpt lat="51.6814210452" lon="-1.6783141717"><ele>78.00</ele><time>2011-10-12T10:49:25Z</time></trkpt><trkpt lat="51.6814215481" lon="-1.6782154329"><ele>77.52</ele><time>2011-10-12T10:49:30Z</time></trkpt><trkpt lat="51.6814197041" lon="-1.6781176999"><ele>77.52</ele><time>2011-10-12T10:49:35Z</time></trkpt><trkpt lat="51.6814121604" lon="-1.6780506447"><ele>78.00</ele><time>2011-10-12T10:49:38Z</time></trkpt><trkpt lat="51.6814052872" lon="-1.6779836733"><ele>77.52</ele><time>2011-10-12T10:49:43Z</time></trkpt><trkpt lat="51.6813961510" lon="-1.6778887063"><ele>78.00</ele><time>2011-10-12T10:49:49Z</time></trkpt><trkpt lat="51.6814016830" lon="-1.6777857766"><ele>77.52</ele><time>2011-10-12T10:49:55Z</time></trkpt><trkpt lat="51.6814024374" lon="-1.6776788235"><ele>78.00</ele><time>2011-10-12T10:50:02Z</time></trkpt><trkpt lat="51.6814062092" lon="-1.6776643228"><ele>78.48</ele><time>2011-10-12T10:50:08Z</time></trkpt><trkpt lat="51.6814062092" lon="-1.6776643228"><ele>78.48</ele><time>2011-10-12T10:50:19Z</time></trkpt><trkpt lat="51.6814062092" lon="-1.6776643228"><ele>78.48</ele><time>2011-10-12T10:50:27Z</time></trkpt><trkpt lat="51.6814137530" lon="-1.6776248440"><ele>77.52</ele><time>2011-10-12T10:50:34Z</time></trkpt><trkpt lat="51.6814149264" lon="-1.6776069067"><ele>77.04</ele><time>2011-10-12T10:50:35Z</time></trkpt><trkpt lat="51.6814269125" lon="-1.6775012948"><ele>77.04</ele><time>2011-10-12T10:50:41Z</time></trkpt><trkpt lat="51.6814363003" lon="-1.6773912404"><ele>77.04</ele><time>2011-10-12T10:50:47Z</time></trkpt><trkpt lat="51.6814373061" lon="-1.6773733031"><ele>78.00</ele><time>2011-10-12T10:50:49Z</time></trkpt><trkpt lat="51.6814464424" lon="-1.6772448923"><ele>77.04</ele><time>2011-10-12T10:50:55Z</time></trkpt><trkpt lat="51.6814465262" lon="-1.6772308107"><ele>77.52</ele><time>2011-10-12T10:50:56Z</time></trkpt><trkpt lat="51.6814577579" lon="-1.6771072615"><ele>77.52</ele><time>2011-10-12T10:51:02Z</time></trkpt><trkpt lat="51.6814619489" lon="-1.6770714708"><ele>77.04</ele><time>2011-10-12T10:51:04Z</time></trkpt><trkpt lat="51.6814654693" lon="-1.6770128813"><ele>78.00</ele><time>2011-10-12T10:51:06Z</time></trkpt><trkpt lat="51.6814815626" lon="-1.6769398749"><ele>77.52</ele><time>2011-10-12T10:51:11Z</time></trkpt><trkpt lat="51.6814867593" lon="-1.6767884139"><ele>77.52</ele><time>2011-10-12T10:51:17Z</time></trkpt><trkpt lat="51.6814866755" lon="-1.6767730750"><ele>77.04</ele><time>2011-10-12T10:51:19Z</time></trkpt><trkpt lat="51.6814974882" lon="-1.6766328458"><ele>78.00</ele><time>2011-10-12T10:51:26Z</time></trkpt><trkpt lat="51.6814894415" lon="-1.6766094603"><ele>77.52</ele><time>2011-10-12T10:51:28Z</time></trkpt><trkpt lat="51.6814982425" lon="-1.6765379626"><ele>77.04</ele><time>2011-10-12T10:51:33Z</time></trkpt><trkpt lat="51.6815065406" lon="-1.6764478572"><ele>77.52</ele><time>2011-10-12T10:51:39Z</time></trkpt><trkpt lat="51.6815292556" lon="-1.6764109768"><ele>77.52</ele><time>2011-10-12T10:51:44Z</time></trkpt><trkpt lat="51.6815292556" lon="-1.6764109768"><ele>78.00</ele><time>2011-10-12T10:51:59Z</time></trkpt><trkpt lat="51.6815292556" lon="-1.6764109768"><ele>77.52</ele><time>2011-10-12T10:52:08Z</time></trkpt><trkpt lat="51.6815328598" lon="-1.6764074564"><ele>78.48</ele><time>2011-10-12T10:52:14Z</time></trkpt><trkpt lat="51.6815328598" lon="-1.6764074564"><ele>78.00</ele><time>2011-10-12T10:52:27Z</time></trkpt><trkpt lat="51.6815099772" lon="-1.6763549019"><ele>78.48</ele><time>2011-10-12T10:52:34Z</time></trkpt><trkpt lat="51.6815099772" lon="-1.6763549019"><ele>78.48</ele><time>2011-10-12T10:52:36Z</time></trkpt><trkpt lat="51.6814865079" lon="-1.6762694065"><ele>78.48</ele><time>2011-10-12T10:52:41Z</time></trkpt><trkpt lat="51.6814727616" lon="-1.6762144212"><ele>78.48</ele><time>2011-10-12T10:52:48Z</time></trkpt><trkpt lat="51.6814727616" lon="-1.6762144212"><ele>79.45</ele><time>2011-10-12T10:52:57Z</time></trkpt><trkpt lat="51.6814727616" lon="-1.6762144212"><ele>79.45</ele><time>2011-10-12T10:52:59Z</time></trkpt><trkpt lat="51.6814873461" lon="-1.6760720965"><ele>78.97</ele><time>2011-10-12T10:53:08Z</time></trkpt><trkpt lat="51.6815217957" lon="-1.6759406682"><ele>78.97</ele><time>2011-10-12T10:53:18Z</time></trkpt><trkpt lat="51.6815231368" lon="-1.6758694220"><ele>78.48</ele><time>2011-10-12T10:53:26Z</time></trkpt><trkpt lat="51.6815313511" lon="-1.6757577751"><ele>78.97</ele><time>2011-10-12T10:53:33Z</time></trkpt><trkpt lat="51.6815349553" lon="-1.6757032927"><ele>82.81</ele><time>2011-10-12T10:53:37Z</time></trkpt><trkpt lat="51.6815342847" lon="-1.6756884567"><ele>79.45</ele><time>2011-10-12T10:53:38Z</time></trkpt><trkpt lat="51.6815317702" lon="-1.6755561903"><ele>77.52</ele><time>2011-10-12T10:53:46Z</time></trkpt><trkpt lat="51.6815279983" lon="-1.6754419450"><ele>77.52</ele><time>2011-10-12T10:53:52Z</time></trkpt><trkpt lat="51.6815225501" lon="-1.6754317190"><ele>77.52</ele><time>2011-10-12T10:53:53Z</time></trkpt><trkpt lat="51.6815100610" lon="-1.6753821820"><ele>78.97</ele><time>2011-10-12T10:53:56Z</time></trkpt><trkpt lat="51.6814903636" lon="-1.6753645800"><ele>78.48</ele><time>2011-10-12T10:54:02Z</time></trkpt><trkpt lat="51.6814845800" lon="-1.6753591318"><ele>78.00</ele><time>2011-10-12T10:54:05Z</time></trkpt><trkpt lat="51.6814653855" lon="-1.6753111873"><ele>78.48</ele><time>2011-10-12T10:54:07Z</time></trkpt><trkpt lat="51.6814244818" lon="-1.6752425395"><ele>77.52</ele><time>2011-10-12T10:54:12Z</time></trkpt><trkpt lat="51.6813772079" lon="-1.6751080938"><ele>79.45</ele><time>2011-10-12T10:54:18Z</time></trkpt><trkpt lat="51.6813699156" lon="-1.6750907432"><ele>78.00</ele><time>2011-10-12T10:54:22Z</time></trkpt><trkpt lat="51.6813124157" lon="-1.6750106961"><ele>77.52</ele><time>2011-10-12T10:54:28Z</time></trkpt><trkpt lat="51.6813070513" lon="-1.6749988776"><ele>76.56</ele><time>2011-10-12T10:54:29Z</time></trkpt><trkpt lat="51.6812714282" lon="-1.6749230213"><ele>78.48</ele><time>2011-10-12T10:54:35Z</time></trkpt><trkpt lat="51.6812451929" lon="-1.6748657729"><ele>78.48</ele><time>2011-10-12T10:54:40Z</time></trkpt><trkpt lat="51.6812275909" lon="-1.6748332512"><ele>77.52</ele><time>2011-10-12T10:54:48Z</time></trkpt><trkpt lat="51.6812240705" lon="-1.6748317424"><ele>77.04</ele><time>2011-10-12T10:54:50Z</time></trkpt><trkpt lat="51.6812141798" lon="-1.6747607477"><ele>78.00</ele><time>2011-10-12T10:54:56Z</time></trkpt><trkpt lat="51.6812128387" lon="-1.6747569758"><ele>78.00</ele><time>2011-10-12T10:55:03Z</time></trkpt><trkpt lat="51.6811825801" lon="-1.6747195087"><ele>78.48</ele><time>2011-10-12T10:55:12Z</time></trkpt><trkpt lat="51.6811759584" lon="-1.6747117974"><ele>78.97</ele><time>2011-10-12T10:55:15Z</time></trkpt><trkpt lat="51.6811907943" lon="-1.6747333389"><ele>78.48</ele><time>2011-10-12T10:55:21Z</time></trkpt><trkpt lat="51.6811750364" lon="-1.6747150663"><ele>78.48</ele><time>2011-10-12T10:55:31Z</time></trkpt><trkpt lat="51.6811576858" lon="-1.6746916808"><ele>77.52</ele><time>2011-10-12T10:55:33Z</time></trkpt><trkpt lat="51.6811477114" lon="-1.6746762581"><ele>78.48</ele><time>2011-10-12T10:55:34Z</time></trkpt><trkpt lat="51.6811269242" lon="-1.6746256314"><ele>78.00</ele><time>2011-10-12T10:55:38Z</time></trkpt><trkpt lat="51.6811033711" lon="-1.6745660361"><ele>78.48</ele><time>2011-10-12T10:55:44Z</time></trkpt><trkpt lat="51.6811033711" lon="-1.6745660361"><ele>78.97</ele><time>2011-10-12T10:55:58Z</time></trkpt><trkpt lat="51.6810997669" lon="-1.6745561454"><ele>78.48</ele><time>2011-10-12T10:56:09Z</time></trkpt><trkpt lat="51.6810997669" lon="-1.6745561454"><ele>79.45</ele><time>2011-10-12T10:56:20Z</time></trkpt><trkpt lat="51.6810997669" lon="-1.6745561454"><ele>78.97</ele><time>2011-10-12T10:56:42Z</time></trkpt><trkpt lat="51.6810986772" lon="-1.6745471768"><ele>79.45</ele><time>2011-10-12T10:56:58Z</time></trkpt><trkpt lat="51.6810929775" lon="-1.6745216120"><ele>79.45</ele><time>2011-10-12T10:57:05Z</time></trkpt><trkpt lat="51.6810929775" lon="-1.6745216120"><ele>79.45</ele><time>2011-10-12T10:57:12Z</time></trkpt><trkpt lat="51.6810929775" lon="-1.6745216120"><ele>79.45</ele><time>2011-10-12T10:57:19Z</time></trkpt><trkpt lat="51.6810929775" lon="-1.6745216120"><ele>79.93</ele><time>2011-10-12T10:57:21Z</time></trkpt><trkpt lat="51.6811018623" lon="-1.6744652018"><ele>79.93</ele><time>2011-10-12T10:57:24Z</time></trkpt><trkpt lat="51.6811222304" lon="-1.6744059417"><ele>79.45</ele><time>2011-10-12T10:57:27Z</time></trkpt><trkpt lat="51.6811523214" lon="-1.6743153334"><ele>78.97</ele><time>2011-10-12T10:57:32Z</time></trkpt><trkpt lat="51.6811600327" lon="-1.6742651258"><ele>79.45</ele><time>2011-10-12T10:57:35Z</time></trkpt><trkpt lat="51.6811883636" lon="-1.6741290037"><ele>80.41</ele><time>2011-10-12T10:57:43Z</time></trkpt><trkpt lat="51.6811883636" lon="-1.6741290037"><ele>80.41</ele><time>2011-10-12T10:57:47Z</time></trkpt><trkpt lat="51.6812196281" lon="-1.6739961505"><ele>79.93</ele><time>2011-10-12T10:57:55Z</time></trkpt><trkpt lat="51.6812195443" lon="-1.6739834938"><ele>79.93</ele><time>2011-10-12T10:58:06Z</time></trkpt><trkpt lat="51.6812205501" lon="-1.6739580128"><ele>78.97</ele><time>2011-10-12T10:58:15Z</time></trkpt><trkpt lat="51.6812080611" lon="-1.6739444342"><ele>82.81</ele><time>2011-10-12T10:58:23Z</time></trkpt><trkpt lat="51.6812080611" lon="-1.6739444342"><ele>80.41</ele><time>2011-10-12T10:58:24Z</time></trkpt><trkpt lat="51.6811855137" lon="-1.6738758702"><ele>79.45</ele><time>2011-10-12T10:58:27Z</time></trkpt><trkpt lat="51.6811694205" lon="-1.6738097370"><ele>78.97</ele><time>2011-10-12T10:58:31Z</time></trkpt><trkpt lat="51.6811403353" lon="-1.6737325396"><ele>79.45</ele><time>2011-10-12T10:58:36Z</time></trkpt><trkpt lat="51.6811348032" lon="-1.6736986768"><ele>79.45</ele><time>2011-10-12T10:58:39Z</time></trkpt><trkpt lat="51.6811242420" lon="-1.6736447811"><ele>78.48</ele><time>2011-10-12T10:58:43Z</time></trkpt><trkpt lat="51.6811136808" lon="-1.6736130137"><ele>78.97</ele><time>2011-10-12T10:58:45Z</time></trkpt><trkpt lat="51.6811013594" lon="-1.6735098325"><ele>79.45</ele><time>2011-10-12T10:58:51Z</time></trkpt><trkpt lat="51.6811018623" lon="-1.6734162066"><ele>78.48</ele><time>2011-10-12T10:58:56Z</time></trkpt><trkpt lat="51.6811133455" lon="-1.6733797453"><ele>78.97</ele><time>2011-10-12T10:58:58Z</time></trkpt><trkpt lat="51.6811659839" lon="-1.6733147018"><ele>79.45</ele><time>2011-10-12T10:59:03Z</time></trkpt><trkpt lat="51.6812086478" lon="-1.6732410248"><ele>79.45</ele><time>2011-10-12T10:59:10Z</time></trkpt><trkpt lat="51.6812086478" lon="-1.6732410248"><ele>78.97</ele><time>2011-10-12T10:59:12Z</time></trkpt><trkpt lat="51.6812537424" lon="-1.6731993668"><ele>79.45</ele><time>2011-10-12T10:59:18Z</time></trkpt><trkpt lat="51.6812663153" lon="-1.6731853690"><ele>79.93</ele><time>2011-10-12T10:59:24Z</time></trkpt><trkpt lat="51.6812833305" lon="-1.6731607262"><ele>79.93</ele><time>2011-10-12T10:59:28Z</time></trkpt><trkpt lat="51.6812889464" lon="-1.6731239296"><ele>78.97</ele><time>2011-10-12T10:59:31Z</time></trkpt><trkpt lat="51.6812574305" lon="-1.6730378475"><ele>79.45</ele><time>2011-10-12T10:59:37Z</time></trkpt><trkpt lat="51.6812532395" lon="-1.6730220895"><ele>79.93</ele><time>2011-10-12T10:59:38Z</time></trkpt><trkpt lat="51.6812529881" lon="-1.6729668528"><ele>79.93</ele><time>2011-10-12T10:59:41Z</time></trkpt><trkpt lat="51.6812467016" lon="-1.6729511786"><ele>78.97</ele><time>2011-10-12T10:59:43Z</time></trkpt><trkpt lat="51.6812285129" lon="-1.6728838719"><ele>79.45</ele><time>2011-10-12T10:59:48Z</time></trkpt><trkpt lat="51.6812237352" lon="-1.6728017293"><ele>80.41</ele><time>2011-10-12T10:59:53Z</time></trkpt><trkpt lat="51.6812007688" lon="-1.6727197543"><ele>79.93</ele><time>2011-10-12T10:59:58Z</time></trkpt><trkpt lat="51.6811896209" lon="-1.6726154834"><ele>79.93</ele><time>2011-10-12T11:00:04Z</time></trkpt><trkpt lat="51.6811909620" lon="-1.6725893319"><ele>79.45</ele><time>2011-10-12T11:00:06Z</time></trkpt><trkpt lat="51.6811964102" lon="-1.6725567263"><ele>79.45</ele><time>2011-10-12T11:00:08Z</time></trkpt><trkpt lat="51.6811762936" lon="-1.6724647768"><ele>79.45</ele><time>2011-10-12T11:00:14Z</time></trkpt><trkpt lat="51.6811719351" lon="-1.6724498570"><ele>79.93</ele><time>2011-10-12T11:00:15Z</time></trkpt><trkpt lat="51.6811672412" lon="-1.6723683011"><ele>79.45</ele><time>2011-10-12T11:00:21Z</time></trkpt><trkpt lat="51.6811555903" lon="-1.6723097116"><ele>79.93</ele><time>2011-10-12T11:00:27Z</time></trkpt><trkpt lat="51.6811558418" lon="-1.6722537205"><ele>79.45</ele><time>2011-10-12T11:00:36Z</time></trkpt><trkpt lat="51.6811396647" lon="-1.6721860785"><ele>79.45</ele><time>2011-10-12T11:00:41Z</time></trkpt><trkpt lat="51.6811360605" lon="-1.6721367091"><ele>79.45</ele><time>2011-10-12T11:00:45Z</time></trkpt><trkpt lat="51.6811070591" lon="-1.6720356233"><ele>78.97</ele><time>2011-10-12T11:00:51Z</time></trkpt><trkpt lat="51.6811095737" lon="-1.6720114835"><ele>79.45</ele><time>2011-10-12T11:00:53Z</time></trkpt><trkpt lat="51.6811020300" lon="-1.6719675623"><ele>79.45</ele><time>2011-10-12T11:00:56Z</time></trkpt><trkpt lat="51.6810871102" lon="-1.6719355434"><ele>79.45</ele><time>2011-10-12T11:00:59Z</time></trkpt><trkpt lat="51.6810720228" lon="-1.6718597710"><ele>78.97</ele><time>2011-10-12T11:01:05Z</time></trkpt><trkpt lat="51.6810681671" lon="-1.6718342062"><ele>78.97</ele><time>2011-10-12T11:01:06Z</time></trkpt><trkpt lat="51.6810744535" lon="-1.6717332043"><ele>78.97</ele><time>2011-10-12T11:01:12Z</time></trkpt><trkpt lat="51.6810758784" lon="-1.6717122495"><ele>78.97</ele><time>2011-10-12T11:01:13Z</time></trkpt><trkpt lat="51.6810858529" lon="-1.6715648118"><ele>78.97</ele><time>2011-10-12T11:01:19Z</time></trkpt><trkpt lat="51.6810990963" lon="-1.6714588646"><ele>78.97</ele><time>2011-10-12T11:01:24Z</time></trkpt><trkpt lat="51.6811224818" lon="-1.6713822540"><ele>78.97</ele><time>2011-10-12T11:01:30Z</time></trkpt><trkpt lat="51.6811314505" lon="-1.6713661607"><ele>78.97</ele><time>2011-10-12T11:01:37Z</time></trkpt><trkpt lat="51.6811273433" lon="-1.6713258438"><ele>78.97</ele><time>2011-10-12T11:01:44Z</time></trkpt><trkpt lat="51.6811267566" lon="-1.6713228263"><ele>78.97</ele><time>2011-10-12T11:01:54Z</time></trkpt><trkpt lat="51.6811267566" lon="-1.6713228263"><ele>79.45</ele><time>2011-10-12T11:02:08Z</time></trkpt><trkpt lat="51.6811267566" lon="-1.6713228263"><ele>78.97</ele><time>2011-10-12T11:02:20Z</time></trkpt><trkpt lat="51.6811220627" lon="-1.6712427791"><ele>78.97</ele><time>2011-10-12T11:02:26Z</time></trkpt><trkpt lat="51.6811249964" lon="-1.6712286975"><ele>78.48</ele><time>2011-10-12T11:02:27Z</time></trkpt><trkpt lat="51.6811185423" lon="-1.6711366642"><ele>78.97</ele><time>2011-10-12T11:02:34Z</time></trkpt><trkpt lat="51.6810785607" lon="-1.6710480675"><ele>78.48</ele><time>2011-10-12T11:02:40Z</time></trkpt><trkpt lat="51.6810736991" lon="-1.6709995363"><ele>78.48</ele><time>2011-10-12T11:02:43Z</time></trkpt><trkpt lat="51.6810471285" lon="-1.6708343290"><ele>79.45</ele><time>2011-10-12T11:02:50Z</time></trkpt><trkpt lat="51.6810459550" lon="-1.6707296390"><ele>78.97</ele><time>2011-10-12T11:02:57Z</time></trkpt><trkpt lat="51.6810105834" lon="-1.6706005577"><ele>78.97</ele><time>2011-10-12T11:03:03Z</time></trkpt><trkpt lat="51.6809428576" lon="-1.6704522818"><ele>78.97</ele><time>2011-10-12T11:03:11Z</time></trkpt><trkpt lat="51.6809127666" lon="-1.6703364439"><ele>78.97</ele><time>2011-10-12T11:03:16Z</time></trkpt><trkpt lat="51.6808901355" lon="-1.6701969691"><ele>78.97</ele><time>2011-10-12T11:03:24Z</time></trkpt><trkpt lat="51.6808740422" lon="-1.6701314226"><ele>78.48</ele><time>2011-10-12T11:03:30Z</time></trkpt><trkpt lat="51.6808626428" lon="-1.6700849868"><ele>78.97</ele><time>2011-10-12T11:03:33Z</time></trkpt><trkpt lat="51.6808080766" lon="-1.6699770279"><ele>78.48</ele><time>2011-10-12T11:03:40Z</time></trkpt><trkpt lat="51.6807655804" lon="-1.6699100565"><ele>78.97</ele><time>2011-10-12T11:03:46Z</time></trkpt><trkpt lat="51.6806957591" lon="-1.6697675642"><ele>78.48</ele><time>2011-10-12T11:03:53Z</time></trkpt><trkpt lat="51.6806319728" lon="-1.6696431767"><ele>78.48</ele><time>2011-10-12T11:04:01Z</time></trkpt><trkpt lat="51.6805840284" lon="-1.6695000976"><ele>79.45</ele><time>2011-10-12T11:04:07Z</time></trkpt><trkpt lat="51.6805787478" lon="-1.6694529913"><ele>79.45</ele><time>2011-10-12T11:04:11Z</time></trkpt><trkpt lat="51.6805970203" lon="-1.6693423502"><ele>79.93</ele><time>2011-10-12T11:04:16Z</time></trkpt><trkpt lat="51.6806007084" lon="-1.6693369858"><ele>79.93</ele><time>2011-10-12T11:04:22Z</time></trkpt><trkpt lat="51.6806007084" lon="-1.6693369858"><ele>80.41</ele><time>2011-10-12T11:04:37Z</time></trkpt><trkpt lat="51.6806043964" lon="-1.6693307832"><ele>79.45</ele><time>2011-10-12T11:04:47Z</time></trkpt><trkpt lat="51.6806043964" lon="-1.6693307832"><ele>79.45</ele><time>2011-10-12T11:04:56Z</time></trkpt><trkpt lat="51.6806043964" lon="-1.6693307832"><ele>79.93</ele><time>2011-10-12T11:05:05Z</time></trkpt><trkpt lat="51.6806043964" lon="-1.6693307832"><ele>79.45</ele><time>2011-10-12T11:05:21Z</time></trkpt><trkpt lat="51.6806045640" lon="-1.6693324596"><ele>79.93</ele><time>2011-10-12T11:05:36Z</time></trkpt><trkpt lat="51.6806036420" lon="-1.6693338007"><ele>79.93</ele><time>2011-10-12T11:05:48Z</time></trkpt><trkpt lat="51.6806036420" lon="-1.6693338007"><ele>79.93</ele><time>2011-10-12T11:06:07Z</time></trkpt><trkpt lat="51.6806350742" lon="-1.6693172883"><ele>79.45</ele><time>2011-10-12T11:06:15Z</time></trkpt><trkpt lat="51.6806271113" lon="-1.6693027876"><ele>79.93</ele><time>2011-10-12T11:06:19Z</time></trkpt><trkpt lat="51.6806686018" lon="-1.6691605467"><ele>79.93</ele><time>2011-10-12T11:06:26Z</time></trkpt><trkpt lat="51.6807103436" lon="-1.6690620594"><ele>78.00</ele><time>2011-10-12T11:06:32Z</time></trkpt><trkpt lat="51.6807396803" lon="-1.6689771507"><ele>78.97</ele><time>2011-10-12T11:06:39Z</time></trkpt><trkpt lat="51.6807634849" lon="-1.6689307149"><ele>78.97</ele><time>2011-10-12T11:06:43Z</time></trkpt><trkpt lat="51.6807582043" lon="-1.6689254344"><ele>78.48</ele><time>2011-10-12T11:06:44Z</time></trkpt><trkpt lat="51.6807234194" lon="-1.6688852012"><ele>78.97</ele><time>2011-10-12T11:06:50Z</time></trkpt><trkpt lat="51.6807200667" lon="-1.6688612290"><ele>78.97</ele><time>2011-10-12T11:06:55Z</time></trkpt><trkpt lat="51.6807297897" lon="-1.6688478179"><ele>78.97</ele><time>2011-10-12T11:07:05Z</time></trkpt><trkpt lat="51.6807451285" lon="-1.6688198224"><ele>78.00</ele><time>2011-10-12T11:07:09Z</time></trkpt><trkpt lat="51.6807583719" lon="-1.6687291302"><ele>78.48</ele><time>2011-10-12T11:07:17Z</time></trkpt><trkpt lat="51.6807818413" lon="-1.6686999612"><ele>77.52</ele><time>2011-10-12T11:07:20Z</time></trkpt><trkpt lat="51.6808592901" lon="-1.6686286312"><ele>78.00</ele><time>2011-10-12T11:07:26Z</time></trkpt><trkpt lat="51.6808972601" lon="-1.6686137114"><ele>78.00</ele><time>2011-10-12T11:07:29Z</time></trkpt><trkpt lat="51.6809903830" lon="-1.6686168965"><ele>78.00</ele><time>2011-10-12T11:07:36Z</time></trkpt><trkpt lat="51.6810726933" lon="-1.6686570458"><ele>78.48</ele><time>2011-10-12T11:07:44Z</time></trkpt><trkpt lat="51.6811406706" lon="-1.6686586384"><ele>78.00</ele><time>2011-10-12T11:07:50Z</time></trkpt><trkpt lat="51.6811767966" lon="-1.6686719656"><ele>78.48</ele><time>2011-10-12T11:07:55Z</time></trkpt><trkpt lat="51.6811831668" lon="-1.6686682776"><ele>77.52</ele><time>2011-10-12T11:07:58Z</time></trkpt><trkpt lat="51.6812259145" lon="-1.6686352529"><ele>78.00</ele><time>2011-10-12T11:08:03Z</time></trkpt><trkpt lat="51.6812519822" lon="-1.6685985401"><ele>77.52</ele><time>2011-10-12T11:08:09Z</time></trkpt><trkpt lat="51.6812557541" lon="-1.6685857158"><ele>77.52</ele><time>2011-10-12T11:08:11Z</time></trkpt><trkpt lat="51.6813146789" lon="-1.6685894039"><ele>78.48</ele><time>2011-10-12T11:08:17Z</time></trkpt><trkpt lat="51.6813597735" lon="-1.6685933433"><ele>77.52</ele><time>2011-10-12T11:08:22Z</time></trkpt><trkpt lat="51.6814249847" lon="-1.6685635038"><ele>78.97</ele><time>2011-10-12T11:08:29Z</time></trkpt><trkpt lat="51.6814726777" lon="-1.6685707960"><ele>78.48</ele><time>2011-10-12T11:08:34Z</time></trkpt><trkpt lat="51.6814858373" lon="-1.6685789265"><ele>78.97</ele><time>2011-10-12T11:08:35Z</time></trkpt><trkpt lat="51.6815419123" lon="-1.6686075088"><ele>78.97</ele><time>2011-10-12T11:08:42Z</time></trkpt><trkpt lat="51.6815682314" lon="-1.6686033178"><ele>78.00</ele><time>2011-10-12T11:08:46Z</time></trkpt><trkpt lat="51.6816194449" lon="-1.6686098557"><ele>77.52</ele><time>2011-10-12T11:08:52Z</time></trkpt><trkpt lat="51.6816227976" lon="-1.6686207522"><ele>77.04</ele><time>2011-10-12T11:08:53Z</time></trkpt><trkpt lat="51.6816495359" lon="-1.6687639151"><ele>77.52</ele><time>2011-10-12T11:08:59Z</time></trkpt><trkpt lat="51.6816647910" lon="-1.6688784957"><ele>77.52</ele><time>2011-10-12T11:09:03Z</time></trkpt><trkpt lat="51.6816590074" lon="-1.6690274421"><ele>77.52</ele><time>2011-10-12T11:09:10Z</time></trkpt><trkpt lat="51.6816580016" lon="-1.6691461299"><ele>77.52</ele><time>2011-10-12T11:09:16Z</time></trkpt><trkpt lat="51.6816568282" lon="-1.6692031268"><ele>77.52</ele><time>2011-10-12T11:09:21Z</time></trkpt><trkpt lat="51.6816551518" lon="-1.6693204734"><ele>78.00</ele><time>2011-10-12T11:09:26Z</time></trkpt><trkpt lat="51.6816517990" lon="-1.6693564318"><ele>77.52</ele><time>2011-10-12T11:09:30Z</time></trkpt><trkpt lat="51.6816504579" lon="-1.6694589425"><ele>77.52</ele><time>2011-10-12T11:09:36Z</time></trkpt><trkpt lat="51.6816448420" lon="-1.6695669014"><ele>77.04</ele><time>2011-10-12T11:09:42Z</time></trkpt><trkpt lat="51.6816414893" lon="-1.6696466971"><ele>78.00</ele><time>2011-10-12T11:09:48Z</time></trkpt><trkpt lat="51.6816414893" lon="-1.6696466971"><ele>77.52</ele><time>2011-10-12T11:09:52Z</time></trkpt><trkpt lat="51.6816553194" lon="-1.6696671490"><ele>77.52</ele><time>2011-10-12T11:09:57Z</time></trkpt><trkpt lat="51.6816998273" lon="-1.6697230563"><ele>77.52</ele><time>2011-10-12T11:10:03Z</time></trkpt><trkpt lat="51.6817379650" lon="-1.6698450129"><ele>77.04</ele><time>2011-10-12T11:10:09Z</time></trkpt><trkpt lat="51.6817384679" lon="-1.6698569153"><ele>78.00</ele><time>2011-10-12T11:10:10Z</time></trkpt><trkpt lat="51.6817590874" lon="-1.6699611023"><ele>77.04</ele><time>2011-10-12T11:10:17Z</time></trkpt><trkpt lat="51.6817743424" lon="-1.6700486932"><ele>77.04</ele><time>2011-10-12T11:10:23Z</time></trkpt><trkpt lat="51.6817781143" lon="-1.6700581647"><ele>77.04</ele><time>2011-10-12T11:10:24Z</time></trkpt><trkpt lat="51.6818154976" lon="-1.6701905988"><ele>77.52</ele><time>2011-10-12T11:10:32Z</time></trkpt><trkpt lat="51.6818506178" lon="-1.6703133937"><ele>78.00</ele><time>2011-10-12T11:10:38Z</time></trkpt><trkpt lat="51.6818533838" lon="-1.6703226976"><ele>78.00</ele><time>2011-10-12T11:10:40Z</time></trkpt><trkpt lat="51.6818702314" lon="-1.6704584844"><ele>77.52</ele><time>2011-10-12T11:10:47Z</time></trkpt><trkpt lat="51.6818988137" lon="-1.6705568880"><ele>77.52</ele><time>2011-10-12T11:10:53Z</time></trkpt><trkpt lat="51.6819251329" lon="-1.6706459876"><ele>78.00</ele><time>2011-10-12T11:10:59Z</time></trkpt><trkpt lat="51.6819389630" lon="-1.6707444750"><ele>77.52</ele><time>2011-10-12T11:11:05Z</time></trkpt><trkpt lat="51.6819506139" lon="-1.6708497517"><ele>77.04</ele><time>2011-10-12T11:11:11Z</time></trkpt><trkpt lat="51.6819531284" lon="-1.6708640009"><ele>78.48</ele><time>2011-10-12T11:11:12Z</time></trkpt><trkpt lat="51.6819590796" lon="-1.6709671821"><ele>77.52</ele><time>2011-10-12T11:11:16Z</time></trkpt><trkpt lat="51.6819533799" lon="-1.6710521746"><ele>77.52</ele><time>2011-10-12T11:11:22Z</time></trkpt><trkpt lat="51.6819413099" lon="-1.6711426992"><ele>77.04</ele><time>2011-10-12T11:11:27Z</time></trkpt><trkpt lat="51.6819330957" lon="-1.6712455451"><ele>77.04</ele><time>2011-10-12T11:11:33Z</time></trkpt><trkpt lat="51.6819462553" lon="-1.6713787336"><ele>77.52</ele><time>2011-10-12T11:11:39Z</time></trkpt><trkpt lat="51.6819534637" lon="-1.6714038793"><ele>77.52</ele><time>2011-10-12T11:11:42Z</time></trkpt><trkpt lat="51.6819574032" lon="-1.6714575235"><ele>76.56</ele><time>2011-10-12T11:11:45Z</time></trkpt><trkpt lat="51.6819590796" lon="-1.6715545021"><ele>77.52</ele><time>2011-10-12T11:11:51Z</time></trkpt><trkpt lat="51.6819619294" lon="-1.6715707630"><ele>77.52</ele><time>2011-10-12T11:11:52Z</time></trkpt><trkpt lat="51.6819977202" lon="-1.6716787219"><ele>77.04</ele><time>2011-10-12T11:11:58Z</time></trkpt><trkpt lat="51.6820274759" lon="-1.6718007624"><ele>77.04</ele><time>2011-10-12T11:12:05Z</time></trkpt><trkpt lat="51.6820386238" lon="-1.6718335357"><ele>77.04</ele><time>2011-10-12T11:12:08Z</time></trkpt><trkpt lat="51.6820568126" lon="-1.6719052847"><ele>77.52</ele><time>2011-10-12T11:12:13Z</time></trkpt><trkpt lat="51.6821148992" lon="-1.6719901096"><ele>77.52</ele><time>2011-10-12T11:12:20Z</time></trkpt><trkpt lat="51.6821880732" lon="-1.6720752697"><ele>77.52</ele><time>2011-10-12T11:12:27Z</time></trkpt><trkpt lat="51.6822102852" lon="-1.6720962245"><ele>76.56</ele><time>2011-10-12T11:12:31Z</time></trkpt><trkpt lat="51.6822616663" lon="-1.6721652076"><ele>77.04</ele><time>2011-10-12T11:12:37Z</time></trkpt><trkpt lat="51.6822780948" lon="-1.6721751820"><ele>76.56</ele><time>2011-10-12T11:12:39Z</time></trkpt><trkpt lat="51.6823407076" lon="-1.6721913591"><ele>77.52</ele><time>2011-10-12T11:12:45Z</time></trkpt><trkpt lat="51.6824235208" lon="-1.6721870005"><ele>78.00</ele><time>2011-10-12T11:12:52Z</time></trkpt><trkpt lat="51.6824806854" lon="-1.6722018365"><ele>77.52</ele><time>2011-10-12T11:12:58Z</time></trkpt><trkpt lat="51.6824951861" lon="-1.6722030938"><ele>77.52</ele><time>2011-10-12T11:12:59Z</time></trkpt><trkpt lat="51.6825334076" lon="-1.6722069494"><ele>77.52</ele><time>2011-10-12T11:13:03Z</time></trkpt><trkpt lat="51.6825826094" lon="-1.6722334363"><ele>77.04</ele><time>2011-10-12T11:13:09Z</time></trkpt><trkpt lat="51.6826181486" lon="-1.6722598393"><ele>77.52</ele><time>2011-10-12T11:13:14Z</time></trkpt><trkpt lat="51.6826614831" lon="-1.6723087057"><ele>78.00</ele><time>2011-10-12T11:13:20Z</time></trkpt><trkpt lat="51.6827453859" lon="-1.6723957099"><ele>77.52</ele><time>2011-10-12T11:13:26Z</time></trkpt><trkpt lat="51.6827520076" lon="-1.6724145692"><ele>78.00</ele><time>2011-10-12T11:13:36Z</time></trkpt><trkpt lat="51.6827659216" lon="-1.6724463366"><ele>77.04</ele><time>2011-10-12T11:13:40Z</time></trkpt><trkpt lat="51.6828151233" lon="-1.6725724004"><ele>78.00</ele><time>2011-10-12T11:13:46Z</time></trkpt><trkpt lat="51.6828151233" lon="-1.6725724004"><ele>77.52</ele><time>2011-10-12T11:13:48Z</time></trkpt><trkpt lat="51.6828239243" lon="-1.6726147290"><ele>77.52</ele><time>2011-10-12T11:13:50Z</time></trkpt><trkpt lat="51.6828763112" lon="-1.6727897432"><ele>77.52</ele><time>2011-10-12T11:13:57Z</time></trkpt><trkpt lat="51.6828813404" lon="-1.6728178225"><ele>77.52</ele><time>2011-10-12T11:14:00Z</time></trkpt><trkpt lat="51.6828592960" lon="-1.6729902383"><ele>78.00</ele><time>2011-10-12T11:14:06Z</time></trkpt><trkpt lat="51.6828543507" lon="-1.6730189882"><ele>77.04</ele><time>2011-10-12T11:14:11Z</time></trkpt><trkpt lat="51.6828494892" lon="-1.6730370931"><ele>77.52</ele><time>2011-10-12T11:14:12Z</time></trkpt><trkpt lat="51.6827705316" lon="-1.6732007079"><ele>77.52</ele><time>2011-10-12T11:14:19Z</time></trkpt><trkpt lat="51.6827552766" lon="-1.6732164659"><ele>77.52</ele><time>2011-10-12T11:14:22Z</time></trkpt><trkpt lat="51.6827370878" lon="-1.6732385103"><ele>77.04</ele><time>2011-10-12T11:14:24Z</time></trkpt><trkpt lat="51.6826930828" lon="-1.6732935794"><ele>76.56</ele><time>2011-10-12T11:14:31Z</time></trkpt><trkpt lat="51.6826775763" lon="-1.6733103432"><ele>77.52</ele><time>2011-10-12T11:14:34Z</time></trkpt><trkpt lat="51.6825773288" lon="-1.6733729560"><ele>77.52</ele><time>2011-10-12T11:14:41Z</time></trkpt><trkpt lat="51.6825669352" lon="-1.6733800806"><ele>77.52</ele><time>2011-10-12T11:14:48Z</time></trkpt><trkpt lat="51.6825433820" lon="-1.6734005325"><ele>77.04</ele><time>2011-10-12T11:14:56Z</time></trkpt><trkpt lat="51.6825386044" lon="-1.6734048072"><ele>77.04</ele><time>2011-10-12T11:15:01Z</time></trkpt><trkpt lat="51.6824769136" lon="-1.6734499857"><ele>77.52</ele><time>2011-10-12T11:15:07Z</time></trkpt><trkpt lat="51.6823899094" lon="-1.6735354811"><ele>69.83</ele><time>2011-10-12T11:15:16Z</time></trkpt><trkpt lat="51.6823679488" lon="-1.6735622194"><ele>78.00</ele><time>2011-10-12T11:15:18Z</time></trkpt><trkpt lat="51.6823446471" lon="-1.6736023687"><ele>76.56</ele><time>2011-10-12T11:15:23Z</time></trkpt><trkpt lat="51.6823498439" lon="-1.6737418436"><ele>77.04</ele><time>2011-10-12T11:15:30Z</time></trkpt><trkpt lat="51.6823498439" lon="-1.6737418436"><ele>77.52</ele><time>2011-10-12T11:15:31Z</time></trkpt><trkpt lat="51.6823511850" lon="-1.6738269199"><ele>76.56</ele><time>2011-10-12T11:15:35Z</time></trkpt><trkpt lat="51.6823495924" lon="-1.6739139240"><ele>77.04</ele><time>2011-10-12T11:15:41Z</time></trkpt><trkpt lat="51.6823568847" lon="-1.6739682388"><ele>76.08</ele><time>2011-10-12T11:15:47Z</time></trkpt><trkpt lat="51.6823739838" lon="-1.6740941349"><ele>77.04</ele><time>2011-10-12T11:15:53Z</time></trkpt><trkpt lat="51.6823759954" lon="-1.6741005890"><ele>76.56</ele><time>2011-10-12T11:15:54Z</time></trkpt><trkpt lat="51.6823816113" lon="-1.6742533073"><ele>76.08</ele><time>2011-10-12T11:16:02Z</time></trkpt><trkpt lat="51.6823780909" lon="-1.6742919479"><ele>76.08</ele><time>2011-10-12T11:16:05Z</time></trkpt><trkpt lat="51.6823737323" lon="-1.6743771080"><ele>76.08</ele><time>2011-10-12T11:16:10Z</time></trkpt><trkpt lat="51.6823823657" lon="-1.6745255515"><ele>77.04</ele><time>2011-10-12T11:16:17Z</time></trkpt><trkpt lat="51.6823823657" lon="-1.6745255515"><ele>76.56</ele><time>2011-10-12T11:16:18Z</time></trkpt><trkpt lat="51.6824013088" lon="-1.6746042576"><ele>76.56</ele><time>2011-10-12T11:16:25Z</time></trkpt><trkpt lat="51.6824252810" lon="-1.6746735759"><ele>76.56</ele><time>2011-10-12T11:16:30Z</time></trkpt><trkpt lat="51.6824372672" lon="-1.6746991407"><ele>77.04</ele><time>2011-10-12T11:16:32Z</time></trkpt><trkpt lat="51.6824718006" lon="-1.6747818701"><ele>77.04</ele><time>2011-10-12T11:16:38Z</time></trkpt><trkpt lat="51.6825085133" lon="-1.6748205945"><ele>78.00</ele><time>2011-10-12T11:16:43Z</time></trkpt><trkpt lat="51.6825204156" lon="-1.6748291440"><ele>76.56</ele><time>2011-10-12T11:16:45Z</time></trkpt><trkpt lat="51.6825343296" lon="-1.6748583969"><ele>76.56</ele><time>2011-10-12T11:16:47Z</time></trkpt><trkpt lat="51.6825812683" lon="-1.6749219317"><ele>76.08</ele><time>2011-10-12T11:16:53Z</time></trkpt><trkpt lat="51.6826242674" lon="-1.6749750730"><ele>77.04</ele><time>2011-10-12T11:17:00Z</time></trkpt><trkpt lat="51.6826827731" lon="-1.6750345845"><ele>77.04</ele><time>2011-10-12T11:17:06Z</time></trkpt><trkpt lat="51.6826827731" lon="-1.6750345845"><ele>76.56</ele><time>2011-10-12T11:17:08Z</time></trkpt><trkpt lat="51.6827363335" lon="-1.6750607360"><ele>76.56</ele><time>2011-10-12T11:17:13Z</time></trkpt><trkpt lat="51.6827363335" lon="-1.6750607360"><ele>77.04</ele><time>2011-10-12T11:17:14Z</time></trkpt><trkpt lat="51.6828230023" lon="-1.6750847921"><ele>77.04</ele><time>2011-10-12T11:17:20Z</time></trkpt><trkpt lat="51.6828355752" lon="-1.6750810202"><ele>76.08</ele><time>2011-10-12T11:17:23Z</time></trkpt><trkpt lat="51.6829193942" lon="-1.6750961915"><ele>76.56</ele><time>2011-10-12T11:17:29Z</time></trkpt><trkpt lat="51.6829193942" lon="-1.6750961915"><ele>76.56</ele><time>2011-10-12T11:17:30Z</time></trkpt><trkpt lat="51.6829924006" lon="-1.6751127038"><ele>77.52</ele><time>2011-10-12T11:17:35Z</time></trkpt><trkpt lat="51.6830456257" lon="-1.6751433816"><ele>76.56</ele><time>2011-10-12T11:17:41Z</time></trkpt><trkpt lat="51.6831384972" lon="-1.6751893982"><ele>77.04</ele><time>2011-10-12T11:17:48Z</time></trkpt><trkpt lat="51.6831510700" lon="-1.6752077546"><ele>77.04</ele><time>2011-10-12T11:17:51Z</time></trkpt><trkpt lat="51.6832090728" lon="-1.6752723791"><ele>77.52</ele><time>2011-10-12T11:17:57Z</time></trkpt><trkpt lat="51.6832471266" lon="-1.6753167193"><ele>75.60</ele><time>2011-10-12T11:18:03Z</time></trkpt><trkpt lat="51.6832662374" lon="-1.6753213294"><ele>76.56</ele><time>2011-10-12T11:18:05Z</time></trkpt><trkpt lat="51.6833578516" lon="-1.6753899772"><ele>77.52</ele><time>2011-10-12T11:18:12Z</time></trkpt><trkpt lat="51.6833703406" lon="-1.6753976047"><ele>76.56</ele><time>2011-10-12T11:18:14Z</time></trkpt><trkpt lat="51.6834389884" lon="-1.6754548531"><ele>77.52</ele><time>2011-10-12T11:18:20Z</time></trkpt><trkpt lat="51.6834695823" lon="-1.6754813399"><ele>77.04</ele><time>2011-10-12T11:18:23Z</time></trkpt><trkpt lat="51.6835078876" lon="-1.6755033005"><ele>76.08</ele><time>2011-10-12T11:18:28Z</time></trkpt><trkpt lat="51.6835197899" lon="-1.6755122691"><ele>76.08</ele><time>2011-10-12T11:18:29Z</time></trkpt><trkpt lat="51.6835777927" lon="-1.6755659133"><ele>76.56</ele><time>2011-10-12T11:18:35Z</time></trkpt><trkpt lat="51.6835846659" lon="-1.6755752172"><ele>76.08</ele><time>2011-10-12T11:18:36Z</time></trkpt><trkpt lat="51.6836415790" lon="-1.6756319627"><ele>76.56</ele><time>2011-10-12T11:18:42Z</time></trkpt><trkpt lat="51.6836497094" lon="-1.6756383330"><ele>77.52</ele><time>2011-10-12T11:18:44Z</time></trkpt><trkpt lat="51.6836917028" lon="-1.6757031251"><ele>77.52</ele><time>2011-10-12T11:18:50Z</time></trkpt><trkpt lat="51.6837054491" lon="-1.6757343058"><ele>77.04</ele><time>2011-10-12T11:18:58Z</time></trkpt><trkpt lat="51.6837422457" lon="-1.6757737845"><ele>76.08</ele><time>2011-10-12T11:19:03Z</time></trkpt><trkpt lat="51.6837555729" lon="-1.6757933982"><ele>76.56</ele><time>2011-10-12T11:19:05Z</time></trkpt><trkpt lat="51.6837729234" lon="-1.6758143529"><ele>76.56</ele><time>2011-10-12T11:19:12Z</time></trkpt><trkpt lat="51.6837945487" lon="-1.6758477129"><ele>76.56</ele><time>2011-10-12T11:19:21Z</time></trkpt><trkpt lat="51.6838778649" lon="-1.6759457812"><ele>77.04</ele><time>2011-10-12T11:19:28Z</time></trkpt><trkpt lat="51.6838859115" lon="-1.6759544145"><ele>76.08</ele><time>2011-10-12T11:19:30Z</time></trkpt><trkpt lat="51.6839647852" lon="-1.6760153510"><ele>76.56</ele><time>2011-10-12T11:19:37Z</time></trkpt><trkpt lat="51.6840299964" lon="-1.6759960726"><ele>76.08</ele><time>2011-10-12T11:19:44Z</time></trkpt><trkpt lat="51.6840414796" lon="-1.6759824101"><ele>76.56</ele><time>2011-10-12T11:19:46Z</time></trkpt><trkpt lat="51.6840496939" lon="-1.6759129241"><ele>76.56</ele><time>2011-10-12T11:19:52Z</time></trkpt><trkpt lat="51.6840336844" lon="-1.6758357268"><ele>76.08</ele><time>2011-10-12T11:19:59Z</time></trkpt><trkpt lat="51.6839902662" lon="-1.6757814959"><ele>77.04</ele><time>2011-10-12T11:20:05Z</time></trkpt><trkpt lat="51.6839766037" lon="-1.6757723596"><ele>75.60</ele><time>2011-10-12T11:20:07Z</time></trkpt><trkpt lat="51.6839361191" lon="-1.6757164523"><ele>77.04</ele><time>2011-10-12T11:20:11Z</time></trkpt><trkpt lat="51.6839103866" lon="-1.6756920610"><ele>76.08</ele><time>2011-10-12T11:20:14Z</time></trkpt><trkpt lat="51.6838757694" lon="-1.6756374948"><ele>77.04</ele><time>2011-10-12T11:20:18Z</time></trkpt><trkpt lat="51.6838467680" lon="-1.6756109241"><ele>76.56</ele><time>2011-10-12T11:20:22Z</time></trkpt><trkpt lat="51.6838046070" lon="-1.6755606327"><ele>76.56</ele><time>2011-10-12T11:20:28Z</time></trkpt><trkpt lat="51.6837494541" lon="-1.6755495686"><ele>76.08</ele><time>2011-10-12T11:20:35Z</time></trkpt><trkpt lat="51.6837106459" lon="-1.6754934099"><ele>76.56</ele><time>2011-10-12T11:20:41Z</time></trkpt><trkpt lat="51.6837063711" lon="-1.6754525900"><ele>77.04</ele><time>2011-10-12T11:20:46Z</time></trkpt><trkpt lat="51.6837458499" lon="-1.6754001193"><ele>76.08</ele><time>2011-10-12T11:20:53Z</time></trkpt><trkpt lat="51.6837531421" lon="-1.6753963474"><ele>72.24</ele><time>2011-10-12T11:20:58Z</time></trkpt><trkpt lat="51.6837531421" lon="-1.6753963474"><ele>78.97</ele><time>2011-10-12T11:20:59Z</time></trkpt><trkpt lat="51.6837472748" lon="-1.6753962636"><ele>77.52</ele><time>2011-10-12T11:21:01Z</time></trkpt><trkpt lat="51.6837445926" lon="-1.6754183080"><ele>77.04</ele><time>2011-10-12T11:21:07Z</time></trkpt><trkpt lat="51.6837404016" lon="-1.6755607165"><ele>77.04</ele><time>2011-10-12T11:21:22Z</time></trkpt><trkpt lat="51.6837145854" lon="-1.6754019633"><ele>76.08</ele><time>2011-10-12T11:21:31Z</time></trkpt><trkpt lat="51.6836747713" lon="-1.6752421204"><ele>76.56</ele><time>2011-10-12T11:21:38Z</time></trkpt><trkpt lat="51.6835714225" lon="-1.6750793438"><ele>76.56</ele><time>2011-10-12T11:21:47Z</time></trkpt><trkpt lat="51.6835289262" lon="-1.6749863885"><ele>75.60</ele><time>2011-10-12T11:21:53Z</time></trkpt><trkpt lat="51.6835257411" lon="-1.6749700438"><ele>76.08</ele><time>2011-10-12T11:21:54Z</time></trkpt><trkpt lat="51.6835192870" lon="-1.6748858057"><ele>75.60</ele><time>2011-10-12T11:21:58Z</time></trkpt><trkpt lat="51.6834934708" lon="-1.6747318301"><ele>76.56</ele><time>2011-10-12T11:22:04Z</time></trkpt><trkpt lat="51.6834977455" lon="-1.6746381205"><ele>76.08</ele><time>2011-10-12T11:22:10Z</time></trkpt><trkpt lat="51.6835030261" lon="-1.6746241227"><ele>75.60</ele><time>2011-10-12T11:22:11Z</time></trkpt><trkpt lat="51.6835057084" lon="-1.6745721549"><ele>75.60</ele><time>2011-10-12T11:22:13Z</time></trkpt><trkpt lat="51.6835756134" lon="-1.6743411496"><ele>75.60</ele><time>2011-10-12T11:22:21Z</time></trkpt><trkpt lat="51.6835773736" lon="-1.6743109748"><ele>75.12</ele><time>2011-10-12T11:22:25Z</time></trkpt><trkpt lat="51.6836006753" lon="-1.6742267366"><ele>76.08</ele><time>2011-10-12T11:22:29Z</time></trkpt><trkpt lat="51.6836155951" lon="-1.6741487011"><ele>76.08</ele><time>2011-10-12T11:22:32Z</time></trkpt><trkpt lat="51.6836393159" lon="-1.6740668099"><ele>76.08</ele><time>2011-10-12T11:22:37Z</time></trkpt><trkpt lat="51.6836443450" lon="-1.6740559973"><ele>76.08</ele><time>2011-10-12T11:22:38Z</time></trkpt><trkpt lat="51.6836784594" lon="-1.6739920434"><ele>75.60</ele><time>2011-10-12T11:22:42Z</time></trkpt><trkpt lat="51.6837108973" lon="-1.6738991719"><ele>75.60</ele><time>2011-10-12T11:22:46Z</time></trkpt><trkpt lat="51.6837393958" lon="-1.6738658957"><ele>75.60</ele><time>2011-10-12T11:22:51Z</time></trkpt><trkpt lat="51.6837778687" lon="-1.6737938952"><ele>76.08</ele><time>2011-10-12T11:22:55Z</time></trkpt><trkpt lat="51.6838024277" lon="-1.6737607867"><ele>76.08</ele><time>2011-10-12T11:22:57Z</time></trkpt><trkpt lat="51.6838370450" lon="-1.6736994311"><ele>76.08</ele><time>2011-10-12T11:23:02Z</time></trkpt><trkpt lat="51.6838982329" lon="-1.6736612096"><ele>76.08</ele><time>2011-10-12T11:23:07Z</time></trkpt><trkpt lat="51.6839840636" lon="-1.6736191325"><ele>75.60</ele><time>2011-10-12T11:23:14Z</time></trkpt><trkpt lat="51.6840527114" lon="-1.6735866107"><ele>76.56</ele><time>2011-10-12T11:23:20Z</time></trkpt><trkpt lat="51.6841362789" lon="-1.6735557653"><ele>75.12</ele><time>2011-10-12T11:23:28Z</time></trkpt><trkpt lat="51.6842177510" lon="-1.6735278536"><ele>75.60</ele><time>2011-10-12T11:23:36Z</time></trkpt><trkpt lat="51.6842514463" lon="-1.6735066473"><ele>75.60</ele><time>2011-10-12T11:23:40Z</time></trkpt><trkpt lat="51.6843119636" lon="-1.6735180467"><ele>75.60</ele><time>2011-10-12T11:23:45Z</time></trkpt><trkpt lat="51.6843751632" lon="-1.6735244170"><ele>75.60</ele><time>2011-10-12T11:23:51Z</time></trkpt><trkpt lat="51.6844438948" lon="-1.6735279374"><ele>76.08</ele><time>2011-10-12T11:23:57Z</time></trkpt><trkpt lat="51.6844767518" lon="-1.6735412646"><ele>78.00</ele><time>2011-10-12T11:24:02Z</time></trkpt><trkpt lat="51.6844990477" lon="-1.6735462099"><ele>76.08</ele><time>2011-10-12T11:24:11Z</time></trkpt><trkpt lat="51.6845060885" lon="-1.6735498980"><ele>75.60</ele><time>2011-10-12T11:24:12Z</time></trkpt><trkpt lat="51.6845934279" lon="-1.6735296138"><ele>76.08</ele><time>2011-10-12T11:24:18Z</time></trkpt><trkpt lat="51.6846040729" lon="-1.6735289432"><ele>75.12</ele><time>2011-10-12T11:24:20Z</time></trkpt><trkpt lat="51.6846858803" lon="-1.6735173762"><ele>75.12</ele><time>2011-10-12T11:24:26Z</time></trkpt><trkpt lat="51.6847069189" lon="-1.6735253390"><ele>75.60</ele><time>2011-10-12T11:24:31Z</time></trkpt><trkpt lat="51.6847406141" lon="-1.6735072341"><ele>75.12</ele><time>2011-10-12T11:24:34Z</time></trkpt><trkpt lat="51.6848091781" lon="-1.6735005286"><ele>76.56</ele><time>2011-10-12T11:24:40Z</time></trkpt><trkpt lat="51.6848125309" lon="-1.6735026240"><ele>75.60</ele><time>2011-10-12T11:24:44Z</time></trkpt><trkpt lat="51.6848340724" lon="-1.6735093296"><ele>75.60</ele><time>2011-10-12T11:24:46Z</time></trkpt><trkpt lat="51.6849172208" lon="-1.6735597886"><ele>76.08</ele><time>2011-10-12T11:24:52Z</time></trkpt><trkpt lat="51.6849172208" lon="-1.6735597886"><ele>75.60</ele><time>2011-10-12T11:24:53Z</time></trkpt><trkpt lat="51.6849546041" lon="-1.6735659912"><ele>75.60</ele><time>2011-10-12T11:24:57Z</time></trkpt><trkpt lat="51.6850018781" lon="-1.6735633090"><ele>75.60</ele><time>2011-10-12T11:25:03Z</time></trkpt><trkpt lat="51.6850789078" lon="-1.6735857725"><ele>75.60</ele><time>2011-10-12T11:25:10Z</time></trkpt><trkpt lat="51.6850924864" lon="-1.6735882033"><ele>75.12</ele><time>2011-10-12T11:25:14Z</time></trkpt><trkpt lat="51.6851601284" lon="-1.6736185458"><ele>75.12</ele><time>2011-10-12T11:25:21Z</time></trkpt><trkpt lat="51.6851949971" lon="-1.6736519057"><ele>74.64</ele><time>2011-10-12T11:25:28Z</time></trkpt><trkpt lat="51.6852355655" lon="-1.6737032030"><ele>75.12</ele><time>2011-10-12T11:25:31Z</time></trkpt><trkpt lat="51.6852732841" lon="-1.6737353057"><ele>75.12</ele><time>2011-10-12T11:25:34Z</time></trkpt><trkpt lat="51.6852912214" lon="-1.6737597808"><ele>74.64</ele><time>2011-10-12T11:25:37Z</time></trkpt><trkpt lat="51.6853949893" lon="-1.6738275904"><ele>74.16</ele><time>2011-10-12T11:25:45Z</time></trkpt><trkpt lat="51.6854120046" lon="-1.6738417558"><ele>74.64</ele><time>2011-10-12T11:25:47Z</time></trkpt><trkpt lat="51.6854918841" lon="-1.6739016864"><ele>74.64</ele><time>2011-10-12T11:25:55Z</time></trkpt><trkpt lat="51.6855012719" lon="-1.6739036981"><ele>75.12</ele><time>2011-10-12T11:25:56Z</time></trkpt><trkpt lat="51.6855554190" lon="-1.6739405785"><ele>74.16</ele><time>2011-10-12T11:26:01Z</time></trkpt><trkpt lat="51.6855957359" lon="-1.6739921272"><ele>74.16</ele><time>2011-10-12T11:26:08Z</time></trkpt><trkpt lat="51.6856444348" lon="-1.6740502976"><ele>74.64</ele><time>2011-10-12T11:26:17Z</time></trkpt><trkpt lat="51.6856754478" lon="-1.6740934644"><ele>74.64</ele><time>2011-10-12T11:26:23Z</time></trkpt><trkpt lat="51.6856927983" lon="-1.6741419118"><ele>75.12</ele><time>2011-10-12T11:26:29Z</time></trkpt><trkpt lat="51.6857556626" lon="-1.6743384674"><ele>75.12</ele><time>2011-10-12T11:26:35Z</time></trkpt><trkpt lat="51.6857824847" lon="-1.6744055226"><ele>74.16</ele><time>2011-10-12T11:26:37Z</time></trkpt><trkpt lat="51.6858338658" lon="-1.6746538784"><ele>74.64</ele><time>2011-10-12T11:26:40Z</time></trkpt><trkpt lat="51.6858585924" lon="-1.6749132145"><ele>75.12</ele><time>2011-10-12T11:26:47Z</time></trkpt><trkpt lat="51.6859134939" lon="-1.6750020627"><ele>76.08</ele><time>2011-10-12T11:26:54Z</time></trkpt><trkpt lat="51.6860305890" lon="-1.6750444751"><ele>75.60</ele><time>2011-10-12T11:27:05Z</time></trkpt><trkpt lat="51.6860902682" lon="-1.6750485823"><ele>76.08</ele><time>2011-10-12T11:27:13Z</time></trkpt><trkpt lat="51.6861295793" lon="-1.6750293877"><ele>76.08</ele><time>2011-10-12T11:27:17Z</time></trkpt><trkpt lat="51.6862348560" lon="-1.6749918368"><ele>75.12</ele><time>2011-10-12T11:27:27Z</time></trkpt><trkpt lat="51.6862459201" lon="-1.6749925911"><ele>75.12</ele><time>2011-10-12T11:27:28Z</time></trkpt><trkpt lat="51.6863380373" lon="-1.6749904957"><ele>75.12</ele><time>2011-10-12T11:27:37Z</time></trkpt><trkpt lat="51.6863818746" lon="-1.6750049125"><ele>76.08</ele><time>2011-10-12T11:27:42Z</time></trkpt><trkpt lat="51.6864732374" lon="-1.6750570480"><ele>75.60</ele><time>2011-10-12T11:27:51Z</time></trkpt><trkpt lat="51.6864993889" lon="-1.6750886478"><ele>75.60</ele><time>2011-10-12T11:27:54Z</time></trkpt><trkpt lat="51.6865145601" lon="-1.6751259472"><ele>74.16</ele><time>2011-10-12T11:27:57Z</time></trkpt><trkpt lat="51.6865507700" lon="-1.6752177291"><ele>81.85</ele><time>2011-10-12T11:28:03Z</time></trkpt><trkpt lat="51.6865560506" lon="-1.6752251890"><ele>74.64</ele><time>2011-10-12T11:28:04Z</time></trkpt><trkpt lat="51.6865674499" lon="-1.6752390191"><ele>74.64</ele><time>2011-10-12T11:28:06Z</time></trkpt><trkpt lat="51.6865969542" lon="-1.6753070801"><ele>75.12</ele><time>2011-10-12T11:28:12Z</time></trkpt><trkpt lat="51.6866453178" lon="-1.6754174698"><ele>75.12</ele><time>2011-10-12T11:28:19Z</time></trkpt><trkpt lat="51.6866489220" lon="-1.6754381731"><ele>74.64</ele><time>2011-10-12T11:28:20Z</time></trkpt><trkpt lat="51.6866905801" lon="-1.6755549330"><ele>75.12</ele><time>2011-10-12T11:28:28Z</time></trkpt><trkpt lat="51.6867120378" lon="-1.6756274365"><ele>75.12</ele><time>2011-10-12T11:28:33Z</time></trkpt><trkpt lat="51.6867719684" lon="-1.6757080704"><ele>74.16</ele><time>2011-10-12T11:28:40Z</time></trkpt><trkpt lat="51.6868324019" lon="-1.6757480521"><ele>74.64</ele><time>2011-10-12T11:28:46Z</time></trkpt><trkpt lat="51.6868508421" lon="-1.6757292766"><ele>75.60</ele><time>2011-10-12T11:28:48Z</time></trkpt><trkpt lat="51.6868707910" lon="-1.6756897140"><ele>74.16</ele><time>2011-10-12T11:28:52Z</time></trkpt><trkpt lat="51.6868733056" lon="-1.6756798234"><ele>74.64</ele><time>2011-10-12T11:28:53Z</time></trkpt><trkpt lat="51.6868723836" lon="-1.6756395064"><ele>74.64</ele><time>2011-10-12T11:29:00Z</time></trkpt><trkpt lat="51.6868785862" lon="-1.6756214853"><ele>74.64</ele><time>2011-10-12T11:29:09Z</time></trkpt><trkpt lat="51.6868785862" lon="-1.6756214853"><ele>74.64</ele><time>2011-10-12T11:29:14Z</time></trkpt><trkpt lat="51.6869276203" lon="-1.6754984390"><ele>76.08</ele><time>2011-10-12T11:29:21Z</time></trkpt><trkpt lat="51.6869314760" lon="-1.6754839383"><ele>74.64</ele><time>2011-10-12T11:29:22Z</time></trkpt><trkpt lat="51.6869673505" lon="-1.6754423641"><ele>74.64</ele><time>2011-10-12T11:29:25Z</time></trkpt><trkpt lat="51.6870339029" lon="-1.6753266938"><ele>74.64</ele><time>2011-10-12T11:29:31Z</time></trkpt><trkpt lat="51.6870252695" lon="-1.6753048170"><ele>73.68</ele><time>2011-10-12T11:29:33Z</time></trkpt><trkpt lat="51.6870313045" lon="-1.6752488259"><ele>73.68</ele><time>2011-10-12T11:29:36Z</time></trkpt><trkpt lat="51.6870333999" lon="-1.6751028132"><ele>75.60</ele><time>2011-10-12T11:29:42Z</time></trkpt><trkpt lat="51.6870389320" lon="-1.6750529408"><ele>74.16</ele><time>2011-10-12T11:29:46Z</time></trkpt><trkpt lat="51.6870678496" lon="-1.6749518551"><ele>75.60</ele><time>2011-10-12T11:29:50Z</time></trkpt><trkpt lat="51.6870922409" lon="-1.6748366877"><ele>74.64</ele><time>2011-10-12T11:29:58Z</time></trkpt><trkpt lat="51.6871512495" lon="-1.6747574788"><ele>74.64</ele><time>2011-10-12T11:30:02Z</time></trkpt><trkpt lat="51.6871946678" lon="-1.6747244541"><ele>74.16</ele><time>2011-10-12T11:30:07Z</time></trkpt><trkpt lat="51.6872190591" lon="-1.6747086961"><ele>74.64</ele><time>2011-10-12T11:30:10Z</time></trkpt><trkpt lat="51.6872846056" lon="-1.6746896692"><ele>74.64</ele><time>2011-10-12T11:30:16Z</time></trkpt><trkpt lat="51.6873110086" lon="-1.6746780183"><ele>74.64</ele><time>2011-10-12T11:30:20Z</time></trkpt><trkpt lat="51.6873763874" lon="-1.6746713966"><ele>75.12</ele><time>2011-10-12T11:30:27Z</time></trkpt><trkpt lat="51.6874022037" lon="-1.6746610869"><ele>75.60</ele><time>2011-10-12T11:30:37Z</time></trkpt><trkpt lat="51.6874100827" lon="-1.6746594943"><ele>74.16</ele><time>2011-10-12T11:30:43Z</time></trkpt><trkpt lat="51.6874100827" lon="-1.6746594943"><ele>74.16</ele><time>2011-10-12T11:30:51Z</time></trkpt><trkpt lat="51.6874343064" lon="-1.6746997274"><ele>74.16</ele><time>2011-10-12T11:30:56Z</time></trkpt><trkpt lat="51.6874678340" lon="-1.6748044174"><ele>74.16</ele><time>2011-10-12T11:31:03Z</time></trkpt><trkpt lat="51.6875073127" lon="-1.6748841293"><ele>74.16</ele><time>2011-10-12T11:31:11Z</time></trkpt><trkpt lat="51.6875176225" lon="-1.6748903319"><ele>74.64</ele><time>2011-10-12T11:31:12Z</time></trkpt><trkpt lat="51.6875827499" lon="-1.6749149747"><ele>74.16</ele><time>2011-10-12T11:31:18Z</time></trkpt><trkpt lat="51.6876099911" lon="-1.6749604046"><ele>75.12</ele><time>2011-10-12T11:31:23Z</time></trkpt><trkpt lat="51.6876099911" lon="-1.6749604046"><ele>74.64</ele><time>2011-10-12T11:31:33Z</time></trkpt><trkpt lat="51.6876099911" lon="-1.6749604046"><ele>74.64</ele><time>2011-10-12T11:31:34Z</time></trkpt><trkpt lat="51.6876467876" lon="-1.6750492528"><ele>74.16</ele><time>2011-10-12T11:31:41Z</time></trkpt><trkpt lat="51.6876467876" lon="-1.6750492528"><ele>74.64</ele><time>2011-10-12T11:31:44Z</time></trkpt><trkpt lat="51.6876452789" lon="-1.6750663519"><ele>78.00</ele><time>2011-10-12T11:31:46Z</time></trkpt><trkpt lat="51.6876526549" lon="-1.6751020588"><ele>74.16</ele><time>2011-10-12T11:31:48Z</time></trkpt><trkpt lat="51.6876645572" lon="-1.6751701199"><ele>78.48</ele><time>2011-10-12T11:31:55Z</time></trkpt><trkpt lat="51.6876607854" lon="-1.6751972772"><ele>78.00</ele><time>2011-10-12T11:32:03Z</time></trkpt><trkpt lat="51.6876609530" lon="-1.6752262786"><ele>77.04</ele><time>2011-10-12T11:32:08Z</time></trkpt><trkpt lat="51.6876554210" lon="-1.6752398573"><ele>78.00</ele><time>2011-10-12T11:32:17Z</time></trkpt><trkpt lat="51.6876398306" lon="-1.6752652545"><ele>77.52</ele><time>2011-10-12T11:32:29Z</time></trkpt><trkpt lat="51.6876325384" lon="-1.6752736364"><ele>77.04</ele><time>2011-10-12T11:32:39Z</time></trkpt><trkpt lat="51.6876056325" lon="-1.6753478162"><ele>77.04</ele><time>2011-10-12T11:32:51Z</time></trkpt><trkpt lat="51.6875872761" lon="-1.6754021309"><ele>75.60</ele><time>2011-10-12T11:32:57Z</time></trkpt><trkpt lat="51.6875636391" lon="-1.6754482314"><ele>74.64</ele><time>2011-10-12T11:33:03Z</time></trkpt><trkpt lat="51.6875610407" lon="-1.6754872072"><ele>74.64</ele><time>2011-10-12T11:33:10Z</time></trkpt><trkpt lat="51.6875817440" lon="-1.6755158734"><ele>74.16</ele><time>2011-10-12T11:33:16Z</time></trkpt><trkpt lat="51.6876423452" lon="-1.6755285300"><ele>74.16</ele><time>2011-10-12T11:33:24Z</time></trkpt><trkpt lat="51.6876798123" lon="-1.6755685955"><ele>74.64</ele><time>2011-10-12T11:33:29Z</time></trkpt><trkpt lat="51.6877059639" lon="-1.6755935736"><ele>74.16</ele><time>2011-10-12T11:33:38Z</time></trkpt><trkpt lat="51.6877059639" lon="-1.6755935736"><ele>74.16</ele><time>2011-10-12T11:33:43Z</time></trkpt><trkpt lat="51.6877305228" lon="-1.6756183002"><ele>74.16</ele><time>2011-10-12T11:33:47Z</time></trkpt><trkpt lat="51.6877823230" lon="-1.6756530851"><ele>74.16</ele><time>2011-10-12T11:33:52Z</time></trkpt><trkpt lat="51.6877972428" lon="-1.6756633110"><ele>74.16</ele><time>2011-10-12T11:33:55Z</time></trkpt><trkpt lat="51.6878264118" lon="-1.6756982636"><ele>73.68</ele><time>2011-10-12T11:34:00Z</time></trkpt><trkpt lat="51.6878964007" lon="-1.6757632233"><ele>74.64</ele><time>2011-10-12T11:34:06Z</time></trkpt><trkpt lat="51.6879953071" lon="-1.6758351400"><ele>75.60</ele><time>2011-10-12T11:34:13Z</time></trkpt><trkpt lat="51.6880369652" lon="-1.6758676618"><ele>75.12</ele><time>2011-10-12T11:34:18Z</time></trkpt><trkpt lat="51.6880964767" lon="-1.6759146005"><ele>75.12</ele><time>2011-10-12T11:34:24Z</time></trkpt><trkpt lat="51.6881369613" lon="-1.6759363934"><ele>74.64</ele><time>2011-10-12T11:34:29Z</time></trkpt><trkpt lat="51.6882152483" lon="-1.6759936418"><ele>76.08</ele><time>2011-10-12T11:34:35Z</time></trkpt><trkpt lat="51.6882216185" lon="-1.6760035325"><ele>75.12</ele><time>2011-10-12T11:34:36Z</time></trkpt><trkpt lat="51.6882424057" lon="-1.6760367248"><ele>73.68</ele><time>2011-10-12T11:34:38Z</time></trkpt><trkpt lat="51.6883331817" lon="-1.6761653032"><ele>74.64</ele><time>2011-10-12T11:34:47Z</time></trkpt><trkpt lat="51.6883838922" lon="-1.6762621980"><ele>76.08</ele><time>2011-10-12T11:34:54Z</time></trkpt><trkpt lat="51.6883857362" lon="-1.6762782075"><ele>76.08</ele><time>2011-10-12T11:35:01Z</time></trkpt><trkpt lat="51.6884056013" lon="-1.6763091367"><ele>74.64</ele><time>2011-10-12T11:35:04Z</time></trkpt><trkpt lat="51.6884176712" lon="-1.6763326060"><ele>71.27</ele><time>2011-10-12T11:35:06Z</time></trkpt><trkpt lat="51.6884304956" lon="-1.6763628647"><ele>75.60</ele><time>2011-10-12T11:35:08Z</time></trkpt><trkpt lat="51.6884462535" lon="-1.6764012538"><ele>74.64</ele><time>2011-10-12T11:35:10Z</time></trkpt><trkpt lat="51.6884816252" lon="-1.6764709074"><ele>75.12</ele><time>2011-10-12T11:35:16Z</time></trkpt><trkpt lat="51.6885174159" lon="-1.6765725799"><ele>75.60</ele><time>2011-10-12T11:35:22Z</time></trkpt><trkpt lat="51.6885316651" lon="-1.6766237933"><ele>74.64</ele><time>2011-10-12T11:35:25Z</time></trkpt><trkpt lat="51.6885551345" lon="-1.6767510306"><ele>74.64</ele><time>2011-10-12T11:35:32Z</time></trkpt><trkpt lat="51.6885870695" lon="-1.6769052576"><ele>74.64</ele><time>2011-10-12T11:35:39Z</time></trkpt><trkpt lat="51.6885961220" lon="-1.6769863945"><ele>75.12</ele><time>2011-10-12T11:35:44Z</time></trkpt><trkpt lat="51.6885964572" lon="-1.6769994702"><ele>75.12</ele><time>2011-10-12T11:35:45Z</time></trkpt><trkpt lat="51.6885915119" lon="-1.6771811061"><ele>76.08</ele><time>2011-10-12T11:35:52Z</time></trkpt><trkpt lat="51.6885895841" lon="-1.6772235185"><ele>74.64</ele><time>2011-10-12T11:35:56Z</time></trkpt><trkpt lat="51.6886003967" lon="-1.6773323156"><ele>75.60</ele><time>2011-10-12T11:36:02Z</time></trkpt><trkpt lat="51.6886127181" lon="-1.6773377638"><ele>75.12</ele><time>2011-10-12T11:36:06Z</time></trkpt><trkpt lat="51.6886732355" lon="-1.6773358360"><ele>75.12</ele><time>2011-10-12T11:36:12Z</time></trkpt><trkpt lat="51.6886984650" lon="-1.6773542762"><ele>75.12</ele><time>2011-10-12T11:36:16Z</time></trkpt><trkpt lat="51.6887376923" lon="-1.6774545237"><ele>75.60</ele><time>2011-10-12T11:36:23Z</time></trkpt><trkpt lat="51.6887514386" lon="-1.6774925776"><ele>75.60</ele><time>2011-10-12T11:36:26Z</time></trkpt><trkpt lat="51.6887933481" lon="-1.6776052304"><ele>75.12</ele><time>2011-10-12T11:36:33Z</time></trkpt><trkpt lat="51.6888104472" lon="-1.6776976828"><ele>74.16</ele><time>2011-10-12T11:36:40Z</time></trkpt><trkpt lat="51.6888314858" lon="-1.6777835973"><ele>75.12</ele><time>2011-10-12T11:36:46Z</time></trkpt><trkpt lat="51.6888548713" lon="-1.6778793186"><ele>74.64</ele><time>2011-10-12T11:36:53Z</time></trkpt><trkpt lat="51.6888926737" lon="-1.6779654007"><ele>75.12</ele><time>2011-10-12T11:37:01Z</time></trkpt><trkpt lat="51.6889398638" lon="-1.6780700069"><ele>74.16</ele><time>2011-10-12T11:37:10Z</time></trkpt><trkpt lat="51.6889756545" lon="-1.6781670693"><ele>75.12</ele><time>2011-10-12T11:37:16Z</time></trkpt><trkpt lat="51.6890171450" lon="-1.6782990843"><ele>75.60</ele><time>2011-10-12T11:37:24Z</time></trkpt><trkpt lat="51.6890384350" lon="-1.6783571709"><ele>74.64</ele><time>2011-10-12T11:37:29Z</time></trkpt><trkpt lat="51.6890774108" lon="-1.6784546524"><ele>75.60</ele><time>2011-10-12T11:37:36Z</time></trkpt><trkpt lat="51.6891078372" lon="-1.6785536427"><ele>75.12</ele><time>2011-10-12T11:37:44Z</time></trkpt><trkpt lat="51.6891219188" lon="-1.6785839852"><ele>75.12</ele><time>2011-10-12T11:37:47Z</time></trkpt><trkpt lat="51.6891580448" lon="-1.6787011642"><ele>75.60</ele><time>2011-10-12T11:37:55Z</time></trkpt><trkpt lat="51.6891707014" lon="-1.6788091231"><ele>75.12</ele><time>2011-10-12T11:38:02Z</time></trkpt><trkpt lat="51.6891783290" lon="-1.6788622644"><ele>75.60</ele><time>2011-10-12T11:38:08Z</time></trkpt><trkpt lat="51.6891814303" lon="-1.6788895894"><ele>74.64</ele><time>2011-10-12T11:38:12Z</time></trkpt><trkpt lat="51.6892008763" lon="-1.6789288167"><ele>74.64</ele><time>2011-10-12T11:38:17Z</time></trkpt><trkpt lat="51.6892434563" lon="-1.6789193451"><ele>75.12</ele><time>2011-10-12T11:38:26Z</time></trkpt><trkpt lat="51.6892752238" lon="-1.6789189260"><ele>75.12</ele><time>2011-10-12T11:38:33Z</time></trkpt><trkpt lat="51.6892970167" lon="-1.6789244581"><ele>75.12</ele><time>2011-10-12T11:38:36Z</time></trkpt><trkpt lat="51.6893255152" lon="-1.6790048406"><ele>76.08</ele><time>2011-10-12T11:38:41Z</time></trkpt><trkpt lat="51.6893908940" lon="-1.6791016515"><ele>75.12</ele><time>2011-10-12T11:38:48Z</time></trkpt><trkpt lat="51.6894022934" lon="-1.6792189144"><ele>75.60</ele><time>2011-10-12T11:38:55Z</time></trkpt><trkpt lat="51.6893815063" lon="-1.6792500112"><ele>76.08</ele><time>2011-10-12T11:39:02Z</time></trkpt><trkpt lat="51.6893815063" lon="-1.6792500112"><ele>75.60</ele><time>2011-10-12T11:39:11Z</time></trkpt><trkpt lat="51.6893245094" lon="-1.6791972890"><ele>77.52</ele><time>2011-10-12T11:39:18Z</time></trkpt><trkpt lat="51.6893055663" lon="-1.6791377775"><ele>78.48</ele><time>2011-10-12T11:39:28Z</time></trkpt><trkpt lat="51.6893059853" lon="-1.6791275516"><ele>78.00</ele><time>2011-10-12T11:39:29Z</time></trkpt><trkpt lat="51.6893250123" lon="-1.6790707223"><ele>78.97</ele><time>2011-10-12T11:39:33Z</time></trkpt><trkpt lat="51.6893429495" lon="-1.6790002305"><ele>79.45</ele><time>2011-10-12T11:39:38Z</time></trkpt><trkpt lat="51.6893488169" lon="-1.6789868195"><ele>78.97</ele><time>2011-10-12T11:39:39Z</time></trkpt><trkpt lat="51.6893949173" lon="-1.6789091192"><ele>78.97</ele><time>2011-10-12T11:39:45Z</time></trkpt><trkpt lat="51.6894064844" lon="-1.6789032519"><ele>78.97</ele><time>2011-10-12T11:39:46Z</time></trkpt><trkpt lat="51.6895197239" lon="-1.6788512841"><ele>78.97</ele><time>2011-10-12T11:39:55Z</time></trkpt><trkpt lat="51.6895625554" lon="-1.6788298264"><ele>78.48</ele><time>2011-10-12T11:40:01Z</time></trkpt><trkpt lat="51.6895732004" lon="-1.6788211092"><ele>78.97</ele><time>2011-10-12T11:40:05Z</time></trkpt><trkpt lat="51.6896441951" lon="-1.6787641123"><ele>78.97</ele><time>2011-10-12T11:40:12Z</time></trkpt><trkpt lat="51.6897121724" lon="-1.6787450854"><ele>78.48</ele><time>2011-10-12T11:40:18Z</time></trkpt><trkpt lat="51.6897970811" lon="-1.6787231248"><ele>78.97</ele><time>2011-10-12T11:40:25Z</time></trkpt><trkpt lat="51.6898733564" lon="-1.6786911059"><ele>77.52</ele><time>2011-10-12T11:40:33Z</time></trkpt><trkpt lat="51.6899539065" lon="-1.6786578298"><ele>77.04</ele><time>2011-10-12T11:40:42Z</time></trkpt><trkpt lat="51.6900331154" lon="-1.6786445864"><ele>77.52</ele><time>2011-10-12T11:40:49Z</time></trkpt><trkpt lat="51.6901129950" lon="-1.6786066163"><ele>76.56</ele><time>2011-10-12T11:40:57Z</time></trkpt><trkpt lat="51.6901286691" lon="-1.6785567440"><ele>75.60</ele><time>2011-10-12T11:41:03Z</time></trkpt><trkpt lat="51.6901318543" lon="-1.6785252281"><ele>75.60</ele><time>2011-10-12T11:41:06Z</time></trkpt><trkpt lat="51.6901477799" lon="-1.6784663033"><ele>75.60</ele><time>2011-10-12T11:41:12Z</time></trkpt><trkpt lat="51.6901434213" lon="-1.6784658842"><ele>75.12</ele><time>2011-10-12T11:41:21Z</time></trkpt><trkpt lat="51.6901498754" lon="-1.6784600168"><ele>75.60</ele><time>2011-10-12T11:41:25Z</time></trkpt><trkpt lat="51.6901873425" lon="-1.6783913691"><ele>75.12</ele><time>2011-10-12T11:41:30Z</time></trkpt><trkpt lat="51.6901839897" lon="-1.6783673968"><ele>75.60</ele><time>2011-10-12T11:41:32Z</time></trkpt><trkpt lat="51.6901815590" lon="-1.6782513913"><ele>76.08</ele><time>2011-10-12T11:41:37Z</time></trkpt><trkpt lat="51.6901880968" lon="-1.6781380679"><ele>75.60</ele><time>2011-10-12T11:41:43Z</time></trkpt><trkpt lat="51.6902033519" lon="-1.6780937277"><ele>75.60</ele><time>2011-10-12T11:41:45Z</time></trkpt><trkpt lat="51.6902701557" lon="-1.6780829988"><ele>76.08</ele><time>2011-10-12T11:41:52Z</time></trkpt><trkpt lat="51.6903283261" lon="-1.6780910455"><ele>75.60</ele><time>2011-10-12T11:41:58Z</time></trkpt><trkpt lat="51.6903431620" lon="-1.6780968290"><ele>75.12</ele><time>2011-10-12T11:42:04Z</time></trkpt><trkpt lat="51.6903431620" lon="-1.6780968290"><ele>75.12</ele><time>2011-10-12T11:42:19Z</time></trkpt><trkpt lat="51.6903432459" lon="-1.6780967452"><ele>75.60</ele><time>2011-10-12T11:42:25Z</time></trkpt></trkseg></trk></gpx>